<?xml version="1.0" encoding="UTF-8" standalone="no"?><gpx version="1.1" creator="Colorado 300" xmlns:xsi="http://www.w3.org/2001/XMLSchema-instance" xmlns="http://www.topografix.com/GPX/1/1"  xmlns:gpxtpx="http://www.garmin.com/xmlschemas/TrackPointExtension/v1" xmlns:gpxx="http://www.garmin.com/xmlschemas/GpxExtensions/v3" xsi:schemaLocation="http://www.topografix.com/GPX/1/1 http://www.topografix.com/GPX/1/1/gpx.xsd http://www.garmin.com/xmlschemas/GpxExtensions/v3 http://www.garmin.com/xmlschemas/GpxExtensionsv3.xsd http://www.garmin.com/xmlschemas/TrackPointExtension/v1 http://www.garmin.com/xmlschemas/TrackPointExtensionv1.xsd"> <author>Xisco Xavier Jaume</author> <email>xiscox@xmtb.es</email> <url>http://www.xmtb.es</url> <urlname>Xisco Mountain Bike</urlname><time>2010-04-10T13:49:42Z</time><trk><name>Alaro, ses Artigues, Es Rafals, Es Freus, Coa Negra, Clot des Guix, sa Bastida</name><trkseg><trkpt lat="39.702658" lon="2.794500"><ele>209.22</ele><time>2010-04-10T06:37:59Z</time></trkpt>
<trkpt lat="39.702576" lon="2.794340"><ele>209.22</ele><time>2010-04-10T06:38:09Z</time></trkpt>
<trkpt lat="39.702555" lon="2.794305"><ele>209.70</ele><time>2010-04-10T06:38:11Z</time></trkpt>
<trkpt lat="39.702542" lon="2.794258"><ele>209.70</ele><time>2010-04-10T06:38:13Z</time></trkpt>
<trkpt lat="39.702590" lon="2.794185"><ele>210.19</ele><time>2010-04-10T06:38:17Z</time></trkpt>
<trkpt lat="39.702783" lon="2.793987"><ele>211.15</ele><time>2010-04-10T06:38:28Z</time></trkpt>
<trkpt lat="39.703024" lon="2.793668"><ele>212.11</ele><time>2010-04-10T06:38:42Z</time></trkpt>
<trkpt lat="39.703225" lon="2.793427"><ele>213.07</ele><time>2010-04-10T06:38:53Z</time></trkpt>
<trkpt lat="39.703492" lon="2.793130"><ele>214.51</ele><time>2010-04-10T06:39:07Z</time></trkpt>
<trkpt lat="39.703685" lon="2.792898"><ele>215.47</ele><time>2010-04-10T06:39:17Z</time></trkpt>
<trkpt lat="39.703839" lon="2.792700"><ele>215.95</ele><time>2010-04-10T06:39:25Z</time></trkpt>
<trkpt lat="39.704102" lon="2.792390"><ele>217.88</ele><time>2010-04-10T06:39:38Z</time></trkpt>
<trkpt lat="39.704351" lon="2.792099"><ele>218.84</ele><time>2010-04-10T06:39:50Z</time></trkpt>
<trkpt lat="39.704641" lon="2.791727"><ele>220.76</ele><time>2010-04-10T06:40:04Z</time></trkpt>
<trkpt lat="39.704718" lon="2.791611"><ele>220.76</ele><time>2010-04-10T06:40:08Z</time></trkpt>
<trkpt lat="39.704892" lon="2.791383"><ele>222.20</ele><time>2010-04-10T06:40:17Z</time></trkpt>
<trkpt lat="39.705058" lon="2.791167"><ele>223.16</ele><time>2010-04-10T06:40:26Z</time></trkpt>
<trkpt lat="39.705252" lon="2.790825"><ele>224.12</ele><time>2010-04-10T06:40:39Z</time></trkpt>
<trkpt lat="39.705375" lon="2.790625"><ele>225.09</ele><time>2010-04-10T06:40:47Z</time></trkpt>
<trkpt lat="39.705485" lon="2.790445"><ele>226.05</ele><time>2010-04-10T06:40:54Z</time></trkpt>
<trkpt lat="39.705535" lon="2.790408"><ele>226.05</ele><time>2010-04-10T06:40:56Z</time></trkpt>
<trkpt lat="39.705815" lon="2.790079"><ele>227.49</ele><time>2010-04-10T06:41:11Z</time></trkpt>
<trkpt lat="39.705958" lon="2.789897"><ele>228.45</ele><time>2010-04-10T06:41:20Z</time></trkpt>
<trkpt lat="39.705954" lon="2.789799"><ele>228.45</ele><time>2010-04-10T06:41:23Z</time></trkpt>
<trkpt lat="39.705938" lon="2.789722"><ele>228.93</ele><time>2010-04-10T06:41:26Z</time></trkpt>
<trkpt lat="39.705824" lon="2.789546"><ele>229.41</ele><time>2010-04-10T06:41:34Z</time></trkpt>
<trkpt lat="39.705762" lon="2.789378"><ele>229.89</ele><time>2010-04-10T06:41:41Z</time></trkpt>
<trkpt lat="39.705757" lon="2.789283"><ele>230.37</ele><time>2010-04-10T06:41:45Z</time></trkpt>
<trkpt lat="39.705839" lon="2.789103"><ele>230.85</ele><time>2010-04-10T06:41:56Z</time></trkpt>
<trkpt lat="39.705997" lon="2.788973"><ele>231.81</ele><time>2010-04-10T06:42:06Z</time></trkpt>
<trkpt lat="39.706107" lon="2.788885"><ele>232.30</ele><time>2010-04-10T06:42:12Z</time></trkpt>
<trkpt lat="39.706190" lon="2.788690"><ele>233.26</ele><time>2010-04-10T06:42:20Z</time></trkpt>
<trkpt lat="39.706282" lon="2.788540"><ele>234.22</ele><time>2010-04-10T06:42:27Z</time></trkpt>
<trkpt lat="39.706303" lon="2.788508"><ele>234.22</ele><time>2010-04-10T06:42:29Z</time></trkpt>
<trkpt lat="39.706400" lon="2.788409"><ele>234.70</ele><time>2010-04-10T06:42:34Z</time></trkpt>
<trkpt lat="39.706617" lon="2.788232"><ele>235.66</ele><time>2010-04-10T06:42:44Z</time></trkpt>
<trkpt lat="39.706647" lon="2.788198"><ele>235.66</ele><time>2010-04-10T06:42:46Z</time></trkpt>
<trkpt lat="39.706675" lon="2.788123"><ele>235.66</ele><time>2010-04-10T06:42:50Z</time></trkpt>
<trkpt lat="39.706606" lon="2.787862"><ele>237.10</ele><time>2010-04-10T06:43:00Z</time></trkpt>
<trkpt lat="39.706521" lon="2.787588"><ele>237.58</ele><time>2010-04-10T06:43:08Z</time></trkpt>
<trkpt lat="39.706451" lon="2.787393"><ele>237.58</ele><time>2010-04-10T06:43:15Z</time></trkpt>
<trkpt lat="39.706322" lon="2.787109"><ele>238.06</ele><time>2010-04-10T06:43:24Z</time></trkpt>
<trkpt lat="39.706195" lon="2.786911"><ele>238.06</ele><time>2010-04-10T06:43:30Z</time></trkpt>
<trkpt lat="39.706228" lon="2.786867"><ele>238.54</ele><time>2010-04-10T06:43:34Z</time></trkpt>
<trkpt lat="39.706090" lon="2.786595"><ele>239.02</ele><time>2010-04-10T06:43:42Z</time></trkpt>
<trkpt lat="39.706058" lon="2.786519"><ele>238.54</ele><time>2010-04-10T06:43:44Z</time></trkpt>
<trkpt lat="39.706126" lon="2.786237"><ele>239.51</ele><time>2010-04-10T06:43:51Z</time></trkpt>
<trkpt lat="39.706232" lon="2.786071"><ele>239.99</ele><time>2010-04-10T06:43:56Z</time></trkpt>
<trkpt lat="39.706334" lon="2.785905"><ele>240.47</ele><time>2010-04-10T06:44:00Z</time></trkpt>
<trkpt lat="39.706423" lon="2.785795"><ele>240.95</ele><time>2010-04-10T06:44:03Z</time></trkpt>
<trkpt lat="39.706714" lon="2.785418"><ele>242.87</ele><time>2010-04-10T06:44:13Z</time></trkpt>
<trkpt lat="39.706787" lon="2.785288"><ele>242.87</ele><time>2010-04-10T06:44:16Z</time></trkpt>
<trkpt lat="39.706974" lon="2.785068"><ele>244.31</ele><time>2010-04-10T06:44:22Z</time></trkpt>
<trkpt lat="39.707151" lon="2.784998"><ele>244.31</ele><time>2010-04-10T06:44:27Z</time></trkpt>
<trkpt lat="39.707161" lon="2.785003"><ele>244.31</ele><time>2010-04-10T06:44:32Z</time></trkpt>
<trkpt lat="39.707167" lon="2.784997"><ele>244.31</ele><time>2010-04-10T06:44:36Z</time></trkpt>
<trkpt lat="39.707287" lon="2.784868"><ele>244.79</ele><time>2010-04-10T06:44:43Z</time></trkpt>
<trkpt lat="39.707465" lon="2.784670"><ele>245.27</ele><time>2010-04-10T06:44:52Z</time></trkpt>
<trkpt lat="39.707704" lon="2.784489"><ele>246.23</ele><time>2010-04-10T06:45:02Z</time></trkpt>
<trkpt lat="39.707896" lon="2.784362"><ele>246.72</ele><time>2010-04-10T06:45:10Z</time></trkpt>
<trkpt lat="39.708008" lon="2.784127"><ele>247.20</ele><time>2010-04-10T06:45:18Z</time></trkpt>
<trkpt lat="39.708051" lon="2.783884"><ele>248.16</ele><time>2010-04-10T06:45:25Z</time></trkpt>
<trkpt lat="39.708185" lon="2.783469"><ele>249.12</ele><time>2010-04-10T06:45:37Z</time></trkpt>
<trkpt lat="39.708304" lon="2.783281"><ele>250.08</ele><time>2010-04-10T06:45:44Z</time></trkpt>
<trkpt lat="39.708469" lon="2.783153"><ele>250.56</ele><time>2010-04-10T06:45:51Z</time></trkpt>
<trkpt lat="39.708451" lon="2.783025"><ele>251.04</ele><time>2010-04-10T06:45:56Z</time></trkpt>
<trkpt lat="39.708429" lon="2.783010"><ele>251.04</ele><time>2010-04-10T06:45:57Z</time></trkpt>
<trkpt lat="39.708364" lon="2.782968"><ele>251.04</ele><time>2010-04-10T06:46:00Z</time></trkpt>
<trkpt lat="39.708389" lon="2.782852"><ele>251.52</ele><time>2010-04-10T06:46:05Z</time></trkpt>
<trkpt lat="39.708412" lon="2.782840"><ele>251.52</ele><time>2010-04-10T06:46:06Z</time></trkpt>
<trkpt lat="39.708692" lon="2.782705"><ele>252.96</ele><time>2010-04-10T06:46:17Z</time></trkpt>
<trkpt lat="39.708925" lon="2.782603"><ele>253.93</ele><time>2010-04-10T06:46:26Z</time></trkpt>
<trkpt lat="39.709133" lon="2.782469"><ele>255.37</ele><time>2010-04-10T06:46:35Z</time></trkpt>
<trkpt lat="39.709382" lon="2.782295"><ele>257.29</ele><time>2010-04-10T06:46:47Z</time></trkpt>
<trkpt lat="39.709588" lon="2.782123"><ele>259.21</ele><time>2010-04-10T06:46:58Z</time></trkpt>
<trkpt lat="39.709838" lon="2.781933"><ele>262.58</ele><time>2010-04-10T06:47:11Z</time></trkpt>
<trkpt lat="39.710088" lon="2.781848"><ele>264.98</ele><time>2010-04-10T06:47:23Z</time></trkpt>
<trkpt lat="39.710338" lon="2.781736"><ele>266.42</ele><time>2010-04-10T06:47:35Z</time></trkpt>
<trkpt lat="39.710493" lon="2.781713"><ele>266.42</ele><time>2010-04-10T06:47:41Z</time></trkpt>
<trkpt lat="39.710711" lon="2.781689"><ele>265.46</ele><time>2010-04-10T06:47:48Z</time></trkpt>
<trkpt lat="39.710806" lon="2.781683"><ele>264.98</ele><time>2010-04-10T06:47:50Z</time></trkpt>
<trkpt lat="39.710980" lon="2.781624"><ele>264.02</ele><time>2010-04-10T06:47:53Z</time></trkpt>
<trkpt lat="39.711099" lon="2.781552"><ele>263.54</ele><time>2010-04-10T06:47:55Z</time></trkpt>
<trkpt lat="39.711381" lon="2.781356"><ele>264.02</ele><time>2010-04-10T06:48:02Z</time></trkpt>
<trkpt lat="39.711600" lon="2.781248"><ele>264.98</ele><time>2010-04-10T06:48:09Z</time></trkpt>
<trkpt lat="39.711830" lon="2.781110"><ele>266.42</ele><time>2010-04-10T06:48:18Z</time></trkpt>
<trkpt lat="39.712106" lon="2.780696"><ele>267.86</ele><time>2010-04-10T06:48:33Z</time></trkpt>
<trkpt lat="39.712280" lon="2.780473"><ele>268.83</ele><time>2010-04-10T06:48:42Z</time></trkpt>
<trkpt lat="39.712446" lon="2.780312"><ele>270.75</ele><time>2010-04-10T06:48:50Z</time></trkpt>
<trkpt lat="39.712630" lon="2.780129"><ele>274.11</ele><time>2010-04-10T06:49:00Z</time></trkpt>
<trkpt lat="39.712770" lon="2.779995"><ele>277.00</ele><time>2010-04-10T06:49:09Z</time></trkpt>
<trkpt lat="39.712904" lon="2.779919"><ele>278.92</ele><time>2010-04-10T06:49:17Z</time></trkpt>
<trkpt lat="39.713106" lon="2.779833"><ele>280.36</ele><time>2010-04-10T06:49:26Z</time></trkpt>
<trkpt lat="39.713313" lon="2.779754"><ele>281.80</ele><time>2010-04-10T06:49:36Z</time></trkpt>
<trkpt lat="39.713543" lon="2.779706"><ele>283.25</ele><time>2010-04-10T06:49:47Z</time></trkpt>
<trkpt lat="39.713771" lon="2.779673"><ele>283.25</ele><time>2010-04-10T06:49:56Z</time></trkpt>
<trkpt lat="39.714011" lon="2.779674"><ele>281.80</ele><time>2010-04-10T06:50:02Z</time></trkpt>
<trkpt lat="39.714191" lon="2.779717"><ele>280.84</ele><time>2010-04-10T06:50:07Z</time></trkpt>
<trkpt lat="39.714285" lon="2.779680"><ele>281.32</ele><time>2010-04-10T06:50:13Z</time></trkpt>
<trkpt lat="39.714289" lon="2.779673"><ele>282.28</ele><time>2010-04-10T06:50:19Z</time></trkpt>
<trkpt lat="39.714314" lon="2.779654"><ele>282.28</ele><time>2010-04-10T06:50:26Z</time></trkpt>
<trkpt lat="39.714342" lon="2.779626"><ele>283.25</ele><time>2010-04-10T06:50:30Z</time></trkpt>
<trkpt lat="39.714373" lon="2.779550"><ele>284.21</ele><time>2010-04-10T06:50:39Z</time></trkpt>
<trkpt lat="39.714373" lon="2.779548"><ele>284.21</ele><time>2010-04-10T06:50:40Z</time></trkpt>
<trkpt lat="39.714383" lon="2.779484"><ele>284.69</ele><time>2010-04-10T06:50:50Z</time></trkpt>
<trkpt lat="39.714382" lon="2.779438"><ele>284.69</ele><time>2010-04-10T06:51:04Z</time></trkpt>
<trkpt lat="39.714451" lon="2.779343"><ele>285.17</ele><time>2010-04-10T06:51:10Z</time></trkpt>
<trkpt lat="39.714628" lon="2.779139"><ele>287.09</ele><time>2010-04-10T06:51:21Z</time></trkpt>
<trkpt lat="39.714717" lon="2.779060"><ele>288.53</ele><time>2010-04-10T06:51:27Z</time></trkpt>
<trkpt lat="39.714696" lon="2.778956"><ele>290.46</ele><time>2010-04-10T06:51:34Z</time></trkpt>
<trkpt lat="39.714675" lon="2.778934"><ele>291.42</ele><time>2010-04-10T06:51:36Z</time></trkpt>
<trkpt lat="39.714614" lon="2.778863"><ele>293.34</ele><time>2010-04-10T06:51:44Z</time></trkpt>
<trkpt lat="39.714685" lon="2.778788"><ele>295.26</ele><time>2010-04-10T06:51:51Z</time></trkpt>
<trkpt lat="39.714777" lon="2.778691"><ele>297.18</ele><time>2010-04-10T06:52:00Z</time></trkpt>
<trkpt lat="39.714855" lon="2.778531"><ele>300.07</ele><time>2010-04-10T06:52:12Z</time></trkpt>
<trkpt lat="39.714925" lon="2.778395"><ele>302.47</ele><time>2010-04-10T06:52:22Z</time></trkpt>
<trkpt lat="39.714918" lon="2.778387"><ele>302.95</ele><time>2010-04-10T06:52:23Z</time></trkpt>
<trkpt lat="39.714853" lon="2.778403"><ele>303.91</ele><time>2010-04-10T06:52:28Z</time></trkpt>
<trkpt lat="39.714736" lon="2.778429"><ele>305.36</ele><time>2010-04-10T06:52:36Z</time></trkpt>
<trkpt lat="39.714705" lon="2.778359"><ele>307.28</ele><time>2010-04-10T06:52:43Z</time></trkpt>
<trkpt lat="39.714728" lon="2.778281"><ele>308.24</ele><time>2010-04-10T06:52:48Z</time></trkpt>
<trkpt lat="39.714800" lon="2.778101"><ele>311.60</ele><time>2010-04-10T06:53:02Z</time></trkpt>
<trkpt lat="39.714866" lon="2.777981"><ele>314.49</ele><time>2010-04-10T06:53:12Z</time></trkpt>
<trkpt lat="39.714939" lon="2.777863"><ele>316.41</ele><time>2010-04-10T06:53:22Z</time></trkpt>
<trkpt lat="39.715017" lon="2.777735"><ele>318.81</ele><time>2010-04-10T06:53:33Z</time></trkpt>
<trkpt lat="39.715186" lon="2.777665"><ele>320.74</ele><time>2010-04-10T06:53:48Z</time></trkpt>
<trkpt lat="39.715182" lon="2.777639"><ele>320.74</ele><time>2010-04-10T06:53:56Z</time></trkpt>
<trkpt lat="39.715188" lon="2.777626"><ele>320.74</ele><time>2010-04-10T06:54:00Z</time></trkpt>
<trkpt lat="39.715267" lon="2.777565"><ele>321.22</ele><time>2010-04-10T06:54:07Z</time></trkpt>
<trkpt lat="39.715371" lon="2.777441"><ele>323.14</ele><time>2010-04-10T06:54:18Z</time></trkpt>
<trkpt lat="39.715416" lon="2.777273"><ele>326.50</ele><time>2010-04-10T06:54:28Z</time></trkpt>
<trkpt lat="39.715424" lon="2.777239"><ele>327.47</ele><time>2010-04-10T06:54:30Z</time></trkpt>
<trkpt lat="39.715443" lon="2.777198"><ele>327.95</ele><time>2010-04-10T06:54:33Z</time></trkpt>
<trkpt lat="39.715551" lon="2.777034"><ele>330.35</ele><time>2010-04-10T06:54:45Z</time></trkpt>
<trkpt lat="39.715627" lon="2.776863"><ele>332.27</ele><time>2010-04-10T06:54:57Z</time></trkpt>
<trkpt lat="39.715748" lon="2.776698"><ele>334.68</ele><time>2010-04-10T06:55:12Z</time></trkpt>
<trkpt lat="39.715838" lon="2.776647"><ele>336.12</ele><time>2010-04-10T06:55:21Z</time></trkpt>
<trkpt lat="39.715846" lon="2.776630"><ele>336.60</ele><time>2010-04-10T06:55:23Z</time></trkpt>
<trkpt lat="39.715801" lon="2.776629"><ele>338.04</ele><time>2010-04-10T06:55:31Z</time></trkpt>
<trkpt lat="39.715751" lon="2.776645"><ele>338.52</ele><time>2010-04-10T06:55:36Z</time></trkpt>
<trkpt lat="39.715702" lon="2.776651"><ele>339.48</ele><time>2010-04-10T06:55:40Z</time></trkpt>
<trkpt lat="39.715665" lon="2.776604"><ele>339.48</ele><time>2010-04-10T06:55:46Z</time></trkpt>
<trkpt lat="39.715671" lon="2.776586"><ele>339.48</ele><time>2010-04-10T06:56:03Z</time></trkpt>
<trkpt lat="39.715673" lon="2.776575"><ele>339.48</ele><time>2010-04-10T06:56:04Z</time></trkpt>
<trkpt lat="39.715774" lon="2.776434"><ele>342.37</ele><time>2010-04-10T06:56:15Z</time></trkpt>
<trkpt lat="39.715949" lon="2.776340"><ele>345.25</ele><time>2010-04-10T06:56:27Z</time></trkpt>
<trkpt lat="39.716069" lon="2.776319"><ele>347.17</ele><time>2010-04-10T06:56:38Z</time></trkpt>
<trkpt lat="39.716187" lon="2.776308"><ele>348.62</ele><time>2010-04-10T06:56:46Z</time></trkpt>
<trkpt lat="39.716313" lon="2.776212"><ele>351.02</ele><time>2010-04-10T06:56:57Z</time></trkpt>
<trkpt lat="39.716493" lon="2.776183"><ele>352.46</ele><time>2010-04-10T06:57:10Z</time></trkpt>
<trkpt lat="39.716622" lon="2.776134"><ele>355.34</ele><time>2010-04-10T06:57:23Z</time></trkpt>
<trkpt lat="39.716739" lon="2.776058"><ele>358.23</ele><time>2010-04-10T06:57:33Z</time></trkpt>
<trkpt lat="39.716801" lon="2.776021"><ele>360.63</ele><time>2010-04-10T06:57:43Z</time></trkpt>
<trkpt lat="39.716707" lon="2.776028"><ele>362.55</ele><time>2010-04-10T06:57:51Z</time></trkpt>
<trkpt lat="39.716541" lon="2.776032"><ele>363.52</ele><time>2010-04-10T06:58:03Z</time></trkpt>
<trkpt lat="39.716378" lon="2.775951"><ele>364.96</ele><time>2010-04-10T06:58:15Z</time></trkpt>
<trkpt lat="39.716270" lon="2.775924"><ele>366.88</ele><time>2010-04-10T06:58:25Z</time></trkpt>
<trkpt lat="39.716161" lon="2.775896"><ele>369.76</ele><time>2010-04-10T06:58:36Z</time></trkpt>
<trkpt lat="39.716094" lon="2.775824"><ele>371.21</ele><time>2010-04-10T06:58:42Z</time></trkpt>
<trkpt lat="39.716067" lon="2.775740"><ele>372.65</ele><time>2010-04-10T06:58:48Z</time></trkpt>
<trkpt lat="39.716114" lon="2.775670"><ele>373.61</ele><time>2010-04-10T06:58:54Z</time></trkpt>
<trkpt lat="39.716235" lon="2.775616"><ele>376.01</ele><time>2010-04-10T06:59:04Z</time></trkpt>
<trkpt lat="39.716269" lon="2.775568"><ele>376.97</ele><time>2010-04-10T06:59:10Z</time></trkpt>
<trkpt lat="39.716241" lon="2.775526"><ele>377.94</ele><time>2010-04-10T06:59:15Z</time></trkpt>
<trkpt lat="39.716182" lon="2.775543"><ele>379.86</ele><time>2010-04-10T06:59:24Z</time></trkpt>
<trkpt lat="39.716089" lon="2.775514"><ele>381.78</ele><time>2010-04-10T06:59:34Z</time></trkpt>
<trkpt lat="39.715999" lon="2.775500"><ele>383.70</ele><time>2010-04-10T06:59:43Z</time></trkpt>
<trkpt lat="39.715915" lon="2.775444"><ele>385.63</ele><time>2010-04-10T06:59:51Z</time></trkpt>
<trkpt lat="39.715827" lon="2.775459"><ele>388.99</ele><time>2010-04-10T07:00:00Z</time></trkpt>
<trkpt lat="39.715731" lon="2.775474"><ele>390.43</ele><time>2010-04-10T07:00:07Z</time></trkpt>
<trkpt lat="39.715656" lon="2.775507"><ele>390.91</ele><time>2010-04-10T07:00:14Z</time></trkpt>
<trkpt lat="39.715656" lon="2.775542"><ele>390.91</ele><time>2010-04-10T07:00:31Z</time></trkpt>
<trkpt lat="39.715580" lon="2.775577"><ele>391.39</ele><time>2010-04-10T07:00:54Z</time></trkpt>
<trkpt lat="39.715439" lon="2.775624"><ele>391.87</ele><time>2010-04-10T07:01:03Z</time></trkpt>
<trkpt lat="39.715373" lon="2.775660"><ele>394.28</ele><time>2010-04-10T07:01:09Z</time></trkpt>
<trkpt lat="39.715343" lon="2.775627"><ele>395.24</ele><time>2010-04-10T07:01:13Z</time></trkpt>
<trkpt lat="39.715396" lon="2.775477"><ele>397.64</ele><time>2010-04-10T07:01:22Z</time></trkpt>
<trkpt lat="39.715556" lon="2.775289"><ele>399.57</ele><time>2010-04-10T07:01:35Z</time></trkpt>
<trkpt lat="39.715716" lon="2.775203"><ele>400.05</ele><time>2010-04-10T07:01:45Z</time></trkpt>
<trkpt lat="39.715846" lon="2.775126"><ele>401.97</ele><time>2010-04-10T07:01:55Z</time></trkpt>
<trkpt lat="39.715920" lon="2.775065"><ele>402.93</ele><time>2010-04-10T07:02:01Z</time></trkpt>
<trkpt lat="39.716052" lon="2.774973"><ele>404.37</ele><time>2010-04-10T07:02:10Z</time></trkpt>
<trkpt lat="39.716212" lon="2.774915"><ele>405.33</ele><time>2010-04-10T07:02:20Z</time></trkpt>
<trkpt lat="39.716431" lon="2.774891"><ele>405.81</ele><time>2010-04-10T07:02:31Z</time></trkpt>
<trkpt lat="39.716593" lon="2.774932"><ele>405.33</ele><time>2010-04-10T07:02:39Z</time></trkpt>
<trkpt lat="39.716622" lon="2.774943"><ele>404.85</ele><time>2010-04-10T07:02:56Z</time></trkpt>
<trkpt lat="39.716798" lon="2.774939"><ele>405.33</ele><time>2010-04-10T07:03:07Z</time></trkpt>
<trkpt lat="39.716987" lon="2.774871"><ele>407.26</ele><time>2010-04-10T07:03:19Z</time></trkpt>
<trkpt lat="39.717094" lon="2.774790"><ele>407.26</ele><time>2010-04-10T07:03:27Z</time></trkpt>
<trkpt lat="39.717065" lon="2.774573"><ele>406.77</ele><time>2010-04-10T07:03:33Z</time></trkpt>
<trkpt lat="39.717068" lon="2.774522"><ele>406.77</ele><time>2010-04-10T07:03:34Z</time></trkpt>
<trkpt lat="39.717088" lon="2.774425"><ele>406.29</ele><time>2010-04-10T07:03:36Z</time></trkpt>
<trkpt lat="39.717183" lon="2.774209"><ele>405.33</ele><time>2010-04-10T07:03:40Z</time></trkpt>
<trkpt lat="39.717242" lon="2.774106"><ele>404.85</ele><time>2010-04-10T07:03:42Z</time></trkpt>
<trkpt lat="39.717389" lon="2.774055"><ele>407.26</ele><time>2010-04-10T07:03:49Z</time></trkpt>
<trkpt lat="39.717544" lon="2.774001"><ele>410.14</ele><time>2010-04-10T07:03:58Z</time></trkpt>
<trkpt lat="39.717635" lon="2.773884"><ele>409.66</ele><time>2010-04-10T07:04:05Z</time></trkpt>
<trkpt lat="39.717655" lon="2.773603"><ele>411.10</ele><time>2010-04-10T07:04:16Z</time></trkpt>
<trkpt lat="39.717706" lon="2.773390"><ele>412.54</ele><time>2010-04-10T07:04:27Z</time></trkpt>
<trkpt lat="39.717724" lon="2.773169"><ele>414.95</ele><time>2010-04-10T07:04:40Z</time></trkpt>
<trkpt lat="39.717719" lon="2.773007"><ele>418.31</ele><time>2010-04-10T07:04:51Z</time></trkpt>
<trkpt lat="39.717776" lon="2.772829"><ele>419.27</ele><time>2010-04-10T07:05:01Z</time></trkpt>
<trkpt lat="39.717783" lon="2.772784"><ele>419.75</ele><time>2010-04-10T07:05:04Z</time></trkpt>
<trkpt lat="39.717778" lon="2.772595"><ele>422.16</ele><time>2010-04-10T07:05:16Z</time></trkpt>
<trkpt lat="39.717817" lon="2.772426"><ele>423.60</ele><time>2010-04-10T07:05:25Z</time></trkpt>
<trkpt lat="39.717818" lon="2.772368"><ele>424.56</ele><time>2010-04-10T07:05:29Z</time></trkpt>
<trkpt lat="39.717728" lon="2.772324"><ele>426.48</ele><time>2010-04-10T07:05:38Z</time></trkpt>
<trkpt lat="39.717642" lon="2.772415"><ele>427.44</ele><time>2010-04-10T07:05:46Z</time></trkpt>
<trkpt lat="39.717584" lon="2.772572"><ele>428.40</ele><time>2010-04-10T07:05:56Z</time></trkpt>
<trkpt lat="39.717574" lon="2.772601"><ele>428.40</ele><time>2010-04-10T07:05:58Z</time></trkpt>
<trkpt lat="39.717539" lon="2.772644"><ele>429.37</ele><time>2010-04-10T07:06:02Z</time></trkpt>
<trkpt lat="39.717441" lon="2.772715"><ele>432.73</ele><time>2010-04-10T07:06:12Z</time></trkpt>
<trkpt lat="39.717408" lon="2.772763"><ele>434.65</ele><time>2010-04-10T07:06:17Z</time></trkpt>
<trkpt lat="39.717385" lon="2.772881"><ele>436.58</ele><time>2010-04-10T07:06:25Z</time></trkpt>
<trkpt lat="39.717361" lon="2.773058"><ele>438.50</ele><time>2010-04-10T07:06:38Z</time></trkpt>
<trkpt lat="39.717335" lon="2.773223"><ele>438.50</ele><time>2010-04-10T07:06:45Z</time></trkpt>
<trkpt lat="39.717269" lon="2.773383"><ele>439.46</ele><time>2010-04-10T07:06:52Z</time></trkpt>
<trkpt lat="39.717211" lon="2.773488"><ele>438.98</ele><time>2010-04-10T07:06:57Z</time></trkpt>
<trkpt lat="39.717160" lon="2.773511"><ele>438.98</ele><time>2010-04-10T07:07:00Z</time></trkpt>
<trkpt lat="39.717116" lon="2.773453"><ele>439.46</ele><time>2010-04-10T07:07:04Z</time></trkpt>
<trkpt lat="39.717030" lon="2.773306"><ele>440.90</ele><time>2010-04-10T07:07:15Z</time></trkpt>
<trkpt lat="39.716931" lon="2.773307"><ele>442.34</ele><time>2010-04-10T07:07:22Z</time></trkpt>
<trkpt lat="39.716920" lon="2.773314"><ele>442.82</ele><time>2010-04-10T07:07:23Z</time></trkpt>
<trkpt lat="39.716878" lon="2.773329"><ele>443.31</ele><time>2010-04-10T07:07:26Z</time></trkpt>
<trkpt lat="39.716772" lon="2.773400"><ele>446.67</ele><time>2010-04-10T07:07:35Z</time></trkpt>
<trkpt lat="39.716731" lon="2.773437"><ele>447.63</ele><time>2010-04-10T07:07:38Z</time></trkpt>
<trkpt lat="39.716708" lon="2.773460"><ele>448.59</ele><time>2010-04-10T07:07:40Z</time></trkpt>
<trkpt lat="39.716698" lon="2.773491"><ele>449.07</ele><time>2010-04-10T07:07:42Z</time></trkpt>
<trkpt lat="39.716633" lon="2.773568"><ele>449.55</ele><time>2010-04-10T07:07:47Z</time></trkpt>
<trkpt lat="39.716552" lon="2.773772"><ele>449.55</ele><time>2010-04-10T07:07:56Z</time></trkpt>
<trkpt lat="39.716503" lon="2.773997"><ele>449.07</ele><time>2010-04-10T07:08:02Z</time></trkpt>
<trkpt lat="39.716493" lon="2.774020"><ele>449.55</ele><time>2010-04-10T07:08:04Z</time></trkpt>
<trkpt lat="39.716463" lon="2.774038"><ele>450.52</ele><time>2010-04-10T07:08:08Z</time></trkpt>
<trkpt lat="39.716435" lon="2.774025"><ele>451.00</ele><time>2010-04-10T07:08:10Z</time></trkpt>
<trkpt lat="39.716389" lon="2.773857"><ele>454.36</ele><time>2010-04-10T07:08:21Z</time></trkpt>
<trkpt lat="39.716295" lon="2.773843"><ele>456.76</ele><time>2010-04-10T07:08:29Z</time></trkpt>
<trkpt lat="39.716279" lon="2.773851"><ele>457.24</ele><time>2010-04-10T07:08:31Z</time></trkpt>
<trkpt lat="39.716202" lon="2.773910"><ele>459.65</ele><time>2010-04-10T07:08:40Z</time></trkpt>
<trkpt lat="39.716159" lon="2.774009"><ele>461.57</ele><time>2010-04-10T07:08:48Z</time></trkpt>
<trkpt lat="39.716142" lon="2.774026"><ele>462.05</ele><time>2010-04-10T07:08:50Z</time></trkpt>
<trkpt lat="39.716122" lon="2.774059"><ele>462.53</ele><time>2010-04-10T07:08:53Z</time></trkpt>
<trkpt lat="39.716028" lon="2.774046"><ele>465.42</ele><time>2010-04-10T07:09:04Z</time></trkpt>
<trkpt lat="39.715999" lon="2.773908"><ele>467.82</ele><time>2010-04-10T07:09:13Z</time></trkpt>
<trkpt lat="39.715985" lon="2.773857"><ele>468.78</ele><time>2010-04-10T07:09:21Z</time></trkpt>
<trkpt lat="39.715980" lon="2.773854"><ele>468.78</ele><time>2010-04-10T07:09:22Z</time></trkpt>
<trkpt lat="39.715955" lon="2.773792"><ele>469.74</ele><time>2010-04-10T07:09:29Z</time></trkpt>
<trkpt lat="39.715960" lon="2.773771"><ele>469.74</ele><time>2010-04-10T07:09:42Z</time></trkpt>
<trkpt lat="39.715932" lon="2.773672"><ele>471.18</ele><time>2010-04-10T07:09:54Z</time></trkpt>
<trkpt lat="39.715929" lon="2.773592"><ele>472.14</ele><time>2010-04-10T07:10:06Z</time></trkpt>
<trkpt lat="39.715927" lon="2.773557"><ele>472.63</ele><time>2010-04-10T07:10:14Z</time></trkpt>
<trkpt lat="39.715901" lon="2.773534"><ele>473.11</ele><time>2010-04-10T07:10:20Z</time></trkpt>
<trkpt lat="39.715906" lon="2.773519"><ele>473.11</ele><time>2010-04-10T07:10:24Z</time></trkpt>
<trkpt lat="39.715908" lon="2.773453"><ele>474.07</ele><time>2010-04-10T07:10:29Z</time></trkpt>
<trkpt lat="39.715899" lon="2.773379"><ele>475.51</ele><time>2010-04-10T07:10:34Z</time></trkpt>
<trkpt lat="39.715902" lon="2.773257"><ele>478.39</ele><time>2010-04-10T07:10:44Z</time></trkpt>
<trkpt lat="39.715926" lon="2.773156"><ele>480.80</ele><time>2010-04-10T07:10:52Z</time></trkpt>
<trkpt lat="39.715928" lon="2.773090"><ele>482.24</ele><time>2010-04-10T07:10:58Z</time></trkpt>
<trkpt lat="39.715931" lon="2.773034"><ele>483.20</ele><time>2010-04-10T07:11:07Z</time></trkpt>
<trkpt lat="39.715912" lon="2.773003"><ele>484.16</ele><time>2010-04-10T07:11:15Z</time></trkpt>
<trkpt lat="39.715875" lon="2.773028"><ele>485.60</ele><time>2010-04-10T07:11:38Z</time></trkpt>
<trkpt lat="39.715772" lon="2.773045"><ele>488.49</ele><time>2010-04-10T07:11:53Z</time></trkpt>
<trkpt lat="39.715686" lon="2.773090"><ele>489.93</ele><time>2010-04-10T07:12:05Z</time></trkpt>
<trkpt lat="39.715659" lon="2.773073"><ele>490.41</ele><time>2010-04-10T07:12:14Z</time></trkpt>
<trkpt lat="39.715622" lon="2.773043"><ele>491.37</ele><time>2010-04-10T07:12:22Z</time></trkpt>
<trkpt lat="39.715593" lon="2.772939"><ele>493.77</ele><time>2010-04-10T07:12:33Z</time></trkpt>
<trkpt lat="39.715595" lon="2.772797"><ele>496.18</ele><time>2010-04-10T07:12:44Z</time></trkpt>
<trkpt lat="39.715598" lon="2.772672"><ele>499.06</ele><time>2010-04-10T07:12:54Z</time></trkpt>
<trkpt lat="39.715591" lon="2.772561"><ele>501.46</ele><time>2010-04-10T07:13:04Z</time></trkpt>
<trkpt lat="39.715584" lon="2.772405"><ele>504.35</ele><time>2010-04-10T07:13:18Z</time></trkpt>
<trkpt lat="39.715581" lon="2.772283"><ele>506.27</ele><time>2010-04-10T07:13:26Z</time></trkpt>
<trkpt lat="39.715622" lon="2.772156"><ele>507.71</ele><time>2010-04-10T07:13:36Z</time></trkpt>
<trkpt lat="39.715662" lon="2.772072"><ele>509.64</ele><time>2010-04-10T07:13:44Z</time></trkpt>
<trkpt lat="39.715682" lon="2.772011"><ele>510.12</ele><time>2010-04-10T07:13:50Z</time></trkpt>
<trkpt lat="39.715705" lon="2.771877"><ele>511.08</ele><time>2010-04-10T07:14:01Z</time></trkpt>
<trkpt lat="39.715723" lon="2.771755"><ele>512.04</ele><time>2010-04-10T07:14:11Z</time></trkpt>
<trkpt lat="39.715719" lon="2.771602"><ele>514.44</ele><time>2010-04-10T07:14:23Z</time></trkpt>
<trkpt lat="39.715753" lon="2.771492"><ele>515.88</ele><time>2010-04-10T07:14:33Z</time></trkpt>
<trkpt lat="39.715765" lon="2.771479"><ele>516.37</ele><time>2010-04-10T07:14:35Z</time></trkpt>
<trkpt lat="39.715876" lon="2.771351"><ele>519.25</ele><time>2010-04-10T07:14:49Z</time></trkpt>
<trkpt lat="39.716024" lon="2.771331"><ele>521.17</ele><time>2010-04-10T07:15:01Z</time></trkpt>
<trkpt lat="39.716129" lon="2.771347"><ele>521.65</ele><time>2010-04-10T07:15:10Z</time></trkpt>
<trkpt lat="39.716197" lon="2.771325"><ele>523.09</ele><time>2010-04-10T07:15:17Z</time></trkpt>
<trkpt lat="39.716270" lon="2.771240"><ele>526.46</ele><time>2010-04-10T07:15:29Z</time></trkpt>
<trkpt lat="39.716346" lon="2.771152"><ele>529.82</ele><time>2010-04-10T07:15:41Z</time></trkpt>
<trkpt lat="39.716353" lon="2.771135"><ele>529.82</ele><time>2010-04-10T07:15:43Z</time></trkpt>
<trkpt lat="39.716387" lon="2.771056"><ele>531.27</ele><time>2010-04-10T07:15:50Z</time></trkpt>
<trkpt lat="39.716441" lon="2.770828"><ele>532.23</ele><time>2010-04-10T07:16:06Z</time></trkpt>
<trkpt lat="39.716474" lon="2.770674"><ele>533.67</ele><time>2010-04-10T07:16:17Z</time></trkpt>
<trkpt lat="39.716544" lon="2.770508"><ele>534.63</ele><time>2010-04-10T07:16:30Z</time></trkpt>
<trkpt lat="39.716585" lon="2.770418"><ele>535.59</ele><time>2010-04-10T07:16:38Z</time></trkpt>
<trkpt lat="39.716593" lon="2.770297"><ele>537.51</ele><time>2010-04-10T07:16:48Z</time></trkpt>
<trkpt lat="39.716655" lon="2.770186"><ele>539.44</ele><time>2010-04-10T07:16:58Z</time></trkpt>
<trkpt lat="39.716755" lon="2.770062"><ele>541.84</ele><time>2010-04-10T07:17:12Z</time></trkpt>
<trkpt lat="39.716820" lon="2.769974"><ele>544.24</ele><time>2010-04-10T07:17:22Z</time></trkpt>
<trkpt lat="39.716916" lon="2.769918"><ele>547.13</ele><time>2010-04-10T07:17:34Z</time></trkpt>
<trkpt lat="39.717037" lon="2.769868"><ele>550.01</ele><time>2010-04-10T07:17:46Z</time></trkpt>
<trkpt lat="39.717146" lon="2.769826"><ele>552.41</ele><time>2010-04-10T07:17:58Z</time></trkpt>
<trkpt lat="39.717156" lon="2.769824"><ele>552.90</ele><time>2010-04-10T07:17:59Z</time></trkpt>
<trkpt lat="39.717213" lon="2.769773"><ele>553.86</ele><time>2010-04-10T07:18:08Z</time></trkpt>
<trkpt lat="39.717338" lon="2.769759"><ele>555.30</ele><time>2010-04-10T07:18:20Z</time></trkpt>
<trkpt lat="39.717369" lon="2.769725"><ele>556.26</ele><time>2010-04-10T07:18:25Z</time></trkpt>
<trkpt lat="39.717452" lon="2.769650"><ele>558.18</ele><time>2010-04-10T07:18:36Z</time></trkpt>
<trkpt lat="39.717519" lon="2.769585"><ele>559.62</ele><time>2010-04-10T07:18:43Z</time></trkpt>
<trkpt lat="39.717568" lon="2.769515"><ele>561.55</ele><time>2010-04-10T07:18:50Z</time></trkpt>
<trkpt lat="39.717572" lon="2.769496"><ele>561.55</ele><time>2010-04-10T07:18:52Z</time></trkpt>
<trkpt lat="39.717655" lon="2.769422"><ele>563.47</ele><time>2010-04-10T07:19:01Z</time></trkpt>
<trkpt lat="39.717728" lon="2.769330"><ele>564.43</ele><time>2010-04-10T07:19:11Z</time></trkpt>
<trkpt lat="39.717787" lon="2.769286"><ele>565.87</ele><time>2010-04-10T07:19:19Z</time></trkpt>
<trkpt lat="39.717798" lon="2.769285"><ele>566.35</ele><time>2010-04-10T07:19:20Z</time></trkpt>
<trkpt lat="39.717844" lon="2.769217"><ele>567.32</ele><time>2010-04-10T07:19:26Z</time></trkpt>
<trkpt lat="39.717894" lon="2.769184"><ele>568.28</ele><time>2010-04-10T07:19:32Z</time></trkpt>
<trkpt lat="39.718006" lon="2.769111"><ele>569.72</ele><time>2010-04-10T07:19:41Z</time></trkpt>
<trkpt lat="39.718026" lon="2.769107"><ele>570.68</ele><time>2010-04-10T07:19:43Z</time></trkpt>
<trkpt lat="39.718108" lon="2.769106"><ele>572.12</ele><time>2010-04-10T07:19:52Z</time></trkpt>
<trkpt lat="39.718184" lon="2.769057"><ele>574.53</ele><time>2010-04-10T07:20:03Z</time></trkpt>
<trkpt lat="39.718269" lon="2.769054"><ele>575.97</ele><time>2010-04-10T07:20:12Z</time></trkpt>
<trkpt lat="39.718376" lon="2.769093"><ele>578.37</ele><time>2010-04-10T07:20:25Z</time></trkpt>
<trkpt lat="39.718443" lon="2.769104"><ele>579.81</ele><time>2010-04-10T07:20:35Z</time></trkpt>
<trkpt lat="39.718477" lon="2.769130"><ele>580.77</ele><time>2010-04-10T07:20:43Z</time></trkpt>
<trkpt lat="39.718500" lon="2.769108"><ele>581.73</ele><time>2010-04-10T07:20:51Z</time></trkpt>
<trkpt lat="39.718490" lon="2.769155"><ele>581.25</ele><time>2010-04-10T07:21:36Z</time></trkpt>
<trkpt lat="39.718521" lon="2.769137"><ele>581.73</ele><time>2010-04-10T07:22:02Z</time></trkpt>
<trkpt lat="39.718527" lon="2.769122"><ele>582.70</ele><time>2010-04-10T07:22:13Z</time></trkpt>
<trkpt lat="39.718575" lon="2.769082"><ele>584.14</ele><time>2010-04-10T07:22:22Z</time></trkpt>
<trkpt lat="39.718649" lon="2.769048"><ele>586.06</ele><time>2010-04-10T07:22:33Z</time></trkpt>
<trkpt lat="39.718733" lon="2.768980"><ele>588.95</ele><time>2010-04-10T07:22:47Z</time></trkpt>
<trkpt lat="39.718753" lon="2.768956"><ele>589.91</ele><time>2010-04-10T07:22:57Z</time></trkpt>
<trkpt lat="39.718785" lon="2.768922"><ele>590.87</ele><time>2010-04-10T07:23:12Z</time></trkpt>
<trkpt lat="39.718824" lon="2.768815"><ele>592.31</ele><time>2010-04-10T07:23:24Z</time></trkpt>
<trkpt lat="39.718854" lon="2.768747"><ele>594.23</ele><time>2010-04-10T07:23:35Z</time></trkpt>
<trkpt lat="39.718888" lon="2.768638"><ele>596.15</ele><time>2010-04-10T07:23:49Z</time></trkpt>
<trkpt lat="39.718934" lon="2.768598"><ele>597.60</ele><time>2010-04-10T07:23:58Z</time></trkpt>
<trkpt lat="39.718991" lon="2.768537"><ele>600.00</ele><time>2010-04-10T07:24:10Z</time></trkpt>
<trkpt lat="39.719057" lon="2.768494"><ele>602.40</ele><time>2010-04-10T07:24:23Z</time></trkpt>
<trkpt lat="39.719100" lon="2.768473"><ele>603.36</ele><time>2010-04-10T07:24:30Z</time></trkpt>
<trkpt lat="39.719168" lon="2.768450"><ele>603.85</ele><time>2010-04-10T07:24:40Z</time></trkpt>
<trkpt lat="39.719240" lon="2.768426"><ele>605.77</ele><time>2010-04-10T07:24:52Z</time></trkpt>
<trkpt lat="39.719309" lon="2.768393"><ele>606.73</ele><time>2010-04-10T07:25:01Z</time></trkpt>
<trkpt lat="39.719416" lon="2.768295"><ele>609.13</ele><time>2010-04-10T07:25:17Z</time></trkpt>
<trkpt lat="39.719529" lon="2.768249"><ele>611.06</ele><time>2010-04-10T07:25:31Z</time></trkpt>
<trkpt lat="39.719601" lon="2.768190"><ele>611.54</ele><time>2010-04-10T07:25:43Z</time></trkpt>
<trkpt lat="39.719609" lon="2.768170"><ele>612.50</ele><time>2010-04-10T07:29:13Z</time></trkpt>
<trkpt lat="39.719660" lon="2.768124"><ele>612.98</ele><time>2010-04-10T07:29:43Z</time></trkpt>
<trkpt lat="39.719707" lon="2.768057"><ele>613.46</ele><time>2010-04-10T07:29:50Z</time></trkpt>
<trkpt lat="39.719739" lon="2.767951"><ele>613.94</ele><time>2010-04-10T07:29:58Z</time></trkpt>
<trkpt lat="39.719755" lon="2.767904"><ele>613.94</ele><time>2010-04-10T07:30:01Z</time></trkpt>
<trkpt lat="39.719769" lon="2.767777"><ele>614.90</ele><time>2010-04-10T07:30:09Z</time></trkpt>
<trkpt lat="39.719757" lon="2.767603"><ele>617.30</ele><time>2010-04-10T07:30:20Z</time></trkpt>
<trkpt lat="39.719761" lon="2.767502"><ele>618.75</ele><time>2010-04-10T07:30:26Z</time></trkpt>
<trkpt lat="39.719765" lon="2.767312"><ele>618.26</ele><time>2010-04-10T07:30:34Z</time></trkpt>
<trkpt lat="39.719732" lon="2.767148"><ele>619.71</ele><time>2010-04-10T07:30:43Z</time></trkpt>
<trkpt lat="39.719702" lon="2.766986"><ele>620.67</ele><time>2010-04-10T07:30:52Z</time></trkpt>
<trkpt lat="39.719696" lon="2.766724"><ele>620.19</ele><time>2010-04-10T07:31:00Z</time></trkpt>
<trkpt lat="39.719637" lon="2.766463"><ele>619.23</ele><time>2010-04-10T07:31:08Z</time></trkpt>
<trkpt lat="39.719582" lon="2.766293"><ele>620.19</ele><time>2010-04-10T07:31:16Z</time></trkpt>
<trkpt lat="39.719488" lon="2.766090"><ele>621.63</ele><time>2010-04-10T07:31:27Z</time></trkpt>
<trkpt lat="39.719349" lon="2.765910"><ele>624.03</ele><time>2010-04-10T07:31:40Z</time></trkpt>
<trkpt lat="39.719210" lon="2.765717"><ele>625.96</ele><time>2010-04-10T07:31:53Z</time></trkpt>
<trkpt lat="39.719096" lon="2.765529"><ele>625.47</ele><time>2010-04-10T07:32:01Z</time></trkpt>
<trkpt lat="39.718930" lon="2.765312"><ele>623.55</ele><time>2010-04-10T07:32:07Z</time></trkpt>
<trkpt lat="39.718689" lon="2.765068"><ele>619.71</ele><time>2010-04-10T07:32:12Z</time></trkpt>
<trkpt lat="39.718632" lon="2.765020"><ele>618.26</ele><time>2010-04-10T07:32:13Z</time></trkpt>
<trkpt lat="39.718518" lon="2.764937"><ele>615.38</ele><time>2010-04-10T07:32:15Z</time></trkpt>
<trkpt lat="39.718380" lon="2.764824"><ele>612.50</ele><time>2010-04-10T07:32:20Z</time></trkpt>
<trkpt lat="39.718339" lon="2.764788"><ele>611.54</ele><time>2010-04-10T07:32:22Z</time></trkpt>
<trkpt lat="39.718151" lon="2.764715"><ele>609.61</ele><time>2010-04-10T07:32:28Z</time></trkpt>
<trkpt lat="39.718053" lon="2.764689"><ele>608.65</ele><time>2010-04-10T07:32:30Z</time></trkpt>
<trkpt lat="39.717840" lon="2.764651"><ele>604.33</ele><time>2010-04-10T07:32:33Z</time></trkpt>
<trkpt lat="39.717688" lon="2.764557"><ele>602.40</ele><time>2010-04-10T07:32:35Z</time></trkpt>
<trkpt lat="39.717568" lon="2.764413"><ele>600.96</ele><time>2010-04-10T07:32:38Z</time></trkpt>
<trkpt lat="39.717530" lon="2.764258"><ele>601.44</ele><time>2010-04-10T07:32:42Z</time></trkpt>
<trkpt lat="39.717467" lon="2.763973"><ele>603.85</ele><time>2010-04-10T07:32:51Z</time></trkpt>
<trkpt lat="39.717356" lon="2.763752"><ele>603.85</ele><time>2010-04-10T07:32:58Z</time></trkpt>
<trkpt lat="39.717263" lon="2.763568"><ele>603.85</ele><time>2010-04-10T07:33:03Z</time></trkpt>
<trkpt lat="39.717253" lon="2.763362"><ele>603.85</ele><time>2010-04-10T07:33:09Z</time></trkpt>
<trkpt lat="39.717241" lon="2.763346"><ele>603.85</ele><time>2010-04-10T07:33:11Z</time></trkpt>
<trkpt lat="39.717229" lon="2.763338"><ele>603.85</ele><time>2010-04-10T07:33:19Z</time></trkpt>
<trkpt lat="39.717203" lon="2.763297"><ele>603.85</ele><time>2010-04-10T07:33:29Z</time></trkpt>
<trkpt lat="39.717216" lon="2.763310"><ele>604.33</ele><time>2010-04-10T07:33:46Z</time></trkpt>
<trkpt lat="39.717175" lon="2.763280"><ele>604.33</ele><time>2010-04-10T07:34:27Z</time></trkpt>
<trkpt lat="39.717212" lon="2.763417"><ele>604.81</ele><time>2010-04-10T07:35:15Z</time></trkpt>
<trkpt lat="39.717237" lon="2.763408"><ele>605.29</ele><time>2010-04-10T07:35:43Z</time></trkpt>
<trkpt lat="39.717244" lon="2.763377"><ele>605.29</ele><time>2010-04-10T07:35:48Z</time></trkpt>
<trkpt lat="39.717286" lon="2.763146"><ele>604.33</ele><time>2010-04-10T07:35:55Z</time></trkpt>
<trkpt lat="39.717303" lon="2.763113"><ele>603.85</ele><time>2010-04-10T07:35:56Z</time></trkpt>
<trkpt lat="39.717452" lon="2.762836"><ele>602.40</ele><time>2010-04-10T07:36:04Z</time></trkpt>
<trkpt lat="39.717502" lon="2.762663"><ele>602.88</ele><time>2010-04-10T07:36:11Z</time></trkpt>
<trkpt lat="39.717495" lon="2.762412"><ele>603.85</ele><time>2010-04-10T07:36:19Z</time></trkpt>
<trkpt lat="39.717468" lon="2.762335"><ele>605.29</ele><time>2010-04-10T07:36:23Z</time></trkpt>
<trkpt lat="39.717439" lon="2.762277"><ele>607.21</ele><time>2010-04-10T07:36:33Z</time></trkpt>
<trkpt lat="39.717369" lon="2.762189"><ele>608.17</ele><time>2010-04-10T07:36:44Z</time></trkpt>
<trkpt lat="39.717322" lon="2.762079"><ele>608.17</ele><time>2010-04-10T07:36:51Z</time></trkpt>
<trkpt lat="39.717366" lon="2.762002"><ele>609.13</ele><time>2010-04-10T07:36:55Z</time></trkpt>
<trkpt lat="39.717432" lon="2.761921"><ele>611.54</ele><time>2010-04-10T07:37:02Z</time></trkpt>
<trkpt lat="39.717440" lon="2.761901"><ele>611.54</ele><time>2010-04-10T07:37:03Z</time></trkpt>
<trkpt lat="39.717457" lon="2.761691"><ele>611.54</ele><time>2010-04-10T07:37:12Z</time></trkpt>
<trkpt lat="39.717472" lon="2.761600"><ele>611.54</ele><time>2010-04-10T07:37:16Z</time></trkpt>
<trkpt lat="39.717570" lon="2.761538"><ele>612.98</ele><time>2010-04-10T07:37:22Z</time></trkpt>
<trkpt lat="39.717754" lon="2.761528"><ele>613.46</ele><time>2010-04-10T07:37:31Z</time></trkpt>
<trkpt lat="39.717886" lon="2.761486"><ele>612.98</ele><time>2010-04-10T07:37:38Z</time></trkpt>
<trkpt lat="39.717962" lon="2.761573"><ele>611.54</ele><time>2010-04-10T07:37:42Z</time></trkpt>
<trkpt lat="39.718099" lon="2.761625"><ele>609.61</ele><time>2010-04-10T07:37:46Z</time></trkpt>
<trkpt lat="39.718178" lon="2.761652"><ele>608.65</ele><time>2010-04-10T07:37:48Z</time></trkpt>
<trkpt lat="39.718223" lon="2.761661"><ele>607.69</ele><time>2010-04-10T07:37:49Z</time></trkpt>
<trkpt lat="39.718345" lon="2.761663"><ele>606.25</ele><time>2010-04-10T07:37:52Z</time></trkpt>
<trkpt lat="39.718486" lon="2.761700"><ele>603.85</ele><time>2010-04-10T07:37:56Z</time></trkpt>
<trkpt lat="39.718675" lon="2.761656"><ele>602.40</ele><time>2010-04-10T07:38:03Z</time></trkpt>
<trkpt lat="39.718773" lon="2.761572"><ele>600.48</ele><time>2010-04-10T07:38:09Z</time></trkpt>
<trkpt lat="39.718819" lon="2.761534"><ele>600.48</ele><time>2010-04-10T07:38:14Z</time></trkpt>
<trkpt lat="39.718835" lon="2.761501"><ele>600.48</ele><time>2010-04-10T07:38:24Z</time></trkpt>
<trkpt lat="39.718855" lon="2.761451"><ele>600.96</ele><time>2010-04-10T07:38:33Z</time></trkpt>
<trkpt lat="39.718982" lon="2.761344"><ele>602.40</ele><time>2010-04-10T07:38:43Z</time></trkpt>
<trkpt lat="39.719090" lon="2.761263"><ele>604.81</ele><time>2010-04-10T07:38:56Z</time></trkpt>
<trkpt lat="39.719180" lon="2.761247"><ele>606.25</ele><time>2010-04-10T07:39:04Z</time></trkpt>
<trkpt lat="39.719257" lon="2.761190"><ele>607.69</ele><time>2010-04-10T07:39:12Z</time></trkpt>
<trkpt lat="39.719286" lon="2.761073"><ele>609.13</ele><time>2010-04-10T07:39:22Z</time></trkpt>
<trkpt lat="39.719319" lon="2.760988"><ele>609.13</ele><time>2010-04-10T07:39:31Z</time></trkpt>
<trkpt lat="39.719355" lon="2.760932"><ele>609.61</ele><time>2010-04-10T07:39:40Z</time></trkpt>
<trkpt lat="39.719441" lon="2.760789"><ele>609.13</ele><time>2010-04-10T07:39:51Z</time></trkpt>
<trkpt lat="39.719506" lon="2.760589"><ele>609.61</ele><time>2010-04-10T07:40:01Z</time></trkpt>
<trkpt lat="39.719583" lon="2.760428"><ele>611.06</ele><time>2010-04-10T07:40:10Z</time></trkpt>
<trkpt lat="39.719708" lon="2.760340"><ele>611.54</ele><time>2010-04-10T07:40:18Z</time></trkpt>
<trkpt lat="39.719792" lon="2.760307"><ele>611.06</ele><time>2010-04-10T07:40:22Z</time></trkpt>
<trkpt lat="39.719914" lon="2.760159"><ele>608.17</ele><time>2010-04-10T07:40:28Z</time></trkpt>
<trkpt lat="39.719949" lon="2.760128"><ele>607.69</ele><time>2010-04-10T07:40:30Z</time></trkpt>
<trkpt lat="39.720038" lon="2.760046"><ele>605.77</ele><time>2010-04-10T07:40:35Z</time></trkpt>
<trkpt lat="39.720145" lon="2.759850"><ele>602.88</ele><time>2010-04-10T07:40:41Z</time></trkpt>
<trkpt lat="39.720297" lon="2.759679"><ele>603.36</ele><time>2010-04-10T07:40:47Z</time></trkpt>
<trkpt lat="39.720380" lon="2.759553"><ele>603.85</ele><time>2010-04-10T07:40:52Z</time></trkpt>
<trkpt lat="39.720522" lon="2.759435"><ele>603.85</ele><time>2010-04-10T07:40:59Z</time></trkpt>
<trkpt lat="39.720611" lon="2.759381"><ele>604.81</ele><time>2010-04-10T07:41:07Z</time></trkpt>
<trkpt lat="39.720773" lon="2.759348"><ele>605.77</ele><time>2010-04-10T07:41:14Z</time></trkpt>
<trkpt lat="39.720901" lon="2.759283"><ele>605.29</ele><time>2010-04-10T07:41:20Z</time></trkpt>
<trkpt lat="39.720983" lon="2.759249"><ele>604.81</ele><time>2010-04-10T07:41:23Z</time></trkpt>
<trkpt lat="39.721167" lon="2.759313"><ele>603.85</ele><time>2010-04-10T07:41:29Z</time></trkpt>
<trkpt lat="39.721325" lon="2.759333"><ele>601.92</ele><time>2010-04-10T07:41:35Z</time></trkpt>
<trkpt lat="39.721478" lon="2.759410"><ele>600.00</ele><time>2010-04-10T07:41:41Z</time></trkpt>
<trkpt lat="39.721647" lon="2.759517"><ele>598.08</ele><time>2010-04-10T07:41:47Z</time></trkpt>
<trkpt lat="39.721857" lon="2.759599"><ele>594.71</ele><time>2010-04-10T07:41:53Z</time></trkpt>
<trkpt lat="39.722009" lon="2.759637"><ele>593.27</ele><time>2010-04-10T07:41:56Z</time></trkpt>
<trkpt lat="39.722175" lon="2.759729"><ele>592.79</ele><time>2010-04-10T07:42:00Z</time></trkpt>
<trkpt lat="39.722341" lon="2.759766"><ele>591.83</ele><time>2010-04-10T07:42:04Z</time></trkpt>
<trkpt lat="39.722439" lon="2.759825"><ele>590.39</ele><time>2010-04-10T07:42:08Z</time></trkpt>
<trkpt lat="39.722593" lon="2.759880"><ele>590.39</ele><time>2010-04-10T07:42:13Z</time></trkpt>
<trkpt lat="39.722702" lon="2.759911"><ele>590.39</ele><time>2010-04-10T07:42:18Z</time></trkpt>
<trkpt lat="39.722809" lon="2.759931"><ele>590.39</ele><time>2010-04-10T07:42:26Z</time></trkpt>
<trkpt lat="39.722848" lon="2.759972"><ele>590.87</ele><time>2010-04-10T07:42:43Z</time></trkpt>
<trkpt lat="39.722945" lon="2.760092"><ele>592.31</ele><time>2010-04-10T07:42:50Z</time></trkpt>
<trkpt lat="39.723007" lon="2.760154"><ele>592.31</ele><time>2010-04-10T07:42:55Z</time></trkpt>
<trkpt lat="39.723094" lon="2.760195"><ele>593.27</ele><time>2010-04-10T07:43:01Z</time></trkpt>
<trkpt lat="39.723153" lon="2.760198"><ele>593.75</ele><time>2010-04-10T07:43:03Z</time></trkpt>
<trkpt lat="39.723286" lon="2.760153"><ele>594.23</ele><time>2010-04-10T07:43:08Z</time></trkpt>
<trkpt lat="39.723353" lon="2.760197"><ele>595.19</ele><time>2010-04-10T07:43:12Z</time></trkpt>
<trkpt lat="39.723418" lon="2.760203"><ele>594.71</ele><time>2010-04-10T07:43:15Z</time></trkpt>
<trkpt lat="39.723513" lon="2.760228"><ele>595.19</ele><time>2010-04-10T07:43:21Z</time></trkpt>
<trkpt lat="39.723584" lon="2.760234"><ele>595.67</ele><time>2010-04-10T07:43:28Z</time></trkpt>
<trkpt lat="39.723629" lon="2.760225"><ele>596.15</ele><time>2010-04-10T07:43:31Z</time></trkpt>
<trkpt lat="39.723703" lon="2.760189"><ele>598.08</ele><time>2010-04-10T07:43:37Z</time></trkpt>
<trkpt lat="39.723879" lon="2.760086"><ele>599.52</ele><time>2010-04-10T07:43:45Z</time></trkpt>
<trkpt lat="39.723985" lon="2.760070"><ele>601.44</ele><time>2010-04-10T07:43:50Z</time></trkpt>
<trkpt lat="39.724088" lon="2.760064"><ele>602.88</ele><time>2010-04-10T07:43:58Z</time></trkpt>
<trkpt lat="39.724153" lon="2.760020"><ele>603.36</ele><time>2010-04-10T07:44:06Z</time></trkpt>
<trkpt lat="39.724206" lon="2.759982"><ele>604.81</ele><time>2010-04-10T07:44:16Z</time></trkpt>
<trkpt lat="39.724271" lon="2.759956"><ele>605.77</ele><time>2010-04-10T07:44:24Z</time></trkpt>
<trkpt lat="39.724293" lon="2.759949"><ele>606.25</ele><time>2010-04-10T07:44:26Z</time></trkpt>
<trkpt lat="39.724335" lon="2.759915"><ele>606.73</ele><time>2010-04-10T07:44:29Z</time></trkpt>
<trkpt lat="39.724376" lon="2.759929"><ele>607.69</ele><time>2010-04-10T07:44:34Z</time></trkpt>
<trkpt lat="39.724465" lon="2.759945"><ele>608.65</ele><time>2010-04-10T07:44:43Z</time></trkpt>
<trkpt lat="39.724529" lon="2.759944"><ele>608.65</ele><time>2010-04-10T07:44:52Z</time></trkpt>
<trkpt lat="39.724541" lon="2.759934"><ele>609.13</ele><time>2010-04-10T07:45:06Z</time></trkpt>
<trkpt lat="39.724541" lon="2.759918"><ele>610.09</ele><time>2010-04-10T07:48:27Z</time></trkpt>
<trkpt lat="39.724548" lon="2.759924"><ele>609.61</ele><time>2010-04-10T07:48:38Z</time></trkpt>
<trkpt lat="39.724571" lon="2.759924"><ele>609.13</ele><time>2010-04-10T07:48:47Z</time></trkpt>
<trkpt lat="39.724593" lon="2.759930"><ele>609.13</ele><time>2010-04-10T07:48:56Z</time></trkpt>
<trkpt lat="39.724596" lon="2.759939"><ele>609.13</ele><time>2010-04-10T07:49:10Z</time></trkpt>
<trkpt lat="39.724599" lon="2.759943"><ele>607.21</ele><time>2010-04-10T07:50:34Z</time></trkpt>
<trkpt lat="39.724678" lon="2.759959"><ele>606.73</ele><time>2010-04-10T07:50:42Z</time></trkpt>
<trkpt lat="39.724714" lon="2.759971"><ele>606.25</ele><time>2010-04-10T07:50:45Z</time></trkpt>
<trkpt lat="39.724781" lon="2.759974"><ele>604.81</ele><time>2010-04-10T07:50:48Z</time></trkpt>
<trkpt lat="39.724879" lon="2.759997"><ele>604.33</ele><time>2010-04-10T07:50:52Z</time></trkpt>
<trkpt lat="39.725013" lon="2.760003"><ele>601.92</ele><time>2010-04-10T07:50:57Z</time></trkpt>
<trkpt lat="39.725086" lon="2.759967"><ele>600.00</ele><time>2010-04-10T07:51:02Z</time></trkpt>
<trkpt lat="39.725111" lon="2.759913"><ele>599.04</ele><time>2010-04-10T07:51:08Z</time></trkpt>
<trkpt lat="39.725168" lon="2.759913"><ele>598.08</ele><time>2010-04-10T07:51:14Z</time></trkpt>
<trkpt lat="39.725199" lon="2.759844"><ele>595.67</ele><time>2010-04-10T07:51:22Z</time></trkpt>
<trkpt lat="39.725122" lon="2.759825"><ele>594.23</ele><time>2010-04-10T07:51:32Z</time></trkpt>
<trkpt lat="39.725111" lon="2.759791"><ele>591.83</ele><time>2010-04-10T07:51:45Z</time></trkpt>
<trkpt lat="39.725095" lon="2.759655"><ele>589.43</ele><time>2010-04-10T07:51:50Z</time></trkpt>
<trkpt lat="39.725051" lon="2.759505"><ele>586.54</ele><time>2010-04-10T07:51:55Z</time></trkpt>
<trkpt lat="39.724982" lon="2.759315"><ele>583.66</ele><time>2010-04-10T07:52:02Z</time></trkpt>
<trkpt lat="39.724983" lon="2.759296"><ele>583.18</ele><time>2010-04-10T07:52:03Z</time></trkpt>
<trkpt lat="39.724961" lon="2.759279"><ele>582.70</ele><time>2010-04-10T07:52:10Z</time></trkpt>
<trkpt lat="39.724957" lon="2.759279"><ele>581.25</ele><time>2010-04-10T07:53:15Z</time></trkpt>
<trkpt lat="39.724945" lon="2.759082"><ele>577.89</ele><time>2010-04-10T07:53:23Z</time></trkpt>
<trkpt lat="39.724927" lon="2.758884"><ele>574.04</ele><time>2010-04-10T07:53:29Z</time></trkpt>
<trkpt lat="39.724921" lon="2.758853"><ele>573.56</ele><time>2010-04-10T07:53:30Z</time></trkpt>
<trkpt lat="39.724973" lon="2.758797"><ele>572.60</ele><time>2010-04-10T07:53:32Z</time></trkpt>
<trkpt lat="39.724983" lon="2.758747"><ele>571.64</ele><time>2010-04-10T07:53:33Z</time></trkpt>
<trkpt lat="39.724926" lon="2.758520"><ele>567.80</ele><time>2010-04-10T07:53:38Z</time></trkpt>
<trkpt lat="39.724936" lon="2.758487"><ele>566.83</ele><time>2010-04-10T07:53:39Z</time></trkpt>
<trkpt lat="39.724968" lon="2.758422"><ele>565.87</ele><time>2010-04-10T07:53:41Z</time></trkpt>
<trkpt lat="39.724955" lon="2.758334"><ele>564.43</ele><time>2010-04-10T07:53:44Z</time></trkpt>
<trkpt lat="39.724937" lon="2.758244"><ele>562.51</ele><time>2010-04-10T07:53:47Z</time></trkpt>
<trkpt lat="39.724952" lon="2.758064"><ele>560.59</ele><time>2010-04-10T07:53:52Z</time></trkpt>
<trkpt lat="39.725026" lon="2.757868"><ele>557.22</ele><time>2010-04-10T07:53:57Z</time></trkpt>
<trkpt lat="39.724988" lon="2.757775"><ele>556.26</ele><time>2010-04-10T07:53:59Z</time></trkpt>
<trkpt lat="39.725081" lon="2.757525"><ele>552.41</ele><time>2010-04-10T07:54:04Z</time></trkpt>
<trkpt lat="39.725031" lon="2.757361"><ele>549.53</ele><time>2010-04-10T07:54:08Z</time></trkpt>
<trkpt lat="39.724977" lon="2.757230"><ele>547.13</ele><time>2010-04-10T07:54:12Z</time></trkpt>
<trkpt lat="39.724999" lon="2.757146"><ele>545.20</ele><time>2010-04-10T07:54:15Z</time></trkpt>
<trkpt lat="39.724994" lon="2.756958"><ele>541.84</ele><time>2010-04-10T07:54:19Z</time></trkpt>
<trkpt lat="39.725004" lon="2.756876"><ele>540.88</ele><time>2010-04-10T07:54:21Z</time></trkpt>
<trkpt lat="39.725005" lon="2.756831"><ele>540.40</ele><time>2010-04-10T07:54:22Z</time></trkpt>
<trkpt lat="39.725035" lon="2.756777"><ele>538.96</ele><time>2010-04-10T07:54:24Z</time></trkpt>
<trkpt lat="39.725097" lon="2.756621"><ele>536.55</ele><time>2010-04-10T07:54:28Z</time></trkpt>
<trkpt lat="39.725146" lon="2.756413"><ele>533.67</ele><time>2010-04-10T07:54:33Z</time></trkpt>
<trkpt lat="39.725199" lon="2.756111"><ele>529.82</ele><time>2010-04-10T07:54:40Z</time></trkpt>
<trkpt lat="39.725202" lon="2.756069"><ele>529.34</ele><time>2010-04-10T07:54:41Z</time></trkpt>
<trkpt lat="39.725198" lon="2.755869"><ele>527.42</ele><time>2010-04-10T07:54:44Z</time></trkpt>
<trkpt lat="39.725237" lon="2.755669"><ele>525.50</ele><time>2010-04-10T07:54:47Z</time></trkpt>
<trkpt lat="39.725264" lon="2.755340"><ele>522.13</ele><time>2010-04-10T07:54:51Z</time></trkpt>
<trkpt lat="39.725209" lon="2.755060"><ele>518.77</ele><time>2010-04-10T07:54:55Z</time></trkpt>
<trkpt lat="39.725192" lon="2.754748"><ele>516.37</ele><time>2010-04-10T07:55:00Z</time></trkpt>
<trkpt lat="39.725195" lon="2.754378"><ele>512.52</ele><time>2010-04-10T07:55:05Z</time></trkpt>
<trkpt lat="39.725258" lon="2.754091"><ele>509.64</ele><time>2010-04-10T07:55:10Z</time></trkpt>
<trkpt lat="39.725256" lon="2.754031"><ele>509.16</ele><time>2010-04-10T07:55:11Z</time></trkpt>
<trkpt lat="39.725301" lon="2.753823"><ele>507.71</ele><time>2010-04-10T07:55:14Z</time></trkpt>
<trkpt lat="39.725417" lon="2.753546"><ele>503.87</ele><time>2010-04-10T07:55:19Z</time></trkpt>
<trkpt lat="39.725439" lon="2.753399"><ele>500.98</ele><time>2010-04-10T07:55:23Z</time></trkpt>
<trkpt lat="39.725410" lon="2.753418"><ele>500.98</ele><time>2010-04-10T07:55:31Z</time></trkpt>
<trkpt lat="39.725417" lon="2.753405"><ele>500.50</ele><time>2010-04-10T07:55:37Z</time></trkpt>
<trkpt lat="39.725422" lon="2.753433"><ele>500.50</ele><time>2010-04-10T07:55:48Z</time></trkpt>
<trkpt lat="39.725435" lon="2.753467"><ele>499.54</ele><time>2010-04-10T07:55:56Z</time></trkpt>
<trkpt lat="39.725431" lon="2.753422"><ele>498.10</ele><time>2010-04-10T07:56:00Z</time></trkpt>
<trkpt lat="39.725445" lon="2.753381"><ele>497.14</ele><time>2010-04-10T07:56:07Z</time></trkpt>
<trkpt lat="39.725490" lon="2.753380"><ele>498.10</ele><time>2010-04-10T07:56:22Z</time></trkpt>
<trkpt lat="39.725438" lon="2.753267"><ele>495.70</ele><time>2010-04-10T07:56:37Z</time></trkpt>
<trkpt lat="39.725240" lon="2.753073"><ele>492.81</ele><time>2010-04-10T07:56:42Z</time></trkpt>
<trkpt lat="39.725120" lon="2.752856"><ele>489.93</ele><time>2010-04-10T07:56:46Z</time></trkpt>
<trkpt lat="39.725087" lon="2.752823"><ele>489.45</ele><time>2010-04-10T07:56:47Z</time></trkpt>
<trkpt lat="39.724909" lon="2.752733"><ele>486.08</ele><time>2010-04-10T07:56:52Z</time></trkpt>
<trkpt lat="39.724689" lon="2.752409"><ele>483.68</ele><time>2010-04-10T07:56:57Z</time></trkpt>
<trkpt lat="39.724592" lon="2.752110"><ele>481.76</ele><time>2010-04-10T07:57:01Z</time></trkpt>
<trkpt lat="39.724569" lon="2.752039"><ele>481.28</ele><time>2010-04-10T07:57:02Z</time></trkpt>
<trkpt lat="39.724539" lon="2.751830"><ele>479.84</ele><time>2010-04-10T07:57:05Z</time></trkpt>
<trkpt lat="39.724469" lon="2.751592"><ele>477.43</ele><time>2010-04-10T07:57:11Z</time></trkpt>
<trkpt lat="39.724431" lon="2.751432"><ele>475.99</ele><time>2010-04-10T07:57:18Z</time></trkpt>
<trkpt lat="39.724427" lon="2.751234"><ele>475.03</ele><time>2010-04-10T07:57:22Z</time></trkpt>
<trkpt lat="39.724298" lon="2.751001"><ele>473.59</ele><time>2010-04-10T07:57:27Z</time></trkpt>
<trkpt lat="39.724287" lon="2.750879"><ele>472.63</ele><time>2010-04-10T07:57:29Z</time></trkpt>
<trkpt lat="39.724130" lon="2.750604"><ele>470.70</ele><time>2010-04-10T07:57:35Z</time></trkpt>
<trkpt lat="39.723988" lon="2.750353"><ele>467.82</ele><time>2010-04-10T07:57:40Z</time></trkpt>
<trkpt lat="39.723798" lon="2.750183"><ele>465.90</ele><time>2010-04-10T07:57:44Z</time></trkpt>
<trkpt lat="39.723579" lon="2.749908"><ele>463.49</ele><time>2010-04-10T07:57:49Z</time></trkpt>
<trkpt lat="39.723526" lon="2.749780"><ele>462.05</ele><time>2010-04-10T07:57:51Z</time></trkpt>
<trkpt lat="39.723487" lon="2.749564"><ele>460.13</ele><time>2010-04-10T07:57:55Z</time></trkpt>
<trkpt lat="39.723483" lon="2.749555"><ele>459.65</ele><time>2010-04-10T07:57:59Z</time></trkpt>
<trkpt lat="39.723512" lon="2.749579"><ele>459.65</ele><time>2010-04-10T07:58:19Z</time></trkpt>
<trkpt lat="39.723526" lon="2.749578"><ele>459.17</ele><time>2010-04-10T07:58:30Z</time></trkpt>
<trkpt lat="39.723550" lon="2.749573"><ele>459.17</ele><time>2010-04-10T07:58:40Z</time></trkpt>
<trkpt lat="39.723585" lon="2.749538"><ele>460.13</ele><time>2010-04-10T07:58:53Z</time></trkpt>
<trkpt lat="39.723581" lon="2.749535"><ele>460.61</ele><time>2010-04-10T07:58:59Z</time></trkpt>
<trkpt lat="39.723629" lon="2.749495"><ele>460.61</ele><time>2010-04-10T07:59:10Z</time></trkpt>
<trkpt lat="39.723633" lon="2.749498"><ele>461.09</ele><time>2010-04-10T07:59:14Z</time></trkpt>
<trkpt lat="39.723652" lon="2.749357"><ele>462.05</ele><time>2010-04-10T07:59:22Z</time></trkpt>
<trkpt lat="39.723662" lon="2.749229"><ele>462.53</ele><time>2010-04-10T07:59:28Z</time></trkpt>
<trkpt lat="39.723642" lon="2.749081"><ele>464.45</ele><time>2010-04-10T07:59:35Z</time></trkpt>
<trkpt lat="39.723583" lon="2.748959"><ele>464.93</ele><time>2010-04-10T07:59:41Z</time></trkpt>
<trkpt lat="39.723506" lon="2.748825"><ele>465.42</ele><time>2010-04-10T07:59:48Z</time></trkpt>
<trkpt lat="39.723480" lon="2.748795"><ele>465.42</ele><time>2010-04-10T07:59:50Z</time></trkpt>
<trkpt lat="39.723455" lon="2.748643"><ele>466.38</ele><time>2010-04-10T07:59:58Z</time></trkpt>
<trkpt lat="39.723473" lon="2.748511"><ele>466.86</ele><time>2010-04-10T08:00:06Z</time></trkpt>
<trkpt lat="39.723465" lon="2.748516"><ele>466.86</ele><time>2010-04-10T08:00:12Z</time></trkpt>
<trkpt lat="39.723476" lon="2.748528"><ele>466.38</ele><time>2010-04-10T08:00:19Z</time></trkpt>
<trkpt lat="39.723525" lon="2.748489"><ele>466.86</ele><time>2010-04-10T08:01:02Z</time></trkpt>
<trkpt lat="39.723544" lon="2.748468"><ele>466.38</ele><time>2010-04-10T08:01:09Z</time></trkpt>
<trkpt lat="39.723581" lon="2.748486"><ele>465.42</ele><time>2010-04-10T08:01:16Z</time></trkpt>
<trkpt lat="39.723621" lon="2.748535"><ele>464.45</ele><time>2010-04-10T08:01:19Z</time></trkpt>
<trkpt lat="39.723733" lon="2.748511"><ele>463.01</ele><time>2010-04-10T08:01:21Z</time></trkpt>
<trkpt lat="39.723889" lon="2.748426"><ele>462.05</ele><time>2010-04-10T08:01:24Z</time></trkpt>
<trkpt lat="39.723971" lon="2.748385"><ele>460.61</ele><time>2010-04-10T08:01:26Z</time></trkpt>
<trkpt lat="39.724108" lon="2.748271"><ele>458.69</ele><time>2010-04-10T08:01:31Z</time></trkpt>
<trkpt lat="39.724248" lon="2.748166"><ele>455.80</ele><time>2010-04-10T08:01:36Z</time></trkpt>
<trkpt lat="39.724268" lon="2.748159"><ele>455.32</ele><time>2010-04-10T08:01:37Z</time></trkpt>
<trkpt lat="39.724279" lon="2.748125"><ele>454.36</ele><time>2010-04-10T08:01:39Z</time></trkpt>
<trkpt lat="39.724205" lon="2.748106"><ele>452.92</ele><time>2010-04-10T08:01:43Z</time></trkpt>
<trkpt lat="39.724115" lon="2.748140"><ele>451.00</ele><time>2010-04-10T08:01:47Z</time></trkpt>
<trkpt lat="39.724065" lon="2.748145"><ele>450.03</ele><time>2010-04-10T08:01:49Z</time></trkpt>
<trkpt lat="39.723897" lon="2.748151"><ele>446.67</ele><time>2010-04-10T08:01:55Z</time></trkpt>
<trkpt lat="39.723875" lon="2.748154"><ele>446.19</ele><time>2010-04-10T08:01:56Z</time></trkpt>
<trkpt lat="39.723836" lon="2.748146"><ele>445.23</ele><time>2010-04-10T08:01:58Z</time></trkpt>
<trkpt lat="39.723862" lon="2.748113"><ele>444.27</ele><time>2010-04-10T08:02:02Z</time></trkpt>
<trkpt lat="39.723927" lon="2.748097"><ele>442.82</ele><time>2010-04-10T08:02:07Z</time></trkpt>
<trkpt lat="39.723927" lon="2.748085"><ele>441.86</ele><time>2010-04-10T08:02:09Z</time></trkpt>
<trkpt lat="39.723764" lon="2.748065"><ele>438.50</ele><time>2010-04-10T08:02:17Z</time></trkpt>
<trkpt lat="39.723743" lon="2.748076"><ele>438.02</ele><time>2010-04-10T08:02:18Z</time></trkpt>
<trkpt lat="39.723707" lon="2.748040"><ele>436.58</ele><time>2010-04-10T08:02:22Z</time></trkpt>
<trkpt lat="39.723807" lon="2.747976"><ele>435.13</ele><time>2010-04-10T08:02:27Z</time></trkpt>
<trkpt lat="39.723874" lon="2.747970"><ele>434.17</ele><time>2010-04-10T08:02:30Z</time></trkpt>
<trkpt lat="39.723984" lon="2.747849"><ele>430.33</ele><time>2010-04-10T08:02:35Z</time></trkpt>
<trkpt lat="39.724052" lon="2.747793"><ele>428.89</ele><time>2010-04-10T08:02:38Z</time></trkpt>
<trkpt lat="39.724195" lon="2.747733"><ele>426.48</ele><time>2010-04-10T08:02:42Z</time></trkpt>
<trkpt lat="39.724366" lon="2.747519"><ele>422.64</ele><time>2010-04-10T08:02:48Z</time></trkpt>
<trkpt lat="39.724444" lon="2.747436"><ele>421.19</ele><time>2010-04-10T08:02:51Z</time></trkpt>
<trkpt lat="39.724504" lon="2.747309"><ele>419.75</ele><time>2010-04-10T08:02:54Z</time></trkpt>
<trkpt lat="39.724544" lon="2.747223"><ele>418.79</ele><time>2010-04-10T08:02:57Z</time></trkpt>
<trkpt lat="39.724637" lon="2.747115"><ele>417.35</ele><time>2010-04-10T08:03:04Z</time></trkpt>
<trkpt lat="39.724630" lon="2.747089"><ele>416.87</ele><time>2010-04-10T08:03:06Z</time></trkpt>
<trkpt lat="39.724594" lon="2.747047"><ele>415.91</ele><time>2010-04-10T08:03:13Z</time></trkpt>
<trkpt lat="39.724586" lon="2.747046"><ele>415.91</ele><time>2010-04-10T08:03:22Z</time></trkpt>
<trkpt lat="39.724509" lon="2.747061"><ele>414.95</ele><time>2010-04-10T08:03:26Z</time></trkpt>
<trkpt lat="39.724425" lon="2.747040"><ele>413.98</ele><time>2010-04-10T08:03:30Z</time></trkpt>
<trkpt lat="39.724251" lon="2.747205"><ele>412.54</ele><time>2010-04-10T08:03:37Z</time></trkpt>
<trkpt lat="39.724116" lon="2.747299"><ele>411.10</ele><time>2010-04-10T08:03:42Z</time></trkpt>
<trkpt lat="39.723965" lon="2.747403"><ele>410.14</ele><time>2010-04-10T08:03:46Z</time></trkpt>
<trkpt lat="39.723849" lon="2.747477"><ele>409.18</ele><time>2010-04-10T08:03:48Z</time></trkpt>
<trkpt lat="39.723721" lon="2.747487"><ele>408.22</ele><time>2010-04-10T08:03:50Z</time></trkpt>
<trkpt lat="39.723396" lon="2.747349"><ele>404.85</ele><time>2010-04-10T08:03:55Z</time></trkpt>
<trkpt lat="39.723301" lon="2.747345"><ele>403.89</ele><time>2010-04-10T08:03:57Z</time></trkpt>
<trkpt lat="39.723211" lon="2.747307"><ele>402.93</ele><time>2010-04-10T08:03:59Z</time></trkpt>
<trkpt lat="39.723016" lon="2.747231"><ele>401.01</ele><time>2010-04-10T08:04:04Z</time></trkpt>
<trkpt lat="39.722752" lon="2.747144"><ele>398.12</ele><time>2010-04-10T08:04:10Z</time></trkpt>
<trkpt lat="39.722719" lon="2.747126"><ele>398.12</ele><time>2010-04-10T08:04:11Z</time></trkpt>
<trkpt lat="39.722586" lon="2.747042"><ele>396.68</ele><time>2010-04-10T08:04:16Z</time></trkpt>
<trkpt lat="39.722542" lon="2.747018"><ele>395.72</ele><time>2010-04-10T08:04:18Z</time></trkpt>
<trkpt lat="39.722457" lon="2.746980"><ele>394.76</ele><time>2010-04-10T08:04:23Z</time></trkpt>
<trkpt lat="39.722533" lon="2.746979"><ele>394.28</ele><time>2010-04-10T08:04:26Z</time></trkpt>
<trkpt lat="39.722611" lon="2.747064"><ele>392.84</ele><time>2010-04-10T08:04:33Z</time></trkpt>
<trkpt lat="39.722628" lon="2.747109"><ele>392.36</ele><time>2010-04-10T08:04:35Z</time></trkpt>
<trkpt lat="39.722770" lon="2.747090"><ele>390.91</ele><time>2010-04-10T08:04:39Z</time></trkpt>
<trkpt lat="39.722878" lon="2.747169"><ele>389.47</ele><time>2010-04-10T08:04:46Z</time></trkpt>
<trkpt lat="39.723023" lon="2.747141"><ele>387.07</ele><time>2010-04-10T08:04:52Z</time></trkpt>
<trkpt lat="39.723104" lon="2.747056"><ele>386.11</ele><time>2010-04-10T08:04:57Z</time></trkpt>
<trkpt lat="39.723151" lon="2.746995"><ele>385.15</ele><time>2010-04-10T08:05:03Z</time></trkpt>
<trkpt lat="39.723197" lon="2.746898"><ele>385.15</ele><time>2010-04-10T08:05:13Z</time></trkpt>
<trkpt lat="39.723163" lon="2.746932"><ele>388.03</ele><time>2010-04-10T08:07:28Z</time></trkpt>
<trkpt lat="39.723183" lon="2.746896"><ele>388.99</ele><time>2010-04-10T08:08:24Z</time></trkpt>
<trkpt lat="39.723169" lon="2.746877"><ele>389.47</ele><time>2010-04-10T08:08:41Z</time></trkpt>
<trkpt lat="39.723201" lon="2.746962"><ele>389.95</ele><time>2010-04-10T08:08:56Z</time></trkpt>
<trkpt lat="39.723219" lon="2.746869"><ele>390.43</ele><time>2010-04-10T08:09:20Z</time></trkpt>
<trkpt lat="39.723154" lon="2.746833"><ele>390.43</ele><time>2010-04-10T08:09:34Z</time></trkpt>
<trkpt lat="39.723165" lon="2.746874"><ele>390.91</ele><time>2010-04-10T08:09:51Z</time></trkpt>
<trkpt lat="39.723210" lon="2.746846"><ele>394.28</ele><time>2010-04-10T08:17:59Z</time></trkpt>
<trkpt lat="39.723279" lon="2.746869"><ele>395.24</ele><time>2010-04-10T08:21:07Z</time></trkpt>
<trkpt lat="39.723305" lon="2.746843"><ele>395.24</ele><time>2010-04-10T08:21:22Z</time></trkpt>
<trkpt lat="39.723309" lon="2.746857"><ele>395.72</ele><time>2010-04-10T08:21:28Z</time></trkpt>
<trkpt lat="39.723272" lon="2.746869"><ele>396.20</ele><time>2010-04-10T08:21:32Z</time></trkpt>
<trkpt lat="39.723208" lon="2.746873"><ele>397.16</ele><time>2010-04-10T08:21:37Z</time></trkpt>
<trkpt lat="39.723154" lon="2.746959"><ele>397.64</ele><time>2010-04-10T08:21:40Z</time></trkpt>
<trkpt lat="39.723070" lon="2.747001"><ele>398.12</ele><time>2010-04-10T08:21:45Z</time></trkpt>
<trkpt lat="39.722968" lon="2.746982"><ele>399.57</ele><time>2010-04-10T08:21:54Z</time></trkpt>
<trkpt lat="39.722898" lon="2.746979"><ele>400.53</ele><time>2010-04-10T08:21:59Z</time></trkpt>
<trkpt lat="39.722867" lon="2.746937"><ele>401.01</ele><time>2010-04-10T08:22:06Z</time></trkpt>
<trkpt lat="39.722859" lon="2.746982"><ele>401.49</ele><time>2010-04-10T08:22:18Z</time></trkpt>
<trkpt lat="39.722803" lon="2.746996"><ele>401.97</ele><time>2010-04-10T08:22:26Z</time></trkpt>
<trkpt lat="39.722720" lon="2.747017"><ele>402.45</ele><time>2010-04-10T08:22:32Z</time></trkpt>
<trkpt lat="39.722582" lon="2.747036"><ele>403.41</ele><time>2010-04-10T08:22:40Z</time></trkpt>
<trkpt lat="39.722532" lon="2.747023"><ele>403.89</ele><time>2010-04-10T08:22:43Z</time></trkpt>
<trkpt lat="39.722459" lon="2.746973"><ele>404.85</ele><time>2010-04-10T08:22:49Z</time></trkpt>
<trkpt lat="39.722386" lon="2.746983"><ele>405.33</ele><time>2010-04-10T08:22:54Z</time></trkpt>
<trkpt lat="39.722362" lon="2.747054"><ele>406.29</ele><time>2010-04-10T08:23:00Z</time></trkpt>
<trkpt lat="39.722401" lon="2.747090"><ele>406.77</ele><time>2010-04-10T08:23:05Z</time></trkpt>
<trkpt lat="39.722544" lon="2.747158"><ele>407.74</ele><time>2010-04-10T08:23:13Z</time></trkpt>
<trkpt lat="39.722570" lon="2.747217"><ele>408.22</ele><time>2010-04-10T08:23:16Z</time></trkpt>
<trkpt lat="39.722662" lon="2.747235"><ele>408.70</ele><time>2010-04-10T08:23:22Z</time></trkpt>
<trkpt lat="39.722756" lon="2.747278"><ele>409.66</ele><time>2010-04-10T08:23:27Z</time></trkpt>
<trkpt lat="39.722877" lon="2.747288"><ele>410.14</ele><time>2010-04-10T08:23:34Z</time></trkpt>
<trkpt lat="39.722890" lon="2.747303"><ele>410.62</ele><time>2010-04-10T08:23:37Z</time></trkpt>
<trkpt lat="39.722929" lon="2.747324"><ele>410.62</ele><time>2010-04-10T08:23:39Z</time></trkpt>
<trkpt lat="39.723009" lon="2.747335"><ele>411.58</ele><time>2010-04-10T08:23:46Z</time></trkpt>
<trkpt lat="39.723131" lon="2.747408"><ele>412.06</ele><time>2010-04-10T08:23:53Z</time></trkpt>
<trkpt lat="39.723145" lon="2.747415"><ele>412.54</ele><time>2010-04-10T08:23:54Z</time></trkpt>
<trkpt lat="39.723225" lon="2.747425"><ele>412.54</ele><time>2010-04-10T08:23:58Z</time></trkpt>
<trkpt lat="39.723252" lon="2.747442"><ele>413.02</ele><time>2010-04-10T08:24:00Z</time></trkpt>
<trkpt lat="39.723283" lon="2.747441"><ele>413.50</ele><time>2010-04-10T08:24:02Z</time></trkpt>
<trkpt lat="39.723370" lon="2.747491"><ele>413.50</ele><time>2010-04-10T08:24:08Z</time></trkpt>
<trkpt lat="39.723418" lon="2.747500"><ele>413.98</ele><time>2010-04-10T08:24:11Z</time></trkpt>
<trkpt lat="39.723480" lon="2.747584"><ele>414.95</ele><time>2010-04-10T08:24:18Z</time></trkpt>
<trkpt lat="39.723494" lon="2.747584"><ele>415.43</ele><time>2010-04-10T08:24:20Z</time></trkpt>
<trkpt lat="39.723572" lon="2.747674"><ele>416.39</ele><time>2010-04-10T08:24:26Z</time></trkpt>
<trkpt lat="39.723637" lon="2.747646"><ele>417.35</ele><time>2010-04-10T08:24:35Z</time></trkpt>
<trkpt lat="39.723717" lon="2.747601"><ele>417.83</ele><time>2010-04-10T08:24:42Z</time></trkpt>
<trkpt lat="39.724031" lon="2.747576"><ele>418.79</ele><time>2010-04-10T08:24:52Z</time></trkpt>
<trkpt lat="39.724059" lon="2.747540"><ele>419.27</ele><time>2010-04-10T08:24:54Z</time></trkpt>
<trkpt lat="39.724187" lon="2.747398"><ele>420.23</ele><time>2010-04-10T08:25:04Z</time></trkpt>
<trkpt lat="39.724240" lon="2.747292"><ele>420.71</ele><time>2010-04-10T08:25:11Z</time></trkpt>
<trkpt lat="39.724251" lon="2.747289"><ele>420.71</ele><time>2010-04-10T08:25:12Z</time></trkpt>
<trkpt lat="39.724331" lon="2.747246"><ele>421.19</ele><time>2010-04-10T08:25:16Z</time></trkpt>
<trkpt lat="39.724357" lon="2.747222"><ele>421.19</ele><time>2010-04-10T08:25:19Z</time></trkpt>
<trkpt lat="39.724407" lon="2.747138"><ele>422.16</ele><time>2010-04-10T08:25:25Z</time></trkpt>
<trkpt lat="39.724415" lon="2.747133"><ele>422.16</ele><time>2010-04-10T08:25:26Z</time></trkpt>
<trkpt lat="39.724488" lon="2.747116"><ele>423.12</ele><time>2010-04-10T08:25:31Z</time></trkpt>
<trkpt lat="39.724615" lon="2.747109"><ele>424.08</ele><time>2010-04-10T08:25:36Z</time></trkpt>
<trkpt lat="39.724666" lon="2.747115"><ele>425.04</ele><time>2010-04-10T08:25:41Z</time></trkpt>
<trkpt lat="39.724652" lon="2.747160"><ele>425.52</ele><time>2010-04-10T08:25:46Z</time></trkpt>
<trkpt lat="39.724593" lon="2.747265"><ele>426.48</ele><time>2010-04-10T08:25:53Z</time></trkpt>
<trkpt lat="39.724541" lon="2.747344"><ele>427.44</ele><time>2010-04-10T08:26:00Z</time></trkpt>
<trkpt lat="39.724490" lon="2.747482"><ele>428.89</ele><time>2010-04-10T08:26:08Z</time></trkpt>
<trkpt lat="39.724445" lon="2.747495"><ele>429.85</ele><time>2010-04-10T08:26:14Z</time></trkpt>
<trkpt lat="39.724357" lon="2.747521"><ele>431.77</ele><time>2010-04-10T08:26:24Z</time></trkpt>
<trkpt lat="39.724222" lon="2.747692"><ele>433.21</ele><time>2010-04-10T08:26:33Z</time></trkpt>
<trkpt lat="39.724167" lon="2.747698"><ele>433.69</ele><time>2010-04-10T08:26:37Z</time></trkpt>
<trkpt lat="39.724105" lon="2.747763"><ele>434.65</ele><time>2010-04-10T08:26:41Z</time></trkpt>
<trkpt lat="39.724065" lon="2.747789"><ele>435.61</ele><time>2010-04-10T08:26:44Z</time></trkpt>
<trkpt lat="39.723996" lon="2.747831"><ele>437.06</ele><time>2010-04-10T08:26:50Z</time></trkpt>
<trkpt lat="39.723978" lon="2.747827"><ele>437.54</ele><time>2010-04-10T08:26:52Z</time></trkpt>
<trkpt lat="39.723917" lon="2.747902"><ele>438.98</ele><time>2010-04-10T08:26:58Z</time></trkpt>
<trkpt lat="39.723891" lon="2.747913"><ele>439.94</ele><time>2010-04-10T08:27:00Z</time></trkpt>
<trkpt lat="39.723858" lon="2.747912"><ele>440.42</ele><time>2010-04-10T08:27:02Z</time></trkpt>
<trkpt lat="39.723741" lon="2.747960"><ele>441.86</ele><time>2010-04-10T08:27:12Z</time></trkpt>
<trkpt lat="39.723718" lon="2.747972"><ele>442.34</ele><time>2010-04-10T08:27:14Z</time></trkpt>
<trkpt lat="39.723711" lon="2.748063"><ele>443.31</ele><time>2010-04-10T08:27:21Z</time></trkpt>
<trkpt lat="39.723741" lon="2.748067"><ele>443.79</ele><time>2010-04-10T08:27:24Z</time></trkpt>
<trkpt lat="39.723771" lon="2.748039"><ele>444.75</ele><time>2010-04-10T08:27:29Z</time></trkpt>
<trkpt lat="39.723868" lon="2.748069"><ele>446.67</ele><time>2010-04-10T08:27:38Z</time></trkpt>
<trkpt lat="39.723935" lon="2.748109"><ele>448.11</ele><time>2010-04-10T08:27:44Z</time></trkpt>
<trkpt lat="39.723902" lon="2.748165"><ele>448.11</ele><time>2010-04-10T08:27:54Z</time></trkpt>
<trkpt lat="39.723870" lon="2.748163"><ele>449.07</ele><time>2010-04-10T08:28:03Z</time></trkpt>
<trkpt lat="39.723848" lon="2.748178"><ele>449.07</ele><time>2010-04-10T08:28:10Z</time></trkpt>
<trkpt lat="39.723847" lon="2.748208"><ele>450.03</ele><time>2010-04-10T08:28:18Z</time></trkpt>
<trkpt lat="39.723896" lon="2.748215"><ele>450.52</ele><time>2010-04-10T08:28:24Z</time></trkpt>
<trkpt lat="39.723935" lon="2.748199"><ele>451.48</ele><time>2010-04-10T08:28:32Z</time></trkpt>
<trkpt lat="39.724000" lon="2.748190"><ele>452.92</ele><time>2010-04-10T08:28:42Z</time></trkpt>
<trkpt lat="39.724013" lon="2.748198"><ele>453.40</ele><time>2010-04-10T08:28:52Z</time></trkpt>
<trkpt lat="39.724016" lon="2.748199"><ele>453.40</ele><time>2010-04-10T08:28:54Z</time></trkpt>
<trkpt lat="39.724046" lon="2.748146"><ele>454.36</ele><time>2010-04-10T08:29:01Z</time></trkpt>
<trkpt lat="39.724089" lon="2.748154"><ele>454.84</ele><time>2010-04-10T08:29:07Z</time></trkpt>
<trkpt lat="39.724120" lon="2.748171"><ele>454.84</ele><time>2010-04-10T08:29:16Z</time></trkpt>
<trkpt lat="39.724166" lon="2.748158"><ele>455.80</ele><time>2010-04-10T08:29:25Z</time></trkpt>
<trkpt lat="39.724228" lon="2.748124"><ele>457.24</ele><time>2010-04-10T08:29:34Z</time></trkpt>
<trkpt lat="39.724296" lon="2.748119"><ele>458.21</ele><time>2010-04-10T08:29:43Z</time></trkpt>
<trkpt lat="39.724286" lon="2.748161"><ele>458.69</ele><time>2010-04-10T08:29:49Z</time></trkpt>
<trkpt lat="39.724249" lon="2.748203"><ele>459.65</ele><time>2010-04-10T08:29:57Z</time></trkpt>
<trkpt lat="39.724207" lon="2.748221"><ele>460.13</ele><time>2010-04-10T08:30:03Z</time></trkpt>
<trkpt lat="39.724201" lon="2.748257"><ele>461.09</ele><time>2010-04-10T08:30:10Z</time></trkpt>
<trkpt lat="39.724143" lon="2.748304"><ele>462.05</ele><time>2010-04-10T08:30:21Z</time></trkpt>
<trkpt lat="39.724082" lon="2.748356"><ele>463.01</ele><time>2010-04-10T08:30:30Z</time></trkpt>
<trkpt lat="39.724036" lon="2.748418"><ele>463.01</ele><time>2010-04-10T08:30:43Z</time></trkpt>
<trkpt lat="39.724028" lon="2.748426"><ele>463.49</ele><time>2010-04-10T08:30:44Z</time></trkpt>
<trkpt lat="39.723970" lon="2.748453"><ele>463.49</ele><time>2010-04-10T08:30:50Z</time></trkpt>
<trkpt lat="39.723961" lon="2.748451"><ele>463.97</ele><time>2010-04-10T08:30:52Z</time></trkpt>
<trkpt lat="39.723919" lon="2.748453"><ele>464.45</ele><time>2010-04-10T08:30:55Z</time></trkpt>
<trkpt lat="39.723801" lon="2.748488"><ele>465.42</ele><time>2010-04-10T08:31:04Z</time></trkpt>
<trkpt lat="39.723620" lon="2.748539"><ele>467.82</ele><time>2010-04-10T08:31:16Z</time></trkpt>
<trkpt lat="39.723566" lon="2.748529"><ele>468.30</ele><time>2010-04-10T08:31:20Z</time></trkpt>
<trkpt lat="39.723517" lon="2.748502"><ele>468.78</ele><time>2010-04-10T08:31:24Z</time></trkpt>
<trkpt lat="39.723493" lon="2.748530"><ele>469.26</ele><time>2010-04-10T08:31:27Z</time></trkpt>
<trkpt lat="39.723492" lon="2.748708"><ele>468.30</ele><time>2010-04-10T08:31:36Z</time></trkpt>
<trkpt lat="39.723590" lon="2.748828"><ele>467.34</ele><time>2010-04-10T08:31:43Z</time></trkpt>
<trkpt lat="39.723700" lon="2.748994"><ele>466.86</ele><time>2010-04-10T08:31:49Z</time></trkpt>
<trkpt lat="39.723741" lon="2.749196"><ele>464.93</ele><time>2010-04-10T08:31:55Z</time></trkpt>
<trkpt lat="39.723681" lon="2.749378"><ele>463.49</ele><time>2010-04-10T08:32:01Z</time></trkpt>
<trkpt lat="39.723644" lon="2.749536"><ele>462.05</ele><time>2010-04-10T08:32:06Z</time></trkpt>
<trkpt lat="39.723589" lon="2.749530"><ele>461.09</ele><time>2010-04-10T08:32:13Z</time></trkpt>
<trkpt lat="39.723594" lon="2.749527"><ele>460.61</ele><time>2010-04-10T08:32:34Z</time></trkpt>
<trkpt lat="39.723565" lon="2.749545"><ele>460.13</ele><time>2010-04-10T08:32:43Z</time></trkpt>
<trkpt lat="39.723571" lon="2.749350"><ele>460.13</ele><time>2010-04-10T08:33:28Z</time></trkpt>
<trkpt lat="39.723502" lon="2.749363"><ele>460.13</ele><time>2010-04-10T08:35:25Z</time></trkpt>
<trkpt lat="39.723493" lon="2.749385"><ele>459.65</ele><time>2010-04-10T08:35:33Z</time></trkpt>
<trkpt lat="39.723432" lon="2.749370"><ele>459.65</ele><time>2010-04-10T08:35:37Z</time></trkpt>
<trkpt lat="39.723293" lon="2.749319"><ele>459.65</ele><time>2010-04-10T08:35:46Z</time></trkpt>
<trkpt lat="39.723225" lon="2.749318"><ele>460.61</ele><time>2010-04-10T08:35:50Z</time></trkpt>
<trkpt lat="39.723045" lon="2.749282"><ele>460.61</ele><time>2010-04-10T08:35:58Z</time></trkpt>
<trkpt lat="39.722913" lon="2.749332"><ele>460.13</ele><time>2010-04-10T08:36:02Z</time></trkpt>
<trkpt lat="39.722771" lon="2.749454"><ele>459.17</ele><time>2010-04-10T08:36:07Z</time></trkpt>
<trkpt lat="39.722686" lon="2.749464"><ele>458.69</ele><time>2010-04-10T08:36:09Z</time></trkpt>
<trkpt lat="39.722603" lon="2.749455"><ele>458.69</ele><time>2010-04-10T08:36:11Z</time></trkpt>
<trkpt lat="39.722481" lon="2.749505"><ele>458.69</ele><time>2010-04-10T08:36:14Z</time></trkpt>
<trkpt lat="39.722261" lon="2.749484"><ele>458.21</ele><time>2010-04-10T08:36:20Z</time></trkpt>
<trkpt lat="39.722056" lon="2.749359"><ele>455.32</ele><time>2010-04-10T08:36:25Z</time></trkpt>
<trkpt lat="39.721899" lon="2.749279"><ele>452.44</ele><time>2010-04-10T08:36:30Z</time></trkpt>
<trkpt lat="39.721781" lon="2.749178"><ele>450.03</ele><time>2010-04-10T08:36:34Z</time></trkpt>
<trkpt lat="39.721672" lon="2.749142"><ele>447.15</ele><time>2010-04-10T08:36:37Z</time></trkpt>
<trkpt lat="39.721511" lon="2.749131"><ele>444.75</ele><time>2010-04-10T08:36:40Z</time></trkpt>
<trkpt lat="39.721336" lon="2.749090"><ele>442.34</ele><time>2010-04-10T08:36:43Z</time></trkpt>
<trkpt lat="39.721203" lon="2.749197"><ele>439.94</ele><time>2010-04-10T08:36:47Z</time></trkpt>
<trkpt lat="39.721077" lon="2.749232"><ele>438.98</ele><time>2010-04-10T08:36:49Z</time></trkpt>
<trkpt lat="39.720825" lon="2.749143"><ele>436.58</ele><time>2010-04-10T08:36:54Z</time></trkpt>
<trkpt lat="39.720685" lon="2.749140"><ele>436.58</ele><time>2010-04-10T08:36:57Z</time></trkpt>
<trkpt lat="39.720559" lon="2.749242"><ele>437.06</ele><time>2010-04-10T08:37:00Z</time></trkpt>
<trkpt lat="39.720288" lon="2.749258"><ele>435.61</ele><time>2010-04-10T08:37:05Z</time></trkpt>
<trkpt lat="39.720239" lon="2.749232"><ele>435.13</ele><time>2010-04-10T08:37:06Z</time></trkpt>
<trkpt lat="39.720097" lon="2.749210"><ele>433.21</ele><time>2010-04-10T08:37:09Z</time></trkpt>
<trkpt lat="39.719918" lon="2.749143"><ele>431.29</ele><time>2010-04-10T08:37:14Z</time></trkpt>
<trkpt lat="39.719916" lon="2.749083"><ele>430.33</ele><time>2010-04-10T08:37:18Z</time></trkpt>
<trkpt lat="39.719939" lon="2.749071"><ele>429.85</ele><time>2010-04-10T08:37:20Z</time></trkpt>
<trkpt lat="39.720042" lon="2.748977"><ele>428.40</ele><time>2010-04-10T08:37:25Z</time></trkpt>
<trkpt lat="39.720005" lon="2.748940"><ele>426.96</ele><time>2010-04-10T08:37:29Z</time></trkpt>
<trkpt lat="39.719951" lon="2.748934"><ele>426.96</ele><time>2010-04-10T08:37:31Z</time></trkpt>
<trkpt lat="39.719884" lon="2.748942"><ele>426.00</ele><time>2010-04-10T08:37:34Z</time></trkpt>
<trkpt lat="39.719835" lon="2.748786"><ele>424.56</ele><time>2010-04-10T08:37:39Z</time></trkpt>
<trkpt lat="39.719919" lon="2.748798"><ele>424.08</ele><time>2010-04-10T08:37:43Z</time></trkpt>
<trkpt lat="39.720069" lon="2.748773"><ele>423.12</ele><time>2010-04-10T08:37:47Z</time></trkpt>
<trkpt lat="39.720233" lon="2.748677"><ele>422.16</ele><time>2010-04-10T08:37:53Z</time></trkpt>
<trkpt lat="39.720248" lon="2.748668"><ele>421.68</ele><time>2010-04-10T08:37:54Z</time></trkpt>
<trkpt lat="39.720226" lon="2.748620"><ele>420.71</ele><time>2010-04-10T08:37:58Z</time></trkpt>
<trkpt lat="39.720104" lon="2.748615"><ele>418.79</ele><time>2010-04-10T08:38:02Z</time></trkpt>
<trkpt lat="39.719968" lon="2.748565"><ele>417.35</ele><time>2010-04-10T08:38:05Z</time></trkpt>
<trkpt lat="39.719889" lon="2.748540"><ele>416.39</ele><time>2010-04-10T08:38:07Z</time></trkpt>
<trkpt lat="39.719690" lon="2.748567"><ele>413.50</ele><time>2010-04-10T08:38:12Z</time></trkpt>
<trkpt lat="39.719659" lon="2.748565"><ele>413.02</ele><time>2010-04-10T08:38:13Z</time></trkpt>
<trkpt lat="39.719440" lon="2.748701"><ele>408.70</ele><time>2010-04-10T08:38:19Z</time></trkpt>
<trkpt lat="39.719362" lon="2.748747"><ele>407.26</ele><time>2010-04-10T08:38:21Z</time></trkpt>
<trkpt lat="39.719213" lon="2.748832"><ele>404.85</ele><time>2010-04-10T08:38:25Z</time></trkpt>
<trkpt lat="39.719138" lon="2.748862"><ele>402.93</ele><time>2010-04-10T08:38:29Z</time></trkpt>
<trkpt lat="39.719166" lon="2.748768"><ele>401.01</ele><time>2010-04-10T08:38:35Z</time></trkpt>
<trkpt lat="39.719081" lon="2.748732"><ele>399.57</ele><time>2010-04-10T08:38:40Z</time></trkpt>
<trkpt lat="39.718993" lon="2.748700"><ele>398.60</ele><time>2010-04-10T08:38:42Z</time></trkpt>
<trkpt lat="39.718892" lon="2.748751"><ele>398.60</ele><time>2010-04-10T08:38:44Z</time></trkpt>
<trkpt lat="39.718796" lon="2.748794"><ele>397.64</ele><time>2010-04-10T08:38:46Z</time></trkpt>
<trkpt lat="39.718609" lon="2.748706"><ele>395.24</ele><time>2010-04-10T08:38:50Z</time></trkpt>
<trkpt lat="39.718440" lon="2.748555"><ele>393.80</ele><time>2010-04-10T08:38:53Z</time></trkpt>
<trkpt lat="39.718228" lon="2.748508"><ele>390.43</ele><time>2010-04-10T08:38:58Z</time></trkpt>
<trkpt lat="39.718157" lon="2.748526"><ele>389.47</ele><time>2010-04-10T08:39:00Z</time></trkpt>
<trkpt lat="39.717916" lon="2.748705"><ele>386.59</ele><time>2010-04-10T08:39:05Z</time></trkpt>
<trkpt lat="39.717719" lon="2.749005"><ele>383.70</ele><time>2010-04-10T08:39:10Z</time></trkpt>
<trkpt lat="39.717672" lon="2.749213"><ele>380.34</ele><time>2010-04-10T08:39:14Z</time></trkpt>
<trkpt lat="39.717609" lon="2.749365"><ele>377.94</ele><time>2010-04-10T08:39:18Z</time></trkpt>
<trkpt lat="39.717524" lon="2.749418"><ele>375.53</ele><time>2010-04-10T08:39:22Z</time></trkpt>
<trkpt lat="39.717490" lon="2.749376"><ele>374.09</ele><time>2010-04-10T08:39:27Z</time></trkpt>
<trkpt lat="39.717493" lon="2.749342"><ele>373.61</ele><time>2010-04-10T08:39:28Z</time></trkpt>
<trkpt lat="39.717501" lon="2.749267"><ele>372.65</ele><time>2010-04-10T08:39:30Z</time></trkpt>
<trkpt lat="39.717416" lon="2.749238"><ele>370.73</ele><time>2010-04-10T08:39:36Z</time></trkpt>
<trkpt lat="39.717392" lon="2.749247"><ele>370.73</ele><time>2010-04-10T08:39:37Z</time></trkpt>
<trkpt lat="39.717336" lon="2.749260"><ele>370.73</ele><time>2010-04-10T08:39:39Z</time></trkpt>
<trkpt lat="39.717166" lon="2.749182"><ele>373.13</ele><time>2010-04-10T08:39:45Z</time></trkpt>
<trkpt lat="39.717024" lon="2.749103"><ele>374.57</ele><time>2010-04-10T08:39:52Z</time></trkpt>
<trkpt lat="39.716936" lon="2.749096"><ele>374.09</ele><time>2010-04-10T08:39:56Z</time></trkpt>
<trkpt lat="39.716826" lon="2.749155"><ele>372.17</ele><time>2010-04-10T08:40:02Z</time></trkpt>
<trkpt lat="39.716856" lon="2.749017"><ele>370.24</ele><time>2010-04-10T08:40:07Z</time></trkpt>
<trkpt lat="39.716879" lon="2.748999"><ele>369.76</ele><time>2010-04-10T08:40:08Z</time></trkpt>
<trkpt lat="39.716868" lon="2.748971"><ele>368.80</ele><time>2010-04-10T08:40:13Z</time></trkpt>
<trkpt lat="39.716660" lon="2.749104"><ele>365.44</ele><time>2010-04-10T08:40:20Z</time></trkpt>
<trkpt lat="39.716539" lon="2.749205"><ele>363.04</ele><time>2010-04-10T08:40:23Z</time></trkpt>
<trkpt lat="39.716465" lon="2.749274"><ele>361.59</ele><time>2010-04-10T08:40:25Z</time></trkpt>
<trkpt lat="39.716386" lon="2.749372"><ele>359.67</ele><time>2010-04-10T08:40:29Z</time></trkpt>
<trkpt lat="39.716336" lon="2.749422"><ele>357.27</ele><time>2010-04-10T08:40:33Z</time></trkpt>
<trkpt lat="39.716321" lon="2.749437"><ele>357.27</ele><time>2010-04-10T08:40:34Z</time></trkpt>
<trkpt lat="39.716266" lon="2.749477"><ele>354.86</ele><time>2010-04-10T08:40:39Z</time></trkpt>
<trkpt lat="39.716249" lon="2.749469"><ele>353.90</ele><time>2010-04-10T08:40:49Z</time></trkpt>
<trkpt lat="39.716226" lon="2.749453"><ele>352.94</ele><time>2010-04-10T08:40:56Z</time></trkpt>
<trkpt lat="39.716210" lon="2.749487"><ele>351.98</ele><time>2010-04-10T08:41:04Z</time></trkpt>
<trkpt lat="39.716195" lon="2.749464"><ele>351.50</ele><time>2010-04-10T08:41:06Z</time></trkpt>
<trkpt lat="39.716042" lon="2.749468"><ele>350.06</ele><time>2010-04-10T08:41:13Z</time></trkpt>
<trkpt lat="39.715925" lon="2.749492"><ele>351.50</ele><time>2010-04-10T08:41:19Z</time></trkpt>
<trkpt lat="39.715908" lon="2.749503"><ele>351.98</ele><time>2010-04-10T08:41:20Z</time></trkpt>
<trkpt lat="39.715875" lon="2.749521"><ele>351.98</ele><time>2010-04-10T08:41:22Z</time></trkpt>
<trkpt lat="39.715808" lon="2.749505"><ele>349.58</ele><time>2010-04-10T08:41:26Z</time></trkpt>
<trkpt lat="39.715786" lon="2.749499"><ele>349.58</ele><time>2010-04-10T08:41:27Z</time></trkpt>
<trkpt lat="39.715766" lon="2.749489"><ele>349.10</ele><time>2010-04-10T08:41:28Z</time></trkpt>
<trkpt lat="39.715739" lon="2.749499"><ele>348.13</ele><time>2010-04-10T08:41:35Z</time></trkpt>
<trkpt lat="39.715725" lon="2.749546"><ele>348.13</ele><time>2010-04-10T08:41:41Z</time></trkpt>
<trkpt lat="39.715693" lon="2.749553"><ele>347.17</ele><time>2010-04-10T08:41:47Z</time></trkpt>
<trkpt lat="39.715665" lon="2.749572"><ele>347.17</ele><time>2010-04-10T08:41:53Z</time></trkpt>
<trkpt lat="39.715609" lon="2.749590"><ele>346.69</ele><time>2010-04-10T08:41:57Z</time></trkpt>
<trkpt lat="39.715576" lon="2.749618"><ele>346.21</ele><time>2010-04-10T08:41:59Z</time></trkpt>
<trkpt lat="39.715488" lon="2.749663"><ele>346.21</ele><time>2010-04-10T08:42:04Z</time></trkpt>
<trkpt lat="39.715383" lon="2.749653"><ele>345.73</ele><time>2010-04-10T08:42:09Z</time></trkpt>
<trkpt lat="39.715329" lon="2.749617"><ele>346.69</ele><time>2010-04-10T08:42:13Z</time></trkpt>
<trkpt lat="39.715225" lon="2.749539"><ele>348.13</ele><time>2010-04-10T08:42:21Z</time></trkpt>
<trkpt lat="39.715215" lon="2.749517"><ele>349.10</ele><time>2010-04-10T08:42:24Z</time></trkpt>
<trkpt lat="39.715190" lon="2.749503"><ele>349.10</ele><time>2010-04-10T08:42:27Z</time></trkpt>
<trkpt lat="39.715169" lon="2.749448"><ele>349.10</ele><time>2010-04-10T08:42:33Z</time></trkpt>
<trkpt lat="39.715168" lon="2.749456"><ele>349.10</ele><time>2010-04-10T08:42:36Z</time></trkpt>
<trkpt lat="39.715144" lon="2.749457"><ele>350.06</ele><time>2010-04-10T08:42:42Z</time></trkpt>
<trkpt lat="39.715097" lon="2.749493"><ele>351.02</ele><time>2010-04-10T08:42:50Z</time></trkpt>
<trkpt lat="39.715035" lon="2.749494"><ele>351.50</ele><time>2010-04-10T08:42:58Z</time></trkpt>
<trkpt lat="39.715010" lon="2.749506"><ele>351.02</ele><time>2010-04-10T08:43:04Z</time></trkpt>
<trkpt lat="39.715001" lon="2.749528"><ele>350.54</ele><time>2010-04-10T08:43:11Z</time></trkpt>
<trkpt lat="39.714958" lon="2.749553"><ele>350.06</ele><time>2010-04-10T08:43:17Z</time></trkpt>
<trkpt lat="39.714942" lon="2.749560"><ele>349.58</ele><time>2010-04-10T08:43:21Z</time></trkpt>
<trkpt lat="39.714910" lon="2.749529"><ele>348.62</ele><time>2010-04-10T08:43:26Z</time></trkpt>
<trkpt lat="39.714873" lon="2.749537"><ele>346.21</ele><time>2010-04-10T08:43:33Z</time></trkpt>
<trkpt lat="39.714868" lon="2.749597"><ele>344.77</ele><time>2010-04-10T08:43:41Z</time></trkpt>
<trkpt lat="39.714865" lon="2.749647"><ele>344.29</ele><time>2010-04-10T08:43:45Z</time></trkpt>
<trkpt lat="39.714871" lon="2.749687"><ele>343.33</ele><time>2010-04-10T08:43:48Z</time></trkpt>
<trkpt lat="39.714873" lon="2.749712"><ele>342.37</ele><time>2010-04-10T08:43:51Z</time></trkpt>
<trkpt lat="39.714891" lon="2.749750"><ele>341.41</ele><time>2010-04-10T08:43:59Z</time></trkpt>
<trkpt lat="39.714909" lon="2.749787"><ele>340.44</ele><time>2010-04-10T08:44:09Z</time></trkpt>
<trkpt lat="39.714871" lon="2.749815"><ele>339.00</ele><time>2010-04-10T08:44:17Z</time></trkpt>
<trkpt lat="39.714880" lon="2.749823"><ele>337.56</ele><time>2010-04-10T08:44:26Z</time></trkpt>
<trkpt lat="39.714892" lon="2.749845"><ele>337.08</ele><time>2010-04-10T08:44:33Z</time></trkpt>
<trkpt lat="39.714892" lon="2.749855"><ele>336.60</ele><time>2010-04-10T08:44:36Z</time></trkpt>
<trkpt lat="39.714890" lon="2.749780"><ele>336.60</ele><time>2010-04-10T08:44:43Z</time></trkpt>
<trkpt lat="39.714906" lon="2.749666"><ele>336.60</ele><time>2010-04-10T08:44:51Z</time></trkpt>
<trkpt lat="39.714912" lon="2.749679"><ele>336.12</ele><time>2010-04-10T08:44:58Z</time></trkpt>
<trkpt lat="39.714912" lon="2.749746"><ele>334.68</ele><time>2010-04-10T08:45:04Z</time></trkpt>
<trkpt lat="39.714887" lon="2.749884"><ele>333.71</ele><time>2010-04-10T08:45:11Z</time></trkpt>
<trkpt lat="39.714882" lon="2.749915"><ele>333.23</ele><time>2010-04-10T08:45:13Z</time></trkpt>
<trkpt lat="39.714851" lon="2.749974"><ele>331.79</ele><time>2010-04-10T08:45:19Z</time></trkpt>
<trkpt lat="39.714789" lon="2.750090"><ele>330.35</ele><time>2010-04-10T08:45:29Z</time></trkpt>
<trkpt lat="39.714765" lon="2.750122"><ele>329.39</ele><time>2010-04-10T08:45:35Z</time></trkpt>
<trkpt lat="39.714714" lon="2.750229"><ele>327.47</ele><time>2010-04-10T08:45:43Z</time></trkpt>
<trkpt lat="39.714635" lon="2.750281"><ele>326.50</ele><time>2010-04-10T08:45:52Z</time></trkpt>
<trkpt lat="39.714592" lon="2.750258"><ele>326.99</ele><time>2010-04-10T08:45:57Z</time></trkpt>
<trkpt lat="39.714571" lon="2.750239"><ele>327.47</ele><time>2010-04-10T08:46:04Z</time></trkpt>
<trkpt lat="39.714583" lon="2.750213"><ele>327.95</ele><time>2010-04-10T08:46:08Z</time></trkpt>
<trkpt lat="39.714585" lon="2.750127"><ele>328.43</ele><time>2010-04-10T08:46:13Z</time></trkpt>
<trkpt lat="39.714541" lon="2.750053"><ele>328.43</ele><time>2010-04-10T08:46:17Z</time></trkpt>
<trkpt lat="39.714463" lon="2.750062"><ele>327.47</ele><time>2010-04-10T08:46:22Z</time></trkpt>
<trkpt lat="39.714450" lon="2.750063"><ele>326.99</ele><time>2010-04-10T08:46:23Z</time></trkpt>
<trkpt lat="39.714355" lon="2.750109"><ele>324.58</ele><time>2010-04-10T08:46:28Z</time></trkpt>
<trkpt lat="39.714349" lon="2.750120"><ele>324.58</ele><time>2010-04-10T08:46:29Z</time></trkpt>
<trkpt lat="39.714290" lon="2.750168"><ele>322.66</ele><time>2010-04-10T08:46:33Z</time></trkpt>
<trkpt lat="39.714234" lon="2.750207"><ele>320.74</ele><time>2010-04-10T08:46:37Z</time></trkpt>
<trkpt lat="39.714196" lon="2.750248"><ele>320.26</ele><time>2010-04-10T08:46:39Z</time></trkpt>
<trkpt lat="39.714085" lon="2.750290"><ele>319.30</ele><time>2010-04-10T08:46:45Z</time></trkpt>
<trkpt lat="39.714074" lon="2.750292"><ele>319.30</ele><time>2010-04-10T08:46:47Z</time></trkpt>
<trkpt lat="39.713982" lon="2.750375"><ele>319.30</ele><time>2010-04-10T08:46:53Z</time></trkpt>
<trkpt lat="39.713908" lon="2.750476"><ele>320.74</ele><time>2010-04-10T08:46:59Z</time></trkpt>
<trkpt lat="39.713882" lon="2.750501"><ele>321.22</ele><time>2010-04-10T08:47:01Z</time></trkpt>
<trkpt lat="39.713862" lon="2.750516"><ele>321.70</ele><time>2010-04-10T08:47:03Z</time></trkpt>
<trkpt lat="39.713788" lon="2.750552"><ele>321.22</ele><time>2010-04-10T08:47:07Z</time></trkpt>
<trkpt lat="39.713733" lon="2.750583"><ele>320.74</ele><time>2010-04-10T08:47:09Z</time></trkpt>
<trkpt lat="39.713590" lon="2.750651"><ele>321.70</ele><time>2010-04-10T08:47:14Z</time></trkpt>
<trkpt lat="39.713532" lon="2.750656"><ele>322.18</ele><time>2010-04-10T08:47:17Z</time></trkpt>
<trkpt lat="39.713445" lon="2.750647"><ele>324.10</ele><time>2010-04-10T08:47:21Z</time></trkpt>
<trkpt lat="39.713371" lon="2.750602"><ele>325.06</ele><time>2010-04-10T08:47:25Z</time></trkpt>
<trkpt lat="39.713323" lon="2.750569"><ele>325.54</ele><time>2010-04-10T08:47:29Z</time></trkpt>
<trkpt lat="39.713345" lon="2.750590"><ele>326.50</ele><time>2010-04-10T08:47:36Z</time></trkpt>
<trkpt lat="39.713349" lon="2.750631"><ele>326.99</ele><time>2010-04-10T08:47:46Z</time></trkpt>
<trkpt lat="39.713350" lon="2.750618"><ele>326.50</ele><time>2010-04-10T08:48:01Z</time></trkpt>
<trkpt lat="39.713347" lon="2.750626"><ele>326.50</ele><time>2010-04-10T08:48:09Z</time></trkpt>
<trkpt lat="39.713325" lon="2.750607"><ele>326.02</ele><time>2010-04-10T08:48:18Z</time></trkpt>
<trkpt lat="39.713336" lon="2.750615"><ele>326.02</ele><time>2010-04-10T08:48:27Z</time></trkpt>
<trkpt lat="39.713333" lon="2.750618"><ele>325.54</ele><time>2010-04-10T08:48:36Z</time></trkpt>
<trkpt lat="39.713338" lon="2.750614"><ele>325.54</ele><time>2010-04-10T08:48:46Z</time></trkpt>
<trkpt lat="39.713333" lon="2.750621"><ele>325.54</ele><time>2010-04-10T08:48:49Z</time></trkpt>
<trkpt lat="39.713275" lon="2.750649"><ele>324.10</ele><time>2010-04-10T08:48:53Z</time></trkpt>
<trkpt lat="39.713208" lon="2.750770"><ele>322.18</ele><time>2010-04-10T08:48:59Z</time></trkpt>
<trkpt lat="39.713157" lon="2.750861"><ele>319.78</ele><time>2010-04-10T08:49:04Z</time></trkpt>
<trkpt lat="39.713136" lon="2.750896"><ele>317.85</ele><time>2010-04-10T08:49:10Z</time></trkpt>
<trkpt lat="39.713109" lon="2.750985"><ele>317.37</ele><time>2010-04-10T08:49:16Z</time></trkpt>
<trkpt lat="39.713063" lon="2.751012"><ele>315.45</ele><time>2010-04-10T08:49:22Z</time></trkpt>
<trkpt lat="39.713027" lon="2.751033"><ele>314.49</ele><time>2010-04-10T08:49:30Z</time></trkpt>
<trkpt lat="39.713006" lon="2.751046"><ele>314.01</ele><time>2010-04-10T08:49:32Z</time></trkpt>
<trkpt lat="39.712926" lon="2.751090"><ele>312.09</ele><time>2010-04-10T08:49:37Z</time></trkpt>
<trkpt lat="39.712887" lon="2.751095"><ele>311.12</ele><time>2010-04-10T08:49:39Z</time></trkpt>
<trkpt lat="39.712847" lon="2.751102"><ele>310.16</ele><time>2010-04-10T08:49:41Z</time></trkpt>
<trkpt lat="39.712782" lon="2.751077"><ele>308.24</ele><time>2010-04-10T08:49:45Z</time></trkpt>
<trkpt lat="39.712695" lon="2.751143"><ele>304.88</ele><time>2010-04-10T08:49:51Z</time></trkpt>
<trkpt lat="39.712612" lon="2.751266"><ele>301.51</ele><time>2010-04-10T08:49:57Z</time></trkpt>
<trkpt lat="39.712604" lon="2.751295"><ele>300.55</ele><time>2010-04-10T08:49:58Z</time></trkpt>
<trkpt lat="39.712621" lon="2.751382"><ele>299.11</ele><time>2010-04-10T08:50:02Z</time></trkpt>
<trkpt lat="39.712597" lon="2.751480"><ele>297.18</ele><time>2010-04-10T08:50:06Z</time></trkpt>
<trkpt lat="39.712496" lon="2.751555"><ele>295.74</ele><time>2010-04-10T08:50:10Z</time></trkpt>
<trkpt lat="39.712427" lon="2.751600"><ele>294.78</ele><time>2010-04-10T08:50:17Z</time></trkpt>
<trkpt lat="39.712346" lon="2.751794"><ele>294.78</ele><time>2010-04-10T08:50:28Z</time></trkpt>
<trkpt lat="39.712355" lon="2.751795"><ele>294.78</ele><time>2010-04-10T08:50:34Z</time></trkpt>
<trkpt lat="39.712358" lon="2.751796"><ele>294.78</ele><time>2010-04-10T08:50:42Z</time></trkpt>
<trkpt lat="39.712367" lon="2.751811"><ele>294.78</ele><time>2010-04-10T08:50:48Z</time></trkpt>
<trkpt lat="39.712366" lon="2.751809"><ele>294.78</ele><time>2010-04-10T08:50:59Z</time></trkpt>
<trkpt lat="39.712370" lon="2.751802"><ele>294.78</ele><time>2010-04-10T08:51:18Z</time></trkpt>
<trkpt lat="39.712355" lon="2.751758"><ele>294.78</ele><time>2010-04-10T08:52:18Z</time></trkpt>
<trkpt lat="39.712283" lon="2.751681"><ele>293.82</ele><time>2010-04-10T08:52:37Z</time></trkpt>
<trkpt lat="39.712265" lon="2.751660"><ele>293.34</ele><time>2010-04-10T08:52:38Z</time></trkpt>
<trkpt lat="39.712130" lon="2.751597"><ele>291.42</ele><time>2010-04-10T08:52:44Z</time></trkpt>
<trkpt lat="39.711921" lon="2.751543"><ele>289.49</ele><time>2010-04-10T08:52:51Z</time></trkpt>
<trkpt lat="39.711796" lon="2.751451"><ele>287.09</ele><time>2010-04-10T08:52:56Z</time></trkpt>
<trkpt lat="39.711774" lon="2.751422"><ele>286.61</ele><time>2010-04-10T08:52:57Z</time></trkpt>
<trkpt lat="39.711688" lon="2.751194"><ele>284.69</ele><time>2010-04-10T08:53:03Z</time></trkpt>
<trkpt lat="39.711631" lon="2.751133"><ele>282.77</ele><time>2010-04-10T08:53:06Z</time></trkpt>
<trkpt lat="39.711538" lon="2.751114"><ele>280.84</ele><time>2010-04-10T08:53:10Z</time></trkpt>
<trkpt lat="39.711505" lon="2.751096"><ele>279.88</ele><time>2010-04-10T08:53:12Z</time></trkpt>
<trkpt lat="39.711522" lon="2.751071"><ele>279.40</ele><time>2010-04-10T08:53:14Z</time></trkpt>
<trkpt lat="39.711622" lon="2.751036"><ele>277.48</ele><time>2010-04-10T08:53:19Z</time></trkpt>
<trkpt lat="39.711678" lon="2.751018"><ele>276.52</ele><time>2010-04-10T08:53:22Z</time></trkpt>
<trkpt lat="39.711782" lon="2.751096"><ele>274.59</ele><time>2010-04-10T08:53:26Z</time></trkpt>
<trkpt lat="39.711881" lon="2.751186"><ele>273.15</ele><time>2010-04-10T08:53:30Z</time></trkpt>
<trkpt lat="39.711978" lon="2.751188"><ele>271.23</ele><time>2010-04-10T08:53:35Z</time></trkpt>
<trkpt lat="39.712073" lon="2.751145"><ele>268.83</ele><time>2010-04-10T08:53:40Z</time></trkpt>
<trkpt lat="39.712172" lon="2.751136"><ele>267.38</ele><time>2010-04-10T08:53:43Z</time></trkpt>
<trkpt lat="39.712193" lon="2.751140"><ele>267.38</ele><time>2010-04-10T08:53:48Z</time></trkpt>
<trkpt lat="39.712197" lon="2.751128"><ele>267.38</ele><time>2010-04-10T08:53:50Z</time></trkpt>
<trkpt lat="39.712199" lon="2.751055"><ele>266.90</ele><time>2010-04-10T08:53:56Z</time></trkpt>
<trkpt lat="39.712196" lon="2.751004"><ele>265.94</ele><time>2010-04-10T08:54:04Z</time></trkpt>
<trkpt lat="39.712207" lon="2.750998"><ele>265.94</ele><time>2010-04-10T08:54:21Z</time></trkpt>
<trkpt lat="39.712206" lon="2.750948"><ele>264.98</ele><time>2010-04-10T08:54:49Z</time></trkpt>
<trkpt lat="39.712208" lon="2.750869"><ele>263.54</ele><time>2010-04-10T08:54:55Z</time></trkpt>
<trkpt lat="39.712223" lon="2.750778"><ele>262.10</ele><time>2010-04-10T08:55:03Z</time></trkpt>
<trkpt lat="39.712240" lon="2.750699"><ele>261.14</ele><time>2010-04-10T08:55:09Z</time></trkpt>
<trkpt lat="39.712240" lon="2.750676"><ele>260.65</ele><time>2010-04-10T08:55:11Z</time></trkpt>
<trkpt lat="39.712247" lon="2.750667"><ele>260.17</ele><time>2010-04-10T08:55:13Z</time></trkpt>
<trkpt lat="39.712259" lon="2.750614"><ele>259.69</ele><time>2010-04-10T08:55:17Z</time></trkpt>
<trkpt lat="39.712267" lon="2.750572"><ele>259.21</ele><time>2010-04-10T08:55:19Z</time></trkpt>
<trkpt lat="39.712316" lon="2.750490"><ele>258.25</ele><time>2010-04-10T08:55:27Z</time></trkpt>
<trkpt lat="39.712363" lon="2.750417"><ele>257.29</ele><time>2010-04-10T08:55:34Z</time></trkpt>
<trkpt lat="39.712381" lon="2.750400"><ele>257.29</ele><time>2010-04-10T08:55:35Z</time></trkpt>
<trkpt lat="39.712473" lon="2.750320"><ele>255.37</ele><time>2010-04-10T08:55:41Z</time></trkpt>
<trkpt lat="39.712486" lon="2.750288"><ele>255.37</ele><time>2010-04-10T08:55:42Z</time></trkpt>
<trkpt lat="39.712378" lon="2.750277"><ele>253.93</ele><time>2010-04-10T08:55:47Z</time></trkpt>
<trkpt lat="39.712347" lon="2.750263"><ele>253.44</ele><time>2010-04-10T08:55:48Z</time></trkpt>
<trkpt lat="39.712306" lon="2.750249"><ele>252.48</ele><time>2010-04-10T08:55:50Z</time></trkpt>
<trkpt lat="39.712212" lon="2.750258"><ele>251.04</ele><time>2010-04-10T08:55:54Z</time></trkpt>
<trkpt lat="39.711889" lon="2.750290"><ele>247.68</ele><time>2010-04-10T08:56:03Z</time></trkpt>
<trkpt lat="39.711758" lon="2.750269"><ele>246.72</ele><time>2010-04-10T08:56:06Z</time></trkpt>
<trkpt lat="39.711602" lon="2.750290"><ele>246.23</ele><time>2010-04-10T08:56:09Z</time></trkpt>
<trkpt lat="39.711459" lon="2.750325"><ele>245.27</ele><time>2010-04-10T08:56:12Z</time></trkpt>
<trkpt lat="39.711148" lon="2.750299"><ele>245.27</ele><time>2010-04-10T08:56:19Z</time></trkpt>
<trkpt lat="39.710971" lon="2.750205"><ele>244.79</ele><time>2010-04-10T08:56:23Z</time></trkpt>
<trkpt lat="39.710597" lon="2.750100"><ele>243.83</ele><time>2010-04-10T08:56:33Z</time></trkpt>
<trkpt lat="39.710413" lon="2.750067"><ele>243.35</ele><time>2010-04-10T08:56:39Z</time></trkpt>
<trkpt lat="39.710265" lon="2.750053"><ele>242.39</ele><time>2010-04-10T08:56:45Z</time></trkpt>
<trkpt lat="39.710269" lon="2.750063"><ele>242.39</ele><time>2010-04-10T08:56:56Z</time></trkpt>
<trkpt lat="39.710251" lon="2.750057"><ele>242.39</ele><time>2010-04-10T08:57:09Z</time></trkpt>
<trkpt lat="39.710234" lon="2.750054"><ele>242.39</ele><time>2010-04-10T08:57:25Z</time></trkpt>
<trkpt lat="39.710220" lon="2.750077"><ele>241.91</ele><time>2010-04-10T08:57:35Z</time></trkpt>
<trkpt lat="39.710208" lon="2.750089"><ele>244.31</ele><time>2010-04-10T08:59:08Z</time></trkpt>
<trkpt lat="39.710210" lon="2.750098"><ele>244.79</ele><time>2010-04-10T08:59:35Z</time></trkpt>
<trkpt lat="39.710212" lon="2.750085"><ele>244.79</ele><time>2010-04-10T08:59:54Z</time></trkpt>
<trkpt lat="39.710181" lon="2.750086"><ele>244.79</ele><time>2010-04-10T09:00:03Z</time></trkpt>
<trkpt lat="39.710188" lon="2.750078"><ele>244.79</ele><time>2010-04-10T09:00:15Z</time></trkpt>
<trkpt lat="39.710194" lon="2.750075"><ele>244.79</ele><time>2010-04-10T09:00:25Z</time></trkpt>
<trkpt lat="39.710161" lon="2.750067"><ele>245.27</ele><time>2010-04-10T09:00:39Z</time></trkpt>
<trkpt lat="39.710042" lon="2.749988"><ele>245.27</ele><time>2010-04-10T09:00:46Z</time></trkpt>
<trkpt lat="39.709877" lon="2.749835"><ele>244.79</ele><time>2010-04-10T09:00:52Z</time></trkpt>
<trkpt lat="39.709645" lon="2.749677"><ele>243.83</ele><time>2010-04-10T09:00:58Z</time></trkpt>
<trkpt lat="39.709560" lon="2.749647"><ele>243.83</ele><time>2010-04-10T09:01:00Z</time></trkpt>
<trkpt lat="39.709323" lon="2.749777"><ele>244.31</ele><time>2010-04-10T09:01:07Z</time></trkpt>
<trkpt lat="39.709291" lon="2.749812"><ele>243.83</ele><time>2010-04-10T09:01:08Z</time></trkpt>
<trkpt lat="39.708980" lon="2.750253"><ele>242.87</ele><time>2010-04-10T09:01:17Z</time></trkpt>
<trkpt lat="39.708807" lon="2.750438"><ele>242.39</ele><time>2010-04-10T09:01:21Z</time></trkpt>
<trkpt lat="39.708717" lon="2.750511"><ele>241.43</ele><time>2010-04-10T09:01:23Z</time></trkpt>
<trkpt lat="39.708613" lon="2.750590"><ele>240.95</ele><time>2010-04-10T09:01:25Z</time></trkpt>
<trkpt lat="39.708442" lon="2.750689"><ele>239.99</ele><time>2010-04-10T09:01:28Z</time></trkpt>
<trkpt lat="39.708226" lon="2.750733"><ele>239.02</ele><time>2010-04-10T09:01:33Z</time></trkpt>
<trkpt lat="39.708211" lon="2.750747"><ele>238.54</ele><time>2010-04-10T09:01:38Z</time></trkpt>
<trkpt lat="39.708219" lon="2.750752"><ele>239.02</ele><time>2010-04-10T09:01:43Z</time></trkpt>
<trkpt lat="39.708174" lon="2.750723"><ele>239.02</ele><time>2010-04-10T09:01:48Z</time></trkpt>
<trkpt lat="39.708036" lon="2.750558"><ele>239.02</ele><time>2010-04-10T09:01:57Z</time></trkpt>
<trkpt lat="39.708022" lon="2.750539"><ele>239.02</ele><time>2010-04-10T09:01:58Z</time></trkpt>
<trkpt lat="39.707996" lon="2.750487"><ele>239.02</ele><time>2010-04-10T09:02:00Z</time></trkpt>
<trkpt lat="39.707936" lon="2.750403"><ele>239.02</ele><time>2010-04-10T09:02:04Z</time></trkpt>
<trkpt lat="39.707898" lon="2.750337"><ele>239.02</ele><time>2010-04-10T09:02:07Z</time></trkpt>
<trkpt lat="39.707786" lon="2.750245"><ele>239.51</ele><time>2010-04-10T09:02:13Z</time></trkpt>
<trkpt lat="39.707657" lon="2.750148"><ele>239.99</ele><time>2010-04-10T09:02:21Z</time></trkpt>
<trkpt lat="39.707574" lon="2.750074"><ele>239.99</ele><time>2010-04-10T09:02:26Z</time></trkpt>
<trkpt lat="39.707497" lon="2.750120"><ele>240.95</ele><time>2010-04-10T09:02:31Z</time></trkpt>
<trkpt lat="39.707450" lon="2.750166"><ele>241.91</ele><time>2010-04-10T09:02:35Z</time></trkpt>
<trkpt lat="39.707407" lon="2.750257"><ele>243.35</ele><time>2010-04-10T09:02:40Z</time></trkpt>
<trkpt lat="39.707403" lon="2.750409"><ele>246.23</ele><time>2010-04-10T09:02:47Z</time></trkpt>
<trkpt lat="39.707407" lon="2.750429"><ele>246.72</ele><time>2010-04-10T09:02:51Z</time></trkpt>
<trkpt lat="39.707413" lon="2.750468"><ele>248.16</ele><time>2010-04-10T09:03:04Z</time></trkpt>
<trkpt lat="39.707420" lon="2.750501"><ele>249.12</ele><time>2010-04-10T09:03:09Z</time></trkpt>
<trkpt lat="39.707411" lon="2.750512"><ele>249.12</ele><time>2010-04-10T09:03:16Z</time></trkpt>
<trkpt lat="39.707398" lon="2.750503"><ele>249.12</ele><time>2010-04-10T09:03:48Z</time></trkpt>
<trkpt lat="39.707408" lon="2.750481"><ele>249.12</ele><time>2010-04-10T09:03:54Z</time></trkpt>
<trkpt lat="39.707406" lon="2.750480"><ele>249.12</ele><time>2010-04-10T09:03:56Z</time></trkpt>
<trkpt lat="39.707317" lon="2.750495"><ele>246.72</ele><time>2010-04-10T09:04:03Z</time></trkpt>
<trkpt lat="39.707247" lon="2.750565"><ele>244.79</ele><time>2010-04-10T09:04:07Z</time></trkpt>
<trkpt lat="39.707209" lon="2.750615"><ele>244.31</ele><time>2010-04-10T09:04:09Z</time></trkpt>
<trkpt lat="39.707176" lon="2.750616"><ele>242.87</ele><time>2010-04-10T09:04:11Z</time></trkpt>
<trkpt lat="39.707130" lon="2.750675"><ele>241.43</ele><time>2010-04-10T09:04:14Z</time></trkpt>
<trkpt lat="39.707073" lon="2.750683"><ele>239.51</ele><time>2010-04-10T09:04:17Z</time></trkpt>
<trkpt lat="39.706984" lon="2.750773"><ele>238.06</ele><time>2010-04-10T09:04:22Z</time></trkpt>
<trkpt lat="39.706983" lon="2.750774"><ele>238.06</ele><time>2010-04-10T09:04:38Z</time></trkpt>
<trkpt lat="39.706992" lon="2.750756"><ele>238.06</ele><time>2010-04-10T09:04:44Z</time></trkpt>
<trkpt lat="39.706996" lon="2.750775"><ele>238.06</ele><time>2010-04-10T09:04:47Z</time></trkpt>
<trkpt lat="39.706917" lon="2.750934"><ele>237.58</ele><time>2010-04-10T09:04:57Z</time></trkpt>
<trkpt lat="39.706818" lon="2.751266"><ele>237.10</ele><time>2010-04-10T09:05:08Z</time></trkpt>
<trkpt lat="39.706782" lon="2.751357"><ele>237.10</ele><time>2010-04-10T09:05:11Z</time></trkpt>
<trkpt lat="39.706739" lon="2.751536"><ele>236.62</ele><time>2010-04-10T09:05:16Z</time></trkpt>
<trkpt lat="39.706687" lon="2.751743"><ele>236.62</ele><time>2010-04-10T09:05:21Z</time></trkpt>
<trkpt lat="39.706621" lon="2.752008"><ele>236.14</ele><time>2010-04-10T09:05:28Z</time></trkpt>
<trkpt lat="39.706381" lon="2.752409"><ele>233.74</ele><time>2010-04-10T09:05:35Z</time></trkpt>
<trkpt lat="39.706225" lon="2.752694"><ele>233.74</ele><time>2010-04-10T09:05:41Z</time></trkpt>
<trkpt lat="39.706010" lon="2.752953"><ele>232.78</ele><time>2010-04-10T09:05:48Z</time></trkpt>
<trkpt lat="39.705874" lon="2.753088"><ele>231.81</ele><time>2010-04-10T09:05:52Z</time></trkpt>
<trkpt lat="39.705684" lon="2.753072"><ele>229.89</ele><time>2010-04-10T09:05:56Z</time></trkpt>
<trkpt lat="39.705577" lon="2.753022"><ele>228.93</ele><time>2010-04-10T09:05:58Z</time></trkpt>
<trkpt lat="39.705335" lon="2.753185"><ele>227.97</ele><time>2010-04-10T09:06:03Z</time></trkpt>
<trkpt lat="39.705222" lon="2.753279"><ele>227.49</ele><time>2010-04-10T09:06:05Z</time></trkpt>
<trkpt lat="39.705088" lon="2.753400"><ele>227.01</ele><time>2010-04-10T09:06:08Z</time></trkpt>
<trkpt lat="39.705006" lon="2.753462"><ele>227.01</ele><time>2010-04-10T09:06:10Z</time></trkpt>
<trkpt lat="39.704619" lon="2.753771"><ele>226.05</ele><time>2010-04-10T09:06:20Z</time></trkpt>
<trkpt lat="39.704384" lon="2.753926"><ele>225.09</ele><time>2010-04-10T09:06:28Z</time></trkpt>
<trkpt lat="39.704373" lon="2.753926"><ele>225.09</ele><time>2010-04-10T09:06:33Z</time></trkpt>
<trkpt lat="39.704350" lon="2.753935"><ele>224.61</ele><time>2010-04-10T09:06:41Z</time></trkpt>
<trkpt lat="39.704333" lon="2.754000"><ele>224.61</ele><time>2010-04-10T09:06:51Z</time></trkpt>
<trkpt lat="39.704307" lon="2.754047"><ele>224.12</ele><time>2010-04-10T09:06:55Z</time></trkpt>
<trkpt lat="39.704245" lon="2.754124"><ele>224.12</ele><time>2010-04-10T09:06:59Z</time></trkpt>
<trkpt lat="39.704219" lon="2.754247"><ele>223.64</ele><time>2010-04-10T09:07:03Z</time></trkpt>
<trkpt lat="39.704288" lon="2.754430"><ele>223.64</ele><time>2010-04-10T09:07:11Z</time></trkpt>
<trkpt lat="39.704426" lon="2.754526"><ele>223.16</ele><time>2010-04-10T09:07:18Z</time></trkpt>
<trkpt lat="39.704664" lon="2.754697"><ele>222.68</ele><time>2010-04-10T09:07:28Z</time></trkpt>
<trkpt lat="39.704714" lon="2.754856"><ele>222.20</ele><time>2010-04-10T09:07:33Z</time></trkpt>
<trkpt lat="39.704745" lon="2.754931"><ele>222.20</ele><time>2010-04-10T09:07:36Z</time></trkpt>
<trkpt lat="39.704770" lon="2.755027"><ele>221.24</ele><time>2010-04-10T09:07:39Z</time></trkpt>
<trkpt lat="39.704719" lon="2.755205"><ele>220.76</ele><time>2010-04-10T09:07:47Z</time></trkpt>
<trkpt lat="39.704622" lon="2.755376"><ele>220.28</ele><time>2010-04-10T09:07:59Z</time></trkpt>
<trkpt lat="39.704574" lon="2.755419"><ele>220.28</ele><time>2010-04-10T09:08:08Z</time></trkpt>
<trkpt lat="39.704575" lon="2.755414"><ele>219.80</ele><time>2010-04-10T09:08:27Z</time></trkpt>
<trkpt lat="39.704596" lon="2.755411"><ele>219.80</ele><time>2010-04-10T09:08:38Z</time></trkpt>
<trkpt lat="39.704556" lon="2.755470"><ele>219.80</ele><time>2010-04-10T09:08:42Z</time></trkpt>
<trkpt lat="39.704540" lon="2.755553"><ele>219.32</ele><time>2010-04-10T09:08:50Z</time></trkpt>
<trkpt lat="39.704518" lon="2.755601"><ele>219.32</ele><time>2010-04-10T09:08:57Z</time></trkpt>
<trkpt lat="39.704511" lon="2.755589"><ele>219.32</ele><time>2010-04-10T09:09:04Z</time></trkpt>
<trkpt lat="39.704511" lon="2.755577"><ele>219.80</ele><time>2010-04-10T09:09:11Z</time></trkpt>
<trkpt lat="39.704508" lon="2.755568"><ele>219.32</ele><time>2010-04-10T09:09:18Z</time></trkpt>
<trkpt lat="39.704498" lon="2.755557"><ele>219.32</ele><time>2010-04-10T09:09:35Z</time></trkpt>
<trkpt lat="39.704481" lon="2.755606"><ele>221.24</ele><time>2010-04-10T09:10:29Z</time></trkpt>
<trkpt lat="39.704479" lon="2.755643"><ele>221.24</ele><time>2010-04-10T09:10:37Z</time></trkpt>
<trkpt lat="39.704463" lon="2.755701"><ele>222.20</ele><time>2010-04-10T09:10:48Z</time></trkpt>
<trkpt lat="39.704403" lon="2.755804"><ele>224.61</ele><time>2010-04-10T09:11:00Z</time></trkpt>
<trkpt lat="39.704350" lon="2.755908"><ele>226.05</ele><time>2010-04-10T09:11:14Z</time></trkpt>
<trkpt lat="39.704352" lon="2.755917"><ele>226.05</ele><time>2010-04-10T09:11:17Z</time></trkpt>
<trkpt lat="39.704298" lon="2.756004"><ele>227.01</ele><time>2010-04-10T09:11:29Z</time></trkpt>
<trkpt lat="39.704253" lon="2.756043"><ele>227.49</ele><time>2010-04-10T09:11:35Z</time></trkpt>
<trkpt lat="39.704233" lon="2.756063"><ele>227.97</ele><time>2010-04-10T09:11:37Z</time></trkpt>
<trkpt lat="39.704108" lon="2.756169"><ele>227.97</ele><time>2010-04-10T09:11:45Z</time></trkpt>
<trkpt lat="39.703966" lon="2.756311"><ele>227.97</ele><time>2010-04-10T09:11:53Z</time></trkpt>
<trkpt lat="39.703833" lon="2.756495"><ele>227.97</ele><time>2010-04-10T09:12:01Z</time></trkpt>
<trkpt lat="39.703706" lon="2.756690"><ele>228.45</ele><time>2010-04-10T09:12:09Z</time></trkpt>
<trkpt lat="39.703644" lon="2.756832"><ele>228.93</ele><time>2010-04-10T09:12:14Z</time></trkpt>
<trkpt lat="39.703602" lon="2.757045"><ele>230.37</ele><time>2010-04-10T09:12:21Z</time></trkpt>
<trkpt lat="39.703583" lon="2.757207"><ele>230.85</ele><time>2010-04-10T09:12:27Z</time></trkpt>
<trkpt lat="39.703610" lon="2.757317"><ele>230.85</ele><time>2010-04-10T09:12:32Z</time></trkpt>
<trkpt lat="39.703632" lon="2.757477"><ele>230.85</ele><time>2010-04-10T09:12:38Z</time></trkpt>
<trkpt lat="39.703733" lon="2.757678"><ele>230.85</ele><time>2010-04-10T09:12:44Z</time></trkpt>
<trkpt lat="39.703812" lon="2.757892"><ele>230.37</ele><time>2010-04-10T09:12:50Z</time></trkpt>
<trkpt lat="39.703909" lon="2.758000"><ele>231.33</ele><time>2010-04-10T09:12:55Z</time></trkpt>
<trkpt lat="39.703949" lon="2.758052"><ele>232.30</ele><time>2010-04-10T09:12:58Z</time></trkpt>
<trkpt lat="39.704020" lon="2.758115"><ele>233.74</ele><time>2010-04-10T09:13:03Z</time></trkpt>
<trkpt lat="39.704168" lon="2.758192"><ele>235.18</ele><time>2010-04-10T09:13:11Z</time></trkpt>
<trkpt lat="39.704257" lon="2.758307"><ele>236.14</ele><time>2010-04-10T09:13:18Z</time></trkpt>
<trkpt lat="39.704363" lon="2.758403"><ele>238.06</ele><time>2010-04-10T09:13:27Z</time></trkpt>
<trkpt lat="39.704391" lon="2.758438"><ele>238.06</ele><time>2010-04-10T09:13:29Z</time></trkpt>
<trkpt lat="39.704419" lon="2.758504"><ele>239.02</ele><time>2010-04-10T09:13:33Z</time></trkpt>
<trkpt lat="39.704461" lon="2.758543"><ele>239.51</ele><time>2010-04-10T09:13:36Z</time></trkpt>
<trkpt lat="39.704593" lon="2.758663"><ele>240.95</ele><time>2010-04-10T09:13:47Z</time></trkpt>
<trkpt lat="39.704675" lon="2.758725"><ele>241.91</ele><time>2010-04-10T09:13:54Z</time></trkpt>
<trkpt lat="39.704821" lon="2.758820"><ele>243.83</ele><time>2010-04-10T09:14:04Z</time></trkpt>
<trkpt lat="39.704935" lon="2.758909"><ele>244.31</ele><time>2010-04-10T09:14:13Z</time></trkpt>
<trkpt lat="39.705019" lon="2.758994"><ele>245.75</ele><time>2010-04-10T09:14:20Z</time></trkpt>
<trkpt lat="39.705176" lon="2.759098"><ele>247.68</ele><time>2010-04-10T09:14:32Z</time></trkpt>
<trkpt lat="39.705325" lon="2.759164"><ele>249.60</ele><time>2010-04-10T09:14:43Z</time></trkpt>
<trkpt lat="39.705337" lon="2.759168"><ele>250.08</ele><time>2010-04-10T09:14:44Z</time></trkpt>
<trkpt lat="39.705377" lon="2.759215"><ele>251.04</ele><time>2010-04-10T09:14:48Z</time></trkpt>
<trkpt lat="39.705420" lon="2.759222"><ele>251.04</ele><time>2010-04-10T09:14:55Z</time></trkpt>
<trkpt lat="39.705467" lon="2.759252"><ele>252.96</ele><time>2010-04-10T09:15:07Z</time></trkpt>
<trkpt lat="39.705495" lon="2.759261"><ele>253.44</ele><time>2010-04-10T09:15:09Z</time></trkpt>
<trkpt lat="39.705615" lon="2.759333"><ele>255.37</ele><time>2010-04-10T09:15:19Z</time></trkpt>
<trkpt lat="39.705627" lon="2.759347"><ele>255.37</ele><time>2010-04-10T09:15:21Z</time></trkpt>
<trkpt lat="39.705669" lon="2.759371"><ele>255.85</ele><time>2010-04-10T09:15:25Z</time></trkpt>
<trkpt lat="39.705717" lon="2.759391"><ele>257.29</ele><time>2010-04-10T09:15:32Z</time></trkpt>
<trkpt lat="39.705788" lon="2.759438"><ele>258.25</ele><time>2010-04-10T09:15:40Z</time></trkpt>
<trkpt lat="39.705865" lon="2.759508"><ele>259.21</ele><time>2010-04-10T09:15:48Z</time></trkpt>
<trkpt lat="39.705939" lon="2.759539"><ele>259.69</ele><time>2010-04-10T09:15:56Z</time></trkpt>
<trkpt lat="39.706042" lon="2.759578"><ele>261.14</ele><time>2010-04-10T09:16:05Z</time></trkpt>
<trkpt lat="39.706114" lon="2.759593"><ele>261.62</ele><time>2010-04-10T09:16:11Z</time></trkpt>
<trkpt lat="39.706172" lon="2.759651"><ele>262.10</ele><time>2010-04-10T09:16:17Z</time></trkpt>
<trkpt lat="39.706198" lon="2.759690"><ele>262.58</ele><time>2010-04-10T09:16:28Z</time></trkpt>
<trkpt lat="39.706158" lon="2.759753"><ele>263.06</ele><time>2010-04-10T09:16:35Z</time></trkpt>
<trkpt lat="39.706116" lon="2.759735"><ele>263.54</ele><time>2010-04-10T09:16:43Z</time></trkpt>
<trkpt lat="39.706100" lon="2.759726"><ele>263.54</ele><time>2010-04-10T09:16:45Z</time></trkpt>
<trkpt lat="39.705928" lon="2.759779"><ele>264.98</ele><time>2010-04-10T09:16:59Z</time></trkpt>
<trkpt lat="39.705752" lon="2.759843"><ele>266.42</ele><time>2010-04-10T09:17:12Z</time></trkpt>
<trkpt lat="39.705719" lon="2.759863"><ele>267.38</ele><time>2010-04-10T09:17:15Z</time></trkpt>
<trkpt lat="39.705673" lon="2.759895"><ele>267.86</ele><time>2010-04-10T09:17:19Z</time></trkpt>
<trkpt lat="39.705589" lon="2.759915"><ele>269.31</ele><time>2010-04-10T09:17:27Z</time></trkpt>
<trkpt lat="39.705577" lon="2.759930"><ele>269.31</ele><time>2010-04-10T09:17:29Z</time></trkpt>
<trkpt lat="39.705491" lon="2.759949"><ele>270.27</ele><time>2010-04-10T09:17:34Z</time></trkpt>
<trkpt lat="39.705432" lon="2.759971"><ele>271.23</ele><time>2010-04-10T09:17:40Z</time></trkpt>
<trkpt lat="39.705348" lon="2.760012"><ele>272.67</ele><time>2010-04-10T09:17:47Z</time></trkpt>
<trkpt lat="39.705286" lon="2.760042"><ele>274.11</ele><time>2010-04-10T09:17:53Z</time></trkpt>
<trkpt lat="39.705251" lon="2.760058"><ele>275.56</ele><time>2010-04-10T09:17:56Z</time></trkpt>
<trkpt lat="39.705177" lon="2.760096"><ele>277.00</ele><time>2010-04-10T09:18:02Z</time></trkpt>
<trkpt lat="39.705151" lon="2.760094"><ele>277.96</ele><time>2010-04-10T09:18:05Z</time></trkpt>
<trkpt lat="39.705091" lon="2.760110"><ele>280.36</ele><time>2010-04-10T09:18:12Z</time></trkpt>
<trkpt lat="39.705011" lon="2.760175"><ele>282.77</ele><time>2010-04-10T09:18:22Z</time></trkpt>
<trkpt lat="39.704994" lon="2.760172"><ele>282.28</ele><time>2010-04-10T09:18:30Z</time></trkpt>
<trkpt lat="39.704993" lon="2.760191"><ele>283.25</ele><time>2010-04-10T09:19:01Z</time></trkpt>
<trkpt lat="39.705076" lon="2.760265"><ele>285.65</ele><time>2010-04-10T09:19:10Z</time></trkpt>
<trkpt lat="39.705145" lon="2.760328"><ele>287.57</ele><time>2010-04-10T09:19:18Z</time></trkpt>
<trkpt lat="39.705167" lon="2.760329"><ele>288.53</ele><time>2010-04-10T09:19:20Z</time></trkpt>
<trkpt lat="39.705178" lon="2.760384"><ele>289.49</ele><time>2010-04-10T09:19:23Z</time></trkpt>
<trkpt lat="39.705179" lon="2.760409"><ele>290.46</ele><time>2010-04-10T09:19:25Z</time></trkpt>
<trkpt lat="39.705088" lon="2.760473"><ele>292.86</ele><time>2010-04-10T09:19:32Z</time></trkpt>
<trkpt lat="39.705075" lon="2.760480"><ele>292.86</ele><time>2010-04-10T09:19:33Z</time></trkpt>
<trkpt lat="39.704982" lon="2.760589"><ele>295.26</ele><time>2010-04-10T09:19:43Z</time></trkpt>
<trkpt lat="39.704946" lon="2.760654"><ele>297.67</ele><time>2010-04-10T09:19:51Z</time></trkpt>
<trkpt lat="39.704880" lon="2.760718"><ele>298.15</ele><time>2010-04-10T09:20:55Z</time></trkpt>
<trkpt lat="39.704844" lon="2.760750"><ele>298.63</ele><time>2010-04-10T09:21:04Z</time></trkpt>
<trkpt lat="39.704798" lon="2.760812"><ele>299.59</ele><time>2010-04-10T09:21:13Z</time></trkpt>
<trkpt lat="39.704749" lon="2.760869"><ele>301.03</ele><time>2010-04-10T09:21:20Z</time></trkpt>
<trkpt lat="39.704734" lon="2.760920"><ele>301.99</ele><time>2010-04-10T09:21:24Z</time></trkpt>
<trkpt lat="39.704677" lon="2.761016"><ele>303.91</ele><time>2010-04-10T09:21:32Z</time></trkpt>
<trkpt lat="39.704629" lon="2.761097"><ele>305.36</ele><time>2010-04-10T09:21:40Z</time></trkpt>
<trkpt lat="39.704570" lon="2.761137"><ele>306.32</ele><time>2010-04-10T09:21:55Z</time></trkpt>
<trkpt lat="39.704541" lon="2.761197"><ele>306.80</ele><time>2010-04-10T09:22:04Z</time></trkpt>
<trkpt lat="39.704492" lon="2.761253"><ele>308.72</ele><time>2010-04-10T09:22:21Z</time></trkpt>
<trkpt lat="39.704390" lon="2.761295"><ele>311.60</ele><time>2010-04-10T09:22:42Z</time></trkpt>
<trkpt lat="39.704335" lon="2.761387"><ele>314.01</ele><time>2010-04-10T09:23:03Z</time></trkpt>
<trkpt lat="39.704248" lon="2.761308"><ele>315.93</ele><time>2010-04-10T09:23:13Z</time></trkpt>
<trkpt lat="39.704197" lon="2.761268"><ele>317.85</ele><time>2010-04-10T09:23:25Z</time></trkpt>
<trkpt lat="39.704178" lon="2.761181"><ele>320.26</ele><time>2010-04-10T09:23:46Z</time></trkpt>
<trkpt lat="39.704171" lon="2.761202"><ele>320.74</ele><time>2010-04-10T09:23:59Z</time></trkpt>
<trkpt lat="39.704177" lon="2.761250"><ele>321.22</ele><time>2010-04-10T09:24:23Z</time></trkpt>
<trkpt lat="39.704162" lon="2.761336"><ele>324.10</ele><time>2010-04-10T09:24:41Z</time></trkpt>
<trkpt lat="39.704133" lon="2.761316"><ele>326.02</ele><time>2010-04-10T09:24:53Z</time></trkpt>
<trkpt lat="39.704118" lon="2.761254"><ele>327.47</ele><time>2010-04-10T09:25:07Z</time></trkpt>
<trkpt lat="39.704083" lon="2.761180"><ele>328.91</ele><time>2010-04-10T09:25:17Z</time></trkpt>
<trkpt lat="39.704053" lon="2.761137"><ele>329.87</ele><time>2010-04-10T09:25:27Z</time></trkpt>
<trkpt lat="39.704037" lon="2.761112"><ele>329.87</ele><time>2010-04-10T09:25:34Z</time></trkpt>
<trkpt lat="39.704034" lon="2.761072"><ele>331.31</ele><time>2010-04-10T09:25:45Z</time></trkpt>
<trkpt lat="39.704005" lon="2.761051"><ele>333.23</ele><time>2010-04-10T09:25:54Z</time></trkpt>
<trkpt lat="39.703961" lon="2.761024"><ele>333.71</ele><time>2010-04-10T09:26:02Z</time></trkpt>
<trkpt lat="39.703892" lon="2.760969"><ele>335.16</ele><time>2010-04-10T09:26:13Z</time></trkpt>
<trkpt lat="39.703821" lon="2.760940"><ele>336.60</ele><time>2010-04-10T09:26:23Z</time></trkpt>
<trkpt lat="39.703747" lon="2.760915"><ele>338.52</ele><time>2010-04-10T09:26:37Z</time></trkpt>
<trkpt lat="39.703749" lon="2.760951"><ele>339.48</ele><time>2010-04-10T09:26:46Z</time></trkpt>
<trkpt lat="39.703788" lon="2.761001"><ele>340.92</ele><time>2010-04-10T09:26:57Z</time></trkpt>
<trkpt lat="39.703778" lon="2.761019"><ele>341.89</ele><time>2010-04-10T09:27:04Z</time></trkpt>
<trkpt lat="39.703729" lon="2.761040"><ele>343.81</ele><time>2010-04-10T09:27:13Z</time></trkpt>
<trkpt lat="39.703714" lon="2.761060"><ele>344.29</ele><time>2010-04-10T09:27:20Z</time></trkpt>
<trkpt lat="39.703679" lon="2.761091"><ele>346.21</ele><time>2010-04-10T09:27:51Z</time></trkpt>
<trkpt lat="39.703656" lon="2.761136"><ele>347.17</ele><time>2010-04-10T09:27:57Z</time></trkpt>
<trkpt lat="39.703659" lon="2.761176"><ele>348.13</ele><time>2010-04-10T09:28:05Z</time></trkpt>
<trkpt lat="39.703654" lon="2.761179"><ele>348.62</ele><time>2010-04-10T09:28:12Z</time></trkpt>
<trkpt lat="39.703674" lon="2.761210"><ele>349.58</ele><time>2010-04-10T09:28:19Z</time></trkpt>
<trkpt lat="39.703686" lon="2.761248"><ele>350.06</ele><time>2010-04-10T09:28:26Z</time></trkpt>
<trkpt lat="39.703700" lon="2.761287"><ele>351.02</ele><time>2010-04-10T09:28:33Z</time></trkpt>
<trkpt lat="39.703710" lon="2.761296"><ele>351.50</ele><time>2010-04-10T09:29:29Z</time></trkpt>
<trkpt lat="39.703733" lon="2.761372"><ele>353.90</ele><time>2010-04-10T09:29:42Z</time></trkpt>
<trkpt lat="39.703778" lon="2.761438"><ele>355.83</ele><time>2010-04-10T09:29:54Z</time></trkpt>
<trkpt lat="39.703746" lon="2.761550"><ele>358.23</ele><time>2010-04-10T09:30:08Z</time></trkpt>
<trkpt lat="39.703779" lon="2.761644"><ele>360.15</ele><time>2010-04-10T09:30:20Z</time></trkpt>
<trkpt lat="39.703793" lon="2.761660"><ele>361.11</ele><time>2010-04-10T09:30:28Z</time></trkpt>
<trkpt lat="39.703801" lon="2.761719"><ele>362.55</ele><time>2010-04-10T09:30:35Z</time></trkpt>
<trkpt lat="39.703811" lon="2.761794"><ele>363.52</ele><time>2010-04-10T09:30:44Z</time></trkpt>
<trkpt lat="39.703806" lon="2.761914"><ele>364.00</ele><time>2010-04-10T09:30:57Z</time></trkpt>
<trkpt lat="39.703821" lon="2.762017"><ele>366.40</ele><time>2010-04-10T09:31:08Z</time></trkpt>
<trkpt lat="39.703825" lon="2.762078"><ele>366.88</ele><time>2010-04-10T09:31:15Z</time></trkpt>
<trkpt lat="39.703865" lon="2.762103"><ele>366.40</ele><time>2010-04-10T09:31:18Z</time></trkpt>
<trkpt lat="39.703902" lon="2.762121"><ele>366.40</ele><time>2010-04-10T09:31:20Z</time></trkpt>
<trkpt lat="39.703993" lon="2.762180"><ele>365.44</ele><time>2010-04-10T09:31:26Z</time></trkpt>
<trkpt lat="39.704010" lon="2.762239"><ele>366.40</ele><time>2010-04-10T09:31:29Z</time></trkpt>
<trkpt lat="39.704090" lon="2.762275"><ele>365.92</ele><time>2010-04-10T09:31:33Z</time></trkpt>
<trkpt lat="39.704191" lon="2.762337"><ele>365.92</ele><time>2010-04-10T09:31:38Z</time></trkpt>
<trkpt lat="39.704369" lon="2.762373"><ele>364.96</ele><time>2010-04-10T09:31:45Z</time></trkpt>
<trkpt lat="39.704420" lon="2.762387"><ele>364.96</ele><time>2010-04-10T09:31:48Z</time></trkpt>
<trkpt lat="39.704461" lon="2.762383"><ele>364.96</ele><time>2010-04-10T09:31:51Z</time></trkpt>
<trkpt lat="39.704512" lon="2.762402"><ele>365.92</ele><time>2010-04-10T09:31:54Z</time></trkpt>
<trkpt lat="39.704729" lon="2.762339"><ele>367.84</ele><time>2010-04-10T09:32:03Z</time></trkpt>
<trkpt lat="39.704797" lon="2.762291"><ele>368.80</ele><time>2010-04-10T09:32:07Z</time></trkpt>
<trkpt lat="39.704845" lon="2.762264"><ele>368.32</ele><time>2010-04-10T09:32:14Z</time></trkpt>
<trkpt lat="39.704866" lon="2.762273"><ele>369.76</ele><time>2010-04-10T09:33:07Z</time></trkpt>
<trkpt lat="39.704928" lon="2.762294"><ele>371.21</ele><time>2010-04-10T09:33:16Z</time></trkpt>
<trkpt lat="39.704972" lon="2.762311"><ele>372.65</ele><time>2010-04-10T09:33:23Z</time></trkpt>
<trkpt lat="39.705005" lon="2.762301"><ele>372.65</ele><time>2010-04-10T09:33:32Z</time></trkpt>
<trkpt lat="39.705017" lon="2.762305"><ele>372.65</ele><time>2010-04-10T09:33:33Z</time></trkpt>
<trkpt lat="39.705122" lon="2.762173"><ele>370.73</ele><time>2010-04-10T09:33:39Z</time></trkpt>
<trkpt lat="39.705207" lon="2.762165"><ele>370.24</ele><time>2010-04-10T09:33:43Z</time></trkpt>
<trkpt lat="39.705274" lon="2.762195"><ele>370.73</ele><time>2010-04-10T09:33:49Z</time></trkpt>
<trkpt lat="39.705322" lon="2.762178"><ele>370.73</ele><time>2010-04-10T09:33:54Z</time></trkpt>
<trkpt lat="39.705447" lon="2.762163"><ele>371.69</ele><time>2010-04-10T09:34:00Z</time></trkpt>
<trkpt lat="39.705504" lon="2.762194"><ele>372.65</ele><time>2010-04-10T09:34:04Z</time></trkpt>
<trkpt lat="39.705678" lon="2.762307"><ele>374.09</ele><time>2010-04-10T09:34:16Z</time></trkpt>
<trkpt lat="39.705711" lon="2.762337"><ele>374.09</ele><time>2010-04-10T09:34:18Z</time></trkpt>
<trkpt lat="39.705739" lon="2.762396"><ele>374.57</ele><time>2010-04-10T09:34:21Z</time></trkpt>
<trkpt lat="39.705798" lon="2.762419"><ele>374.57</ele><time>2010-04-10T09:34:25Z</time></trkpt>
<trkpt lat="39.705850" lon="2.762402"><ele>374.09</ele><time>2010-04-10T09:34:27Z</time></trkpt>
<trkpt lat="39.705922" lon="2.762488"><ele>374.57</ele><time>2010-04-10T09:34:34Z</time></trkpt>
<trkpt lat="39.705939" lon="2.762574"><ele>376.01</ele><time>2010-04-10T09:34:39Z</time></trkpt>
<trkpt lat="39.705896" lon="2.762601"><ele>377.45</ele><time>2010-04-10T09:34:44Z</time></trkpt>
<trkpt lat="39.705797" lon="2.762680"><ele>379.86</ele><time>2010-04-10T09:34:52Z</time></trkpt>
<trkpt lat="39.705769" lon="2.762766"><ele>381.78</ele><time>2010-04-10T09:35:00Z</time></trkpt>
<trkpt lat="39.705806" lon="2.762748"><ele>382.74</ele><time>2010-04-10T09:35:08Z</time></trkpt>
<trkpt lat="39.705840" lon="2.762819"><ele>384.18</ele><time>2010-04-10T09:35:21Z</time></trkpt>
<trkpt lat="39.705894" lon="2.762864"><ele>385.15</ele><time>2010-04-10T09:35:33Z</time></trkpt>
<trkpt lat="39.705911" lon="2.762950"><ele>387.55</ele><time>2010-04-10T09:35:45Z</time></trkpt>
<trkpt lat="39.705898" lon="2.763047"><ele>389.47</ele><time>2010-04-10T09:35:57Z</time></trkpt>
<trkpt lat="39.705915" lon="2.763150"><ele>390.91</ele><time>2010-04-10T09:36:12Z</time></trkpt>
<trkpt lat="39.705958" lon="2.763285"><ele>392.36</ele><time>2010-04-10T09:36:27Z</time></trkpt>
<trkpt lat="39.705990" lon="2.763419"><ele>393.32</ele><time>2010-04-10T09:36:37Z</time></trkpt>
<trkpt lat="39.706054" lon="2.763562"><ele>393.80</ele><time>2010-04-10T09:36:46Z</time></trkpt>
<trkpt lat="39.706118" lon="2.763702"><ele>393.32</ele><time>2010-04-10T09:36:54Z</time></trkpt>
<trkpt lat="39.706122" lon="2.763814"><ele>394.28</ele><time>2010-04-10T09:37:00Z</time></trkpt>
<trkpt lat="39.706143" lon="2.763886"><ele>394.28</ele><time>2010-04-10T09:37:04Z</time></trkpt>
<trkpt lat="39.706158" lon="2.763982"><ele>394.76</ele><time>2010-04-10T09:37:08Z</time></trkpt>
<trkpt lat="39.706161" lon="2.764026"><ele>395.24</ele><time>2010-04-10T09:37:10Z</time></trkpt>
<trkpt lat="39.706156" lon="2.764102"><ele>396.20</ele><time>2010-04-10T09:37:13Z</time></trkpt>
<trkpt lat="39.706174" lon="2.764251"><ele>397.64</ele><time>2010-04-10T09:37:21Z</time></trkpt>
<trkpt lat="39.706179" lon="2.764307"><ele>398.12</ele><time>2010-04-10T09:37:24Z</time></trkpt>
<trkpt lat="39.706238" lon="2.764390"><ele>398.60</ele><time>2010-04-10T09:37:30Z</time></trkpt>
<trkpt lat="39.706264" lon="2.764454"><ele>400.05</ele><time>2010-04-10T09:37:34Z</time></trkpt>
<trkpt lat="39.706268" lon="2.764485"><ele>400.05</ele><time>2010-04-10T09:37:36Z</time></trkpt>
<trkpt lat="39.706345" lon="2.764574"><ele>401.01</ele><time>2010-04-10T09:37:43Z</time></trkpt>
<trkpt lat="39.706386" lon="2.764613"><ele>400.53</ele><time>2010-04-10T09:37:46Z</time></trkpt>
<trkpt lat="39.706412" lon="2.764700"><ele>400.53</ele><time>2010-04-10T09:37:51Z</time></trkpt>
<trkpt lat="39.706459" lon="2.764734"><ele>401.01</ele><time>2010-04-10T09:37:55Z</time></trkpt>
<trkpt lat="39.706554" lon="2.764748"><ele>401.01</ele><time>2010-04-10T09:38:00Z</time></trkpt>
<trkpt lat="39.706645" lon="2.764734"><ele>400.53</ele><time>2010-04-10T09:38:03Z</time></trkpt>
<trkpt lat="39.706678" lon="2.764722"><ele>400.53</ele><time>2010-04-10T09:38:06Z</time></trkpt>
<trkpt lat="39.706812" lon="2.764778"><ele>401.01</ele><time>2010-04-10T09:38:15Z</time></trkpt>
<trkpt lat="39.706958" lon="2.764804"><ele>401.49</ele><time>2010-04-10T09:38:23Z</time></trkpt>
<trkpt lat="39.707007" lon="2.764831"><ele>402.45</ele><time>2010-04-10T09:38:27Z</time></trkpt>
<trkpt lat="39.707041" lon="2.764829"><ele>402.93</ele><time>2010-04-10T09:38:30Z</time></trkpt>
<trkpt lat="39.707138" lon="2.764828"><ele>403.41</ele><time>2010-04-10T09:38:39Z</time></trkpt>
<trkpt lat="39.707168" lon="2.764859"><ele>403.41</ele><time>2010-04-10T09:38:42Z</time></trkpt>
<trkpt lat="39.707207" lon="2.764943"><ele>404.85</ele><time>2010-04-10T09:38:49Z</time></trkpt>
<trkpt lat="39.707261" lon="2.764958"><ele>406.77</ele><time>2010-04-10T09:38:54Z</time></trkpt>
<trkpt lat="39.707348" lon="2.764996"><ele>409.18</ele><time>2010-04-10T09:39:02Z</time></trkpt>
<trkpt lat="39.707474" lon="2.765053"><ele>412.06</ele><time>2010-04-10T09:39:14Z</time></trkpt>
<trkpt lat="39.707505" lon="2.765097"><ele>413.50</ele><time>2010-04-10T09:39:19Z</time></trkpt>
<trkpt lat="39.707540" lon="2.765133"><ele>413.98</ele><time>2010-04-10T09:39:23Z</time></trkpt>
<trkpt lat="39.707599" lon="2.765192"><ele>415.43</ele><time>2010-04-10T09:39:31Z</time></trkpt>
<trkpt lat="39.707662" lon="2.765230"><ele>416.39</ele><time>2010-04-10T09:39:40Z</time></trkpt>
<trkpt lat="39.707718" lon="2.765280"><ele>417.83</ele><time>2010-04-10T09:39:48Z</time></trkpt>
<trkpt lat="39.707810" lon="2.765388"><ele>421.19</ele><time>2010-04-10T09:40:00Z</time></trkpt>
<trkpt lat="39.707864" lon="2.765454"><ele>422.16</ele><time>2010-04-10T09:40:05Z</time></trkpt>
<trkpt lat="39.707940" lon="2.765518"><ele>424.08</ele><time>2010-04-10T09:40:16Z</time></trkpt>
<trkpt lat="39.707957" lon="2.765527"><ele>424.56</ele><time>2010-04-10T09:40:19Z</time></trkpt>
<trkpt lat="39.708021" lon="2.765567"><ele>426.00</ele><time>2010-04-10T09:40:26Z</time></trkpt>
<trkpt lat="39.708067" lon="2.765611"><ele>426.48</ele><time>2010-04-10T09:40:32Z</time></trkpt>
<trkpt lat="39.708140" lon="2.765642"><ele>426.96</ele><time>2010-04-10T09:40:40Z</time></trkpt>
<trkpt lat="39.708214" lon="2.765673"><ele>427.92</ele><time>2010-04-10T09:40:48Z</time></trkpt>
<trkpt lat="39.708240" lon="2.765659"><ele>427.92</ele><time>2010-04-10T09:40:51Z</time></trkpt>
<trkpt lat="39.708282" lon="2.765667"><ele>428.89</ele><time>2010-04-10T09:40:55Z</time></trkpt>
<trkpt lat="39.708344" lon="2.765658"><ele>430.81</ele><time>2010-04-10T09:41:02Z</time></trkpt>
<trkpt lat="39.708426" lon="2.765693"><ele>432.73</ele><time>2010-04-10T09:41:10Z</time></trkpt>
<trkpt lat="39.708431" lon="2.765699"><ele>432.73</ele><time>2010-04-10T09:41:11Z</time></trkpt>
<trkpt lat="39.708481" lon="2.765797"><ele>435.61</ele><time>2010-04-10T09:41:21Z</time></trkpt>
<trkpt lat="39.708534" lon="2.765863"><ele>437.54</ele><time>2010-04-10T09:41:32Z</time></trkpt>
<trkpt lat="39.708598" lon="2.765906"><ele>438.50</ele><time>2010-04-10T09:41:41Z</time></trkpt>
<trkpt lat="39.708662" lon="2.765922"><ele>439.46</ele><time>2010-04-10T09:41:50Z</time></trkpt>
<trkpt lat="39.708758" lon="2.765936"><ele>440.42</ele><time>2010-04-10T09:42:01Z</time></trkpt>
<trkpt lat="39.708816" lon="2.765962"><ele>442.34</ele><time>2010-04-10T09:42:08Z</time></trkpt>
<trkpt lat="39.708899" lon="2.765986"><ele>443.79</ele><time>2010-04-10T09:42:17Z</time></trkpt>
<trkpt lat="39.709007" lon="2.766032"><ele>447.15</ele><time>2010-04-10T09:42:31Z</time></trkpt>
<trkpt lat="39.709123" lon="2.766094"><ele>449.07</ele><time>2010-04-10T09:42:45Z</time></trkpt>
<trkpt lat="39.709173" lon="2.766174"><ele>450.52</ele><time>2010-04-10T09:42:54Z</time></trkpt>
<trkpt lat="39.709256" lon="2.766250"><ele>452.44</ele><time>2010-04-10T09:43:05Z</time></trkpt>
<trkpt lat="39.709375" lon="2.766290"><ele>453.88</ele><time>2010-04-10T09:43:18Z</time></trkpt>
<trkpt lat="39.709463" lon="2.766397"><ele>456.28</ele><time>2010-04-10T09:43:30Z</time></trkpt>
<trkpt lat="39.709544" lon="2.766495"><ele>459.17</ele><time>2010-04-10T09:43:43Z</time></trkpt>
<trkpt lat="39.709613" lon="2.766559"><ele>460.61</ele><time>2010-04-10T09:43:52Z</time></trkpt>
<trkpt lat="39.709663" lon="2.766623"><ele>462.53</ele><time>2010-04-10T09:44:01Z</time></trkpt>
<trkpt lat="39.709705" lon="2.766689"><ele>463.97</ele><time>2010-04-10T09:44:09Z</time></trkpt>
<trkpt lat="39.709764" lon="2.766745"><ele>464.93</ele><time>2010-04-10T09:44:18Z</time></trkpt>
<trkpt lat="39.709829" lon="2.766781"><ele>465.90</ele><time>2010-04-10T09:44:26Z</time></trkpt>
<trkpt lat="39.709950" lon="2.766826"><ele>467.82</ele><time>2010-04-10T09:44:40Z</time></trkpt>
<trkpt lat="39.710075" lon="2.766883"><ele>471.18</ele><time>2010-04-10T09:44:54Z</time></trkpt>
<trkpt lat="39.710240" lon="2.766965"><ele>474.07</ele><time>2010-04-10T09:45:10Z</time></trkpt>
<trkpt lat="39.710266" lon="2.767060"><ele>475.51</ele><time>2010-04-10T09:45:20Z</time></trkpt>
<trkpt lat="39.710235" lon="2.767074"><ele>475.99</ele><time>2010-04-10T09:45:28Z</time></trkpt>
<trkpt lat="39.710218" lon="2.767088"><ele>476.47</ele><time>2010-04-10T09:46:25Z</time></trkpt>
<trkpt lat="39.710217" lon="2.767096"><ele>475.99</ele><time>2010-04-10T09:46:45Z</time></trkpt>
<trkpt lat="39.710210" lon="2.767095"><ele>476.47</ele><time>2010-04-10T09:49:49Z</time></trkpt>
<trkpt lat="39.710197" lon="2.767104"><ele>476.95</ele><time>2010-04-10T09:50:07Z</time></trkpt>
<trkpt lat="39.710168" lon="2.767107"><ele>476.95</ele><time>2010-04-10T09:50:20Z</time></trkpt>
<trkpt lat="39.709994" lon="2.767131"><ele>476.95</ele><time>2010-04-10T09:50:28Z</time></trkpt>
<trkpt lat="39.709784" lon="2.767203"><ele>474.07</ele><time>2010-04-10T09:50:32Z</time></trkpt>
<trkpt lat="39.709648" lon="2.767257"><ele>470.22</ele><time>2010-04-10T09:50:34Z</time></trkpt>
<trkpt lat="39.709504" lon="2.767488"><ele>465.90</ele><time>2010-04-10T09:50:37Z</time></trkpt>
<trkpt lat="39.709402" lon="2.767743"><ele>461.57</ele><time>2010-04-10T09:50:39Z</time></trkpt>
<trkpt lat="39.709305" lon="2.768005"><ele>458.69</ele><time>2010-04-10T09:50:41Z</time></trkpt>
<trkpt lat="39.709168" lon="2.768281"><ele>451.96</ele><time>2010-04-10T09:50:44Z</time></trkpt>
<trkpt lat="39.708993" lon="2.768253"><ele>447.15</ele><time>2010-04-10T09:50:48Z</time></trkpt>
<trkpt lat="39.708935" lon="2.768190"><ele>446.67</ele><time>2010-04-10T09:50:49Z</time></trkpt>
<trkpt lat="39.708682" lon="2.767995"><ele>441.38</ele><time>2010-04-10T09:50:52Z</time></trkpt>
<trkpt lat="39.708396" lon="2.767880"><ele>436.10</ele><time>2010-04-10T09:50:55Z</time></trkpt>
<trkpt lat="39.708304" lon="2.767860"><ele>434.65</ele><time>2010-04-10T09:50:56Z</time></trkpt>
<trkpt lat="39.708138" lon="2.767835"><ele>431.77</ele><time>2010-04-10T09:50:58Z</time></trkpt>
<trkpt lat="39.707976" lon="2.767839"><ele>427.92</ele><time>2010-04-10T09:51:01Z</time></trkpt>
<trkpt lat="39.708040" lon="2.767993"><ele>424.56</ele><time>2010-04-10T09:51:05Z</time></trkpt>
<trkpt lat="39.708094" lon="2.768056"><ele>423.60</ele><time>2010-04-10T09:51:06Z</time></trkpt>
<trkpt lat="39.708243" lon="2.768358"><ele>419.27</ele><time>2010-04-10T09:51:09Z</time></trkpt>
<trkpt lat="39.708285" lon="2.768456"><ele>416.87</ele><time>2010-04-10T09:51:10Z</time></trkpt>
<trkpt lat="39.708342" lon="2.768741"><ele>412.54</ele><time>2010-04-10T09:51:13Z</time></trkpt>
<trkpt lat="39.708362" lon="2.768924"><ele>410.62</ele><time>2010-04-10T09:51:15Z</time></trkpt>
<trkpt lat="39.708415" lon="2.769081"><ele>406.77</ele><time>2010-04-10T09:51:17Z</time></trkpt>
<trkpt lat="39.708492" lon="2.769514"><ele>401.49</ele><time>2010-04-10T09:51:21Z</time></trkpt>
<trkpt lat="39.708513" lon="2.769785"><ele>396.20</ele><time>2010-04-10T09:51:23Z</time></trkpt>
<trkpt lat="39.708526" lon="2.770012"><ele>392.84</ele><time>2010-04-10T09:51:25Z</time></trkpt>
<trkpt lat="39.708504" lon="2.770348"><ele>387.07</ele><time>2010-04-10T09:51:28Z</time></trkpt>
<trkpt lat="39.708450" lon="2.770686"><ele>382.26</ele><time>2010-04-10T09:51:31Z</time></trkpt>
<trkpt lat="39.708453" lon="2.770943"><ele>376.97</ele><time>2010-04-10T09:51:34Z</time></trkpt>
<trkpt lat="39.708465" lon="2.771021"><ele>374.57</ele><time>2010-04-10T09:51:35Z</time></trkpt>
<trkpt lat="39.708363" lon="2.771316"><ele>368.80</ele><time>2010-04-10T09:51:39Z</time></trkpt>
<trkpt lat="39.708340" lon="2.771443"><ele>367.36</ele><time>2010-04-10T09:51:40Z</time></trkpt>
<trkpt lat="39.708293" lon="2.771805"><ele>362.07</ele><time>2010-04-10T09:51:43Z</time></trkpt>
<trkpt lat="39.708272" lon="2.771984"><ele>356.79</ele><time>2010-04-10T09:51:45Z</time></trkpt>
<trkpt lat="39.708337" lon="2.772003"><ele>353.42</ele><time>2010-04-10T09:51:49Z</time></trkpt>
<trkpt lat="39.708472" lon="2.771828"><ele>350.54</ele><time>2010-04-10T09:51:52Z</time></trkpt>
<trkpt lat="39.708668" lon="2.771721"><ele>346.69</ele><time>2010-04-10T09:51:56Z</time></trkpt>
<trkpt lat="39.708693" lon="2.771944"><ele>343.33</ele><time>2010-04-10T09:51:59Z</time></trkpt>
<trkpt lat="39.708655" lon="2.772238"><ele>339.00</ele><time>2010-04-10T09:52:02Z</time></trkpt>
<trkpt lat="39.708594" lon="2.772560"><ele>333.23</ele><time>2010-04-10T09:52:05Z</time></trkpt>
<trkpt lat="39.708554" lon="2.772798"><ele>328.91</ele><time>2010-04-10T09:52:07Z</time></trkpt>
<trkpt lat="39.708536" lon="2.772907"><ele>327.95</ele><time>2010-04-10T09:52:08Z</time></trkpt>
<trkpt lat="39.708529" lon="2.773256"><ele>322.66</ele><time>2010-04-10T09:52:11Z</time></trkpt>
<trkpt lat="39.708528" lon="2.773391"><ele>321.22</ele><time>2010-04-10T09:52:12Z</time></trkpt>
<trkpt lat="39.708495" lon="2.773914"><ele>316.89</ele><time>2010-04-10T09:52:16Z</time></trkpt>
<trkpt lat="39.708516" lon="2.774311"><ele>312.57</ele><time>2010-04-10T09:52:19Z</time></trkpt>
<trkpt lat="39.708530" lon="2.774570"><ele>309.20</ele><time>2010-04-10T09:52:21Z</time></trkpt>
<trkpt lat="39.708543" lon="2.774698"><ele>308.24</ele><time>2010-04-10T09:52:22Z</time></trkpt>
<trkpt lat="39.708692" lon="2.775196"><ele>302.95</ele><time>2010-04-10T09:52:26Z</time></trkpt>
<trkpt lat="39.708745" lon="2.775372"><ele>300.55</ele><time>2010-04-10T09:52:28Z</time></trkpt>
<trkpt lat="39.708741" lon="2.775603"><ele>299.59</ele><time>2010-04-10T09:52:33Z</time></trkpt>
<trkpt lat="39.708734" lon="2.775772"><ele>298.63</ele><time>2010-04-10T09:52:39Z</time></trkpt>
<trkpt lat="39.708727" lon="2.775775"><ele>298.63</ele><time>2010-04-10T09:52:46Z</time></trkpt>
<trkpt lat="39.708726" lon="2.775774"><ele>298.63</ele><time>2010-04-10T09:52:47Z</time></trkpt>
<trkpt lat="39.708664" lon="2.775893"><ele>297.67</ele><time>2010-04-10T09:52:53Z</time></trkpt>
<trkpt lat="39.708655" lon="2.776175"><ele>295.74</ele><time>2010-04-10T09:53:00Z</time></trkpt>
<trkpt lat="39.708669" lon="2.776422"><ele>294.78</ele><time>2010-04-10T09:53:05Z</time></trkpt>
<trkpt lat="39.708832" lon="2.776748"><ele>293.82</ele><time>2010-04-10T09:53:12Z</time></trkpt>
<trkpt lat="39.709064" lon="2.777049"><ele>293.34</ele><time>2010-04-10T09:53:21Z</time></trkpt>
<trkpt lat="39.709177" lon="2.777191"><ele>292.38</ele><time>2010-04-10T09:53:25Z</time></trkpt>
<trkpt lat="39.709240" lon="2.777518"><ele>291.90</ele><time>2010-04-10T09:53:31Z</time></trkpt>
<trkpt lat="39.709226" lon="2.777615"><ele>291.90</ele><time>2010-04-10T09:53:33Z</time></trkpt>
<trkpt lat="39.709114" lon="2.777934"><ele>292.86</ele><time>2010-04-10T09:53:42Z</time></trkpt>
<trkpt lat="39.708986" lon="2.778211"><ele>293.34</ele><time>2010-04-10T09:53:51Z</time></trkpt>
<trkpt lat="39.708739" lon="2.778577"><ele>289.97</ele><time>2010-04-10T09:53:59Z</time></trkpt>
<trkpt lat="39.708622" lon="2.778828"><ele>286.61</ele><time>2010-04-10T09:54:03Z</time></trkpt>
<trkpt lat="39.708477" lon="2.779208"><ele>283.73</ele><time>2010-04-10T09:54:08Z</time></trkpt>
<trkpt lat="39.708453" lon="2.779292"><ele>282.77</ele><time>2010-04-10T09:54:09Z</time></trkpt>
<trkpt lat="39.708411" lon="2.779558"><ele>280.84</ele><time>2010-04-10T09:54:12Z</time></trkpt>
<trkpt lat="39.708387" lon="2.779968"><ele>277.96</ele><time>2010-04-10T09:54:16Z</time></trkpt>
<trkpt lat="39.708380" lon="2.780196"><ele>277.00</ele><time>2010-04-10T09:54:18Z</time></trkpt>
<trkpt lat="39.708240" lon="2.780814"><ele>272.67</ele><time>2010-04-10T09:54:23Z</time></trkpt>
<trkpt lat="39.708150" lon="2.781187"><ele>269.31</ele><time>2010-04-10T09:54:26Z</time></trkpt>
<trkpt lat="39.708093" lon="2.781398"><ele>266.42</ele><time>2010-04-10T09:54:28Z</time></trkpt>
<trkpt lat="39.708007" lon="2.781699"><ele>262.58</ele><time>2010-04-10T09:54:32Z</time></trkpt>
<trkpt lat="39.707916" lon="2.781940"><ele>260.17</ele><time>2010-04-10T09:54:35Z</time></trkpt>
<trkpt lat="39.707748" lon="2.782264"><ele>255.85</ele><time>2010-04-10T09:54:39Z</time></trkpt>
<trkpt lat="39.707667" lon="2.782403"><ele>254.89</ele><time>2010-04-10T09:54:41Z</time></trkpt>
<trkpt lat="39.707603" lon="2.782666"><ele>252.48</ele><time>2010-04-10T09:54:44Z</time></trkpt>
<trkpt lat="39.707493" lon="2.782938"><ele>251.04</ele><time>2010-04-10T09:54:47Z</time></trkpt>
<trkpt lat="39.707377" lon="2.783279"><ele>250.08</ele><time>2010-04-10T09:54:51Z</time></trkpt>
<trkpt lat="39.707303" lon="2.783498"><ele>248.16</ele><time>2010-04-10T09:54:55Z</time></trkpt>
<trkpt lat="39.707375" lon="2.783572"><ele>248.64</ele><time>2010-04-10T09:55:00Z</time></trkpt>
<trkpt lat="39.707574" lon="2.783873"><ele>248.16</ele><time>2010-04-10T09:55:12Z</time></trkpt>
<trkpt lat="39.707572" lon="2.783913"><ele>248.16</ele><time>2010-04-10T09:55:14Z</time></trkpt>
<trkpt lat="39.707578" lon="2.784043"><ele>247.20</ele><time>2010-04-10T09:55:18Z</time></trkpt>
<trkpt lat="39.707681" lon="2.784286"><ele>245.75</ele><time>2010-04-10T09:55:22Z</time></trkpt>
<trkpt lat="39.707669" lon="2.784453"><ele>244.79</ele><time>2010-04-10T09:55:26Z</time></trkpt>
<trkpt lat="39.707613" lon="2.784500"><ele>244.79</ele><time>2010-04-10T09:55:28Z</time></trkpt>
<trkpt lat="39.707391" lon="2.784699"><ele>243.83</ele><time>2010-04-10T09:55:35Z</time></trkpt>
<trkpt lat="39.707284" lon="2.784803"><ele>243.35</ele><time>2010-04-10T09:55:38Z</time></trkpt>
<trkpt lat="39.707195" lon="2.784743"><ele>242.87</ele><time>2010-04-10T09:55:42Z</time></trkpt>
<trkpt lat="39.707130" lon="2.784569"><ele>243.35</ele><time>2010-04-10T09:55:50Z</time></trkpt>
<trkpt lat="39.707061" lon="2.784397"><ele>244.31</ele><time>2010-04-10T09:55:56Z</time></trkpt>
<trkpt lat="39.707017" lon="2.784304"><ele>244.31</ele><time>2010-04-10T09:55:59Z</time></trkpt>
<trkpt lat="39.706933" lon="2.784229"><ele>244.31</ele><time>2010-04-10T09:56:05Z</time></trkpt>
<trkpt lat="39.706930" lon="2.784228"><ele>244.31</ele><time>2010-04-10T09:56:13Z</time></trkpt>
<trkpt lat="39.706856" lon="2.784079"><ele>245.27</ele><time>2010-04-10T09:56:19Z</time></trkpt>
<trkpt lat="39.706736" lon="2.783895"><ele>245.27</ele><time>2010-04-10T09:56:24Z</time></trkpt>
<trkpt lat="39.706534" lon="2.784026"><ele>245.27</ele><time>2010-04-10T09:56:29Z</time></trkpt>
<trkpt lat="39.706214" lon="2.784519"><ele>241.43</ele><time>2010-04-10T09:56:38Z</time></trkpt>
<trkpt lat="39.706163" lon="2.784582"><ele>241.43</ele><time>2010-04-10T09:56:39Z</time></trkpt>
<trkpt lat="39.706042" lon="2.784712"><ele>239.99</ele><time>2010-04-10T09:56:41Z</time></trkpt>
<trkpt lat="39.705563" lon="2.785069"><ele>237.58</ele><time>2010-04-10T09:56:48Z</time></trkpt>
<trkpt lat="39.704962" lon="2.785374"><ele>234.22</ele><time>2010-04-10T09:56:56Z</time></trkpt>
<trkpt lat="39.704676" lon="2.785540"><ele>231.81</ele><time>2010-04-10T09:56:59Z</time></trkpt>
<trkpt lat="39.704474" lon="2.785626"><ele>230.37</ele><time>2010-04-10T09:57:01Z</time></trkpt>
<trkpt lat="39.704391" lon="2.785655"><ele>228.93</ele><time>2010-04-10T09:57:02Z</time></trkpt>
<trkpt lat="39.704340" lon="2.785882"><ele>229.41</ele><time>2010-04-10T09:57:06Z</time></trkpt>
<trkpt lat="39.704548" lon="2.786437"><ele>229.41</ele><time>2010-04-10T09:57:18Z</time></trkpt>
<trkpt lat="39.704726" lon="2.786873"><ele>230.37</ele><time>2010-04-10T09:57:27Z</time></trkpt>
<trkpt lat="39.704813" lon="2.787070"><ele>231.33</ele><time>2010-04-10T09:57:34Z</time></trkpt>
<trkpt lat="39.704833" lon="2.787096"><ele>231.81</ele><time>2010-04-10T09:57:42Z</time></trkpt>
<trkpt lat="39.704871" lon="2.787323"><ele>231.81</ele><time>2010-04-10T09:57:51Z</time></trkpt>
<trkpt lat="39.704886" lon="2.787627"><ele>230.85</ele><time>2010-04-10T09:57:59Z</time></trkpt>
<trkpt lat="39.704877" lon="2.787736"><ele>229.89</ele><time>2010-04-10T09:58:03Z</time></trkpt>
<trkpt lat="39.704825" lon="2.788029"><ele>229.41</ele><time>2010-04-10T09:58:08Z</time></trkpt>
<trkpt lat="39.704950" lon="2.788236"><ele>228.93</ele><time>2010-04-10T09:58:13Z</time></trkpt>
<trkpt lat="39.704851" lon="2.788476"><ele>228.45</ele><time>2010-04-10T09:58:18Z</time></trkpt>
<trkpt lat="39.704658" lon="2.788721"><ele>227.01</ele><time>2010-04-10T09:58:24Z</time></trkpt>
<trkpt lat="39.704522" lon="2.788891"><ele>226.05</ele><time>2010-04-10T09:58:29Z</time></trkpt>
<trkpt lat="39.704335" lon="2.789094"><ele>225.09</ele><time>2010-04-10T09:58:35Z</time></trkpt>
<trkpt lat="39.704128" lon="2.789325"><ele>223.16</ele><time>2010-04-10T09:58:42Z</time></trkpt>
<trkpt lat="39.703918" lon="2.789638"><ele>222.20</ele><time>2010-04-10T09:58:49Z</time></trkpt>
<trkpt lat="39.703852" lon="2.789712"><ele>221.72</ele><time>2010-04-10T09:58:51Z</time></trkpt>
<trkpt lat="39.703554" lon="2.790073"><ele>220.28</ele><time>2010-04-10T09:58:59Z</time></trkpt>
<trkpt lat="39.703460" lon="2.790158"><ele>219.80</ele><time>2010-04-10T09:59:02Z</time></trkpt>
<trkpt lat="39.703523" lon="2.790336"><ele>219.80</ele><time>2010-04-10T09:59:07Z</time></trkpt>
<trkpt lat="39.703821" lon="2.790810"><ele>220.28</ele><time>2010-04-10T09:59:20Z</time></trkpt>
<trkpt lat="39.704056" lon="2.791147"><ele>219.80</ele><time>2010-04-10T09:59:30Z</time></trkpt>
<trkpt lat="39.704087" lon="2.791192"><ele>219.32</ele><time>2010-04-10T09:59:37Z</time></trkpt>
<trkpt lat="39.704251" lon="2.791444"><ele>219.32</ele><time>2010-04-10T09:59:44Z</time></trkpt>
<trkpt lat="39.704367" lon="2.791721"><ele>218.84</ele><time>2010-04-10T09:59:52Z</time></trkpt>
<trkpt lat="39.704398" lon="2.791767"><ele>218.84</ele><time>2010-04-10T09:59:54Z</time></trkpt>
<trkpt lat="39.704379" lon="2.791908"><ele>218.84</ele><time>2010-04-10T09:59:59Z</time></trkpt>
<trkpt lat="39.704211" lon="2.792091"><ele>218.36</ele><time>2010-04-10T10:00:04Z</time></trkpt>
<trkpt lat="39.703808" lon="2.792604"><ele>215.95</ele><time>2010-04-10T10:00:14Z</time></trkpt>
<trkpt lat="39.703664" lon="2.792744"><ele>215.47</ele><time>2010-04-10T10:00:18Z</time></trkpt>
<trkpt lat="39.703615" lon="2.792825"><ele>214.03</ele><time>2010-04-10T10:00:23Z</time></trkpt>
<trkpt lat="39.703604" lon="2.792883"><ele>214.51</ele><time>2010-04-10T10:00:29Z</time></trkpt>
<trkpt lat="39.703505" lon="2.793004"><ele>213.55</ele><time>2010-04-10T10:00:33Z</time></trkpt>
<trkpt lat="39.703337" lon="2.793211"><ele>213.07</ele><time>2010-04-10T10:00:38Z</time></trkpt>
<trkpt lat="39.703004" lon="2.793580"><ele>211.63</ele><time>2010-04-10T10:00:46Z</time></trkpt>
<trkpt lat="39.702585" lon="2.794096"><ele>210.19</ele><time>2010-04-10T10:00:56Z</time></trkpt>
<trkpt lat="39.702515" lon="2.794184"><ele>209.70</ele><time>2010-04-10T10:00:58Z</time></trkpt>
<trkpt lat="39.702519" lon="2.794360"><ele>208.74</ele><time>2010-04-10T10:01:02Z</time></trkpt>
<trkpt lat="39.702678" lon="2.794589"><ele>207.78</ele><time>2010-04-10T10:01:11Z</time></trkpt>
<trkpt lat="39.702699" lon="2.794589"><ele>207.78</ele><time>2010-04-10T10:01:17Z</time></trkpt>
<trkpt lat="39.702710" lon="2.794572"><ele>207.78</ele><time>2010-04-10T10:01:24Z</time></trkpt>
</trkseg></trk></gpx>